Time,TemperatureF,DewpointF,PressureIn,WindDirection,WindDirectionDegrees,WindSpeedMPH,WindSpeedGustMPH,Humidity,HourlyPrecipIn,Conditions,Clouds,dailyrainin,SoftwareType,DateUTC
2013-01-01 00:00:00,48.7,26.7,29.35,WNW,292,0.0,0.0,42,0.00,,---,0.00,VWS V14.01,2013-01-01 06:00:00,
2013-01-01 00:01:00,70.3,39.9,0.00,NE,45,2.5,2.9,33,0.00,,---,0.00,VWS V14.01,2013-01-01 06:01:00,
2013-01-01 00:10:00,48.7,27.3,29.32,WSW,248,0.0,0.0,43,0.00,,---,0.00,VWS V14.01,2013-01-01 06:10:00,
2013-01-01 00:15:00,48.7,27.8,29.32,WNW,292,0.0,0.0,44,0.00,,---,0.00,VWS V14.01,2013-01-01 06:15:00,
2013-01-01 00:25:00,48.7,27.8,29.32,WNW,292,0.0,0.0,44,0.00,,---,0.00,VWS V14.01,2013-01-01 06:25:00,
2013-01-01 00:30:00,48.7,28.4,29.32,WSW,248,0.0,0.0,45,0.00,,---,0.00,VWS V14.01,2013-01-01 06:30:00,
2013-01-01 00:35:00,48.7,29.4,29.32,WSW,248,0.0,0.0,47,0.00,,---,0.00,VWS V14.01,2013-01-01 06:35:00,
2013-01-01 00:40:00,48.7,29.4,29.35,West,270,0.0,0.0,47,0.00,,---,0.00,VWS V14.01,2013-01-01 06:40:00,
2013-01-01 00:45:00,48.6,29.3,29.35,West,270,0.0,0.0,47,0.00,,---,0.00,VWS V14.01,2013-01-01 06:45:00,
2013-01-01 00:50:00,48.6,29.8,29.35,West,270,0.0,0.0,48,0.00,,---,0.00,VWS V14.01,2013-01-01 06:50:00,
2013-01-01 00:55:00,48.6,29.8,29.32,NW,315,0.0,0.0,48,0.00,,---,0.00,VWS V14.01,2013-01-01 06:55:00,
2013-01-01 01:00:00,48.6,29.8,29.32,NNW,338,0.0,0.0,48,0.00,,---,0.00,VWS V14.01,2013-01-01 07:00:00,
2013-01-01 01:01:00,65.8,65.0,0.00,NNW,338,1.1,1.1,97,0.00,,---,0.00,VWS V14.01,2013-01-01 07:01:00,
2013-01-01 01:05:00,48.6,30.3,29.32,NNW,338,0.0,0.0,49,0.00,,---,0.00,VWS V14.01,2013-01-01 07:05:00,
2013-01-01 01:10:00,48.6,30.3,29.32,NNW,338,0.0,0.0,49,0.00,,---,0.00,VWS V14.01,2013-01-01 07:10:00,
2013-01-01 01:15:00,48.6,30.8,29.32,NNW,338,0.0,0.0,50,0.00,,---,0.00,VWS V14.01,2013-01-01 07:15:00,
2013-01-01 01:25:00,48.6,31.3,29.32,NW,315,0.0,0.0,51,0.00,,---,0.00,VWS V14.01,2013-01-01 07:25:00,
2013-01-01 01:30:00,48.6,31.8,29.32,NNW,338,0.0,0.0,52,0.00,,---,0.00,VWS V14.01,2013-01-01 07:30:00,
2013-01-01 01:35:00,48.4,31.6,29.32,WNW,292,0.0,0.0,52,0.00,,---,0.00,VWS V14.01,2013-01-01 07:35:00,
2013-01-01 01:40:00,48.4,32.0,29.35,WNW,292,0.0,0.0,53,0.00,,---,0.00,VWS V14.01,2013-01-01 07:40:00,
2013-01-01 01:45:00,48.2,32.3,29.35,WNW,292,0.0,0.0,54,0.00,,---,0.00,VWS V14.01,2013-01-01 07:45:00,
2013-01-01 01:50:00,48.2,32.3,29.35,WNW,292,0.0,0.0,54,0.05,,---,0.05,VWS V14.01,2013-01-01 07:50:00,
2013-01-01 01:51:00,48.7,26.7,29.35,WNW,292,0.0,0.0,42,0.00,,---,0.00,VWS V14.01,2013-01-01 07:51:00,
2013-01-01 01:52:00,48.7,26.7,29.35,WNW,292,0.0,0.0,42,0.00,,---,0.00,VWS V14.01,2013-01-01 07:52:00,
2013-01-01 01:53:00,48.7,26.7,29.35,NNW,338,0.0,0.0,42,0.00,,---,0.00,VWS V14.01,2013-01-01 07:53:00,
2013-01-01 01:54:00,48.7,27.3,29.35,ENE,68,0.0,0.0,43,0.00,,---,0.00,VWS V14.01,2013-01-01 07:54:00,
2013-01-01 01:55:00,48.2,32.3,29.32,WNW,292,0.0,0.0,54,0.05,,---,0.05,VWS V14.01,2013-01-01 07:55:00,
2013-01-01 01:56:00,48.7,27.3,29.35,ESE,112,0.0,0.0,43,0.00,,---,0.00,VWS V14.01,2013-01-01 07:56:00,
2013-01-01 01:57:00,48.7,27.3,29.35,ESE,112,0.0,0.0,43,0.00,,---,0.00,VWS V14.01,2013-01-01 07:57:00,
2013-01-01 01:58:00,48.7,27.3,29.32,ESE,112,0.0,0.0,43,0.00,,---,0.00,VWS V14.01,2013-01-01 07:58:00,
2013-01-01 01:59:00,48.7,27.3,29.32,ESE,112,0.0,0.0,43,0.00,,---,0.00,VWS V14.01,2013-01-01 07:59:00,
2013-01-01 02:00:00,48.0,33.1,29.32,WNW,292,0.0,0.0,56,0.05,,---,0.05,VWS V14.01,2013-01-01 08:00:00,
2013-01-01 02:01:00,48.7,27.8,29.32,WSW,248,0.0,0.0,44,0.00,,---,0.00,VWS V14.01,2013-01-01 08:01:00,
2013-01-01 02:02:00,48.7,27.8,29.32,WSW,248,0.0,0.0,44,0.00,,---,0.00,VWS V14.01,2013-01-01 08:02:00,
2013-01-01 02:03:00,48.7,27.8,29.32,WNW,292,0.0,0.0,44,0.00,,---,0.00,VWS V14.01,2013-01-01 08:03:00,
2013-01-01 02:04:00,48.7,27.8,29.32,WNW,292,0.0,0.0,44,0.00,,---,0.00,VWS V14.01,2013-01-01 08:04:00,
2013-01-01 02:05:00,48.0,33.1,29.32,WNW,292,0.0,0.0,56,0.05,,---,0.05,VWS V14.01,2013-01-01 08:05:00,
2013-01-01 02:06:00,48.7,27.8,29.32,WNW,292,0.0,0.0,44,0.00,,---,0.00,VWS V14.01,2013-01-01 08:06:00,
2013-01-01 02:07:00,48.7,28.4,29.32,WNW,292,0.0,0.0,45,0.00,,---,0.00,VWS V14.01,2013-01-01 08:07:00,
2013-01-01 02:08:00,48.7,28.4,29.32,NW,315,0.0,0.0,45,0.00,,---,0.00,VWS V14.01,2013-01-01 08:08:00,
2013-01-01 02:09:00,48.7,27.8,29.32,NW,315,0.0,0.0,44,0.00,,---,0.00,VWS V14.01,2013-01-01 08:09:00,
2013-01-01 02:10:00,47.8,33.4,29.35,WNW,292,0.0,0.0,57,0.05,,---,0.05,VWS V14.01,2013-01-01 08:10:00,
2013-01-01 02:11:00,48.7,28.4,29.32,WSW,248,0.0,0.0,45,0.00,,---,0.00,VWS V14.01,2013-01-01 08:11:00,
2013-01-01 02:12:00,48.7,27.8,29.32,WNW,292,0.0,0.0,44,0.00,,---,0.00,VWS V14.01,2013-01-01 08:12:00,
2013-01-01 02:13:00,48.7,27.8,29.32,WNW,292,0.0,0.0,44,0.00,,---,0.00,VWS V14.01,2013-01-01 08:13:00,
2013-01-01 02:14:00,48.7,27.8,29.32,WNW,292,0.0,0.0,44,0.00,,---,0.00,VWS V14.01,2013-01-01 08:14:00,
2013-01-01 02:15:00,47.8,33.8,29.35,WNW,292,0.0,0.0,58,0.05,,---,0.05,VWS V14.01,2013-01-01 08:15:00,
2013-01-01 02:16:00,48.7,27.8,29.32,WNW,292,0.0,0.0,44,0.00,,---,0.00,VWS V14.01,2013-01-01 08:16:00,
2013-01-01 02:17:00,48.7,28.4,29.32,WSW,248,0.0,0.0,45,0.00,,---,0.00,VWS V14.01,2013-01-01 08:17:00,
2013-01-01 02:18:00,48.7,28.4,29.32,WSW,248,0.0,0.0,45,0.00,,---,0.00,VWS V14.01,2013-01-01 08:18:00,
2013-01-01 02:19:00,48.7,28.4,29.32,WSW,248,0.0,0.0,45,0.00,,---,0.00,VWS V14.01,2013-01-01 08:19:00,
2013-01-01 02:20:00,47.8,34.6,29.35,WNW,292,0.0,0.0,60,0.05,,---,0.05,VWS V14.01,2013-01-01 08:20:00,
2013-01-01 02:21:00,48.7,28.4,29.32,West,270,0.0,0.0,45,0.00,,---,0.00,VWS V14.01,2013-01-01 08:21:00,
2013-01-01 02:22:00,48.7,28.9,29.32,West,270,0.0,0.0,46,0.00,,---,0.00,VWS V14.01,2013-01-01 08:22:00,
2013-01-01 02:23:00,48.7,28.9,29.32,WSW,248,0.0,0.0,46,0.00,,---,0.00,VWS V14.01,2013-01-01 08:23:00,
2013-01-01 02:24:00,48.7,28.9,29.32,WSW,248,0.0,0.0,46,0.00,,---,0.00,VWS V14.01,2013-01-01 08:24:00,
2013-01-01 02:25:00,47.7,34.0,29.35,WNW,292,0.0,0.0,59,0.05,,---,0.05,VWS V14.01,2013-01-01 08:25:00,
2013-01-01 02:26:00,48.7,28.9,29.32,WSW,248,0.0,0.0,46,0.00,,---,0.00,VWS V14.01,2013-01-01 08:26:00,
2013-01-01 02:27:00,48.7,28.9,29.32,WSW,248,0.0,0.0,46,0.00,,---,0.00,VWS V14.01,2013-01-01 08:27:00,
2013-01-01 02:28:00,48.7,29.4,29.35,WSW,248,0.0,0.0,47,0.00,,---,0.00,VWS V14.01,2013-01-01 08:28:00,
2013-01-01 02:29:00,48.7,29.4,29.35,West,270,0.0,0.0,47,0.00,,---,0.00,VWS V14.01,2013-01-01 08:29:00,
2013-01-01 02:30:00,47.7,34.5,29.35,WNW,292,0.0,0.0,60,0.05,,---,0.05,VWS V14.01,2013-01-01 08:30:00,
2013-01-01 02:31:00,48.6,29.3,29.35,West,270,0.0,0.0,47,0.00,,---,0.00,VWS V14.01,2013-01-01 08:31:00,
2013-01-01 02:32:00,48.6,29.3,29.35,West,270,0.0,0.0,47,0.00,,---,0.00,VWS V14.01,2013-01-01 08:32:00,
2013-01-01 02:33:00,48.6,29.3,29.35,West,270,0.0,0.0,47,0.00,,---,0.00,VWS V14.01,2013-01-01 08:33:00,
2013-01-01 02:34:00,48.6,29.3,29.35,West,270,0.0,0.0,47,0.00,,---,0.00,VWS V14.01,2013-01-01 08:34:00,
2013-01-01 02:35:00,47.5,34.3,29.35,WNW,292,0.0,0.0,60,0.05,,---,0.05,VWS V14.01,2013-01-01 08:35:00,
2013-01-01 02:36:00,48.6,29.3,29.35,West,270,0.0,0.0,47,0.00,,---,0.00,VWS V14.01,2013-01-01 08:36:00,
2013-01-01 02:37:00,48.6,29.3,29.35,West,270,0.0,0.0,47,0.00,,---,0.00,VWS V14.01,2013-01-01 08:37:00,
2013-01-01 02:38:00,48.6,29.3,29.35,West,270,0.0,0.0,47,0.00,,---,0.00,VWS V14.01,2013-01-01 08:38:00,
2013-01-01 02:39:00,48.6,29.8,29.35,West,270,0.0,0.0,48,0.00,,---,0.00,VWS V14.01,2013-01-01 08:39:00,
2013-01-01 02:40:00,47.5,35.1,29.35,WNW,292,0.0,0.0,62,0.08,,---,0.08,VWS V14.01,2013-01-01 08:40:00,
2013-01-01 02:41:00,48.6,29.8,29.35,WNW,292,0.0,0.0,48,0.00,,---,0.00,VWS V14.01,2013-01-01 08:41:00,
2013-01-01 02:42:00,48.6,29.8,29.35,NW,315,0.0,0.0,48,0.00,,---,0.00,VWS V14.01,2013-01-01 08:42:00,
2013-01-01 02:43:00,48.6,29.8,29.32,NW,315,0.0,0.0,48,0.00,,---,0.00,VWS V14.01,2013-01-01 08:43:00,
2013-01-01 02:44:00,48.6,29.8,29.32,NW,315,0.0,0.0,48,0.00,,---,0.00,VWS V14.01,2013-01-01 08:44:00,
2013-01-01 02:45:00,47.5,35.5,29.35,WNW,292,0.0,0.0,63,0.08,,---,0.08,VWS V14.01,2013-01-01 08:45:00,
2013-01-01 02:46:00,48.6,29.8,29.32,NW,315,0.0,0.0,48,0.00,,---,0.00,VWS V14.01,2013-01-01 08:46:00,
2013-01-01 02:47:00,48.6,29.8,29.32,NW,315,0.0,0.0,48,0.00,,---,0.00,VWS V14.01,2013-01-01 08:47:00,
2013-01-01 02:48:00,48.6,29.8,29.32,NW,315,0.0,0.0,48,0.00,,---,0.00,VWS V14.01,2013-01-01 08:48:00,
2013-01-01 02:49:00,48.6,29.8,29.32,NNW,338,0.0,0.0,48,0.00,,---,0.00,VWS V14.01,2013-01-01 08:49:00,
2013-01-01 02:50:00,47.5,34.7,29.35,WNW,292,0.0,0.0,61,0.03,,---,0.08,VWS V14.01,2013-01-01 08:50:00,
2013-01-01 02:51:00,48.6,30.3,29.32,NNW,338,0.0,0.0,49,0.00,,---,0.00,VWS V14.01,2013-01-01 08:51:00,
2013-01-01 02:52:00,48.6,30.3,29.32,NNW,338,0.0,0.0,49,0.00,,---,0.00,VWS V14.01,2013-01-01 08:52:00,
2013-01-01 02:53:00,48.6,30.3,29.32,NNW,338,0.0,0.0,49,0.00,,---,0.00,VWS V14.01,2013-01-01 08:53:00,
2013-01-01 02:54:00,47.5,35.1,29.35,WNW,292,0.0,0.0,62,0.03,,---,0.08,VWS V14.01,2013-01-01 08:54:00,
2013-01-01 02:55:00,48.6,30.3,29.32,NNW,338,0.0,0.0,49,0.00,,---,0.00,VWS V14.01,2013-01-01 08:55:00,
2013-01-01 02:56:00,48.6,30.3,29.32,NNW,338,0.0,0.0,49,0.00,,---,0.00,VWS V14.01,2013-01-01 08:56:00,
2013-01-01 02:57:00,48.6,30.3,29.32,NNW,338,0.0,0.0,49,0.00,,---,0.00,VWS V14.01,2013-01-01 08:57:00,
2013-01-01 02:58:00,48.6,30.3,29.32,NNW,338,0.0,0.0,49,0.00,,---,0.00,VWS V14.01,2013-01-01 08:58:00,
2013-01-01 02:59:00,47.5,35.1,29.35,WNW,292,0.0,0.0,62,0.03,,---,0.08,VWS V14.01,2013-01-01 08:59:00,
2013-01-01 03:00:00,48.6,30.3,29.32,NNW,338,0.0,0.0,49,0.00,,---,0.00,VWS V14.01,2013-01-01 09:00:00,
2013-01-01 03:01:00,48.6,30.3,29.32,NNW,338,0.0,0.0,49,0.00,,---,0.00,VWS V14.01,2013-01-01 09:01:00,
2013-01-01 03:02:00,48.6,30.3,29.32,NNW,338,0.0,0.0,49,0.00,,---,0.00,VWS V14.01,2013-01-01 09:02:00,
2013-01-01 03:03:00,48.6,30.3,29.32,NNW,338,0.0,0.0,49,0.00,,---,0.00,VWS V14.01,2013-01-01 09:03:00,
2013-01-01 03:04:00,47.5,35.1,29.35,WNW,292,0.0,0.0,62,0.08,,---,0.13,VWS V14.01,2013-01-01 09:04:00,
2013-01-01 03:05:00,48.6,30.8,29.32,NNW,338,0.0,0.0,50,0.00,,---,0.00,VWS V14.01,2013-01-01 09:05:00,
2013-01-01 03:06:00,48.6,30.8,29.32,NNW,338,0.0,0.0,50,0.00,,---,0.00,VWS V14.01,2013-01-01 09:06:00,
2013-01-01 03:07:00,48.6,30.8,29.32,NW,315,0.0,0.0,50,0.00,,---,0.00,VWS V14.01,2013-01-01 09:07:00,
2013-01-01 03:08:00,48.6,30.8,29.32,NW,315,0.0,0.0,50,0.00,,---,0.00,VWS V14.01,2013-01-01 09:08:00,
2013-01-01 03:09:00,47.5,35.1,29.38,WNW,292,0.0,0.0,62,0.08,,---,0.13,VWS V14.01,2013-01-01 09:09:00,
2013-01-01 03:10:00,48.6,30.8,29.32,NW,315,0.0,0.0,50,0.00,,---,0.00,VWS V14.01,2013-01-01 09:10:00,
2013-01-01 03:11:00,48.7,31.0,29.32,NW,315,0.0,0.0,50,0.00,,---,0.00,VWS V14.01,2013-01-01 09:11:00,
2013-01-01 03:12:00,48.6,30.8,29.32,NW,315,0.0,0.0,50,0.00,,---,0.00,VWS V14.01,2013-01-01 09:12:00,
2013-01-01 03:13:00,48.6,30.8,29.32,NW,315,0.0,0.0,50,0.00,,---,0.00,VWS V14.01,2013-01-01 09:13:00,
2013-01-01 03:14:00,47.5,35.5,29.38,WNW,292,0.0,0.0,63,0.08,,---,0.13,VWS V14.01,2013-01-01 09:14:00,
2013-01-01 03:15:00,48.6,31.3,29.32,NNW,338,0.0,0.0,51,0.00,,---,0.00,VWS V14.01,2013-01-01 09:15:00,
2013-01-01 03:16:00,48.6,31.3,29.32,NNW,338,0.0,0.0,51,0.00,,---,0.00,VWS V14.01,2013-01-01 09:16:00,
2013-01-01 03:17:00,48.6,31.3,29.32,NNW,338,0.0,0.0,51,0.00,,---,0.00,VWS V14.01,2013-01-01 09:17:00,
2013-01-01 03:18:00,48.6,31.3,29.32,NNW,338,0.0,0.0,51,0.00,,---,0.00,VWS V14.01,2013-01-01 09:18:00,
2013-01-01 03:19:00,47.5,35.9,29.38,WNW,292,0.0,0.0,64,0.08,,---,0.13,VWS V14.01,2013-01-01 09:19:00,
2013-01-01 03:20:00,48.6,31.8,29.32,NNW,338,0.0,0.0,52,0.00,,---,0.00,VWS V14.01,2013-01-01 09:20:00,
2013-01-01 03:21:00,48.6,31.8,29.32,WNW,292,0.0,0.0,52,0.00,,---,0.00,VWS V14.01,2013-01-01 09:21:00,
2013-01-01 03:22:00,48.6,31.8,29.32,WNW,292,0.0,0.0,52,0.00,,---,0.00,VWS V14.01,2013-01-01 09:22:00,
2013-01-01 03:23:00,48.4,31.6,29.32,WNW,292,0.0,0.0,52,0.00,,---,0.00,VWS V14.01,2013-01-01 09:23:00,
2013-01-01 03:24:00,47.5,36.3,29.38,WNW,292,0.0,0.0,65,0.12,,---,0.17,VWS V14.01,2013-01-01 09:24:00,
2013-01-01 03:25:00,48.4,31.6,29.32,WNW,292,0.0,0.0,52,0.00,,---,0.00,VWS V14.01,2013-01-01 09:25:00,
2013-01-01 03:26:00,48.4,31.6,29.32,WNW,292,0.0,0.0,52,0.00,,---,0.00,VWS V14.01,2013-01-01 09:26:00,
2013-01-01 03:27:00,48.4,31.6,29.32,WNW,292,0.0,0.0,52,0.00,,---,0.00,VWS V14.01,2013-01-01 09:27:00,
2013-01-01 03:28:00,48.4,32.0,29.35,WNW,292,0.0,0.0,53,0.00,,---,0.00,VWS V14.01,2013-01-01 09:28:00,
2013-01-01 03:29:00,47.5,36.3,29.38,WNW,292,0.0,0.0,65,0.12,,---,0.17,VWS V14.01,2013-01-01 09:29:00,
2013-01-01 03:30:00,48.4,32.5,29.35,WNW,292,0.0,0.0,54,0.00,,---,0.00,VWS V14.01,2013-01-01 09:30:00,
2013-01-01 03:31:00,48.4,32.5,29.35,WNW,292,0.0,0.0,54,0.00,,---,0.00,VWS V14.01,2013-01-01 09:31:00,
2013-01-01 03:32:00,48.4,32.5,29.35,WNW,292,0.0,0.0,54,0.00,,---,0.00,VWS V14.01,2013-01-01 09:32:00,
2013-01-01 03:33:00,48.2,32.3,29.35,WNW,292,0.0,0.0,54,0.00,,---,0.00,VWS V14.01,2013-01-01 09:33:00,
2013-01-01 03:34:00,47.5,36.3,29.38,WNW,292,0.0,0.0,65,0.12,,---,0.17,VWS V14.01,2013-01-01 09:34:00,
2013-01-01 03:35:00,48.2,32.3,29.35,WNW,292,0.0,0.0,54,0.00,,---,0.00,VWS V14.01,2013-01-01 09:35:00,
2013-01-01 03:36:00,48.2,32.3,29.35,WNW,292,0.0,0.0,54,0.00,,---,0.00,VWS V14.01,2013-01-01 09:36:00,
2013-01-01 03:37:00,48.2,32.3,29.35,WNW,292,0.0,0.0,54,0.05,,---,0.05,VWS V14.01,2013-01-01 09:37:00,
2013-01-01 03:38:00,48.2,32.3,29.35,WNW,292,0.0,0.0,54,0.05,,---,0.05,VWS V14.01,2013-01-01 09:38:00,
2013-01-01 03:39:00,47.5,37.1,29.38,WNW,292,0.0,0.0,67,0.13,,---,0.21,VWS V14.01,2013-01-01 09:39:00,
2013-01-01 03:40:00,48.2,32.3,29.35,WNW,292,0.0,0.0,54,0.05,,---,0.05,VWS V14.01,2013-01-01 09:40:00,
2013-01-01 03:41:00,48.2,32.3,29.35,WNW,292,0.0,0.0,54,0.05,,---,0.05,VWS V14.01,2013-01-01 09:41:00,
2013-01-01 03:42:00,48.2,32.3,29.35,WNW,292,0.0,0.0,54,0.05,,---,0.05,VWS V14.01,2013-01-01 09:42:00,
2013-01-01 03:43:00,48.2,32.3,29.32,WNW,292,0.0,0.0,54,0.05,,---,0.05,VWS V14.01,2013-01-01 09:43:00,
2013-01-01 03:44:00,47.3,36.9,29.38,WNW,292,0.0,0.0,67,0.13,,---,0.21,VWS V14.01,2013-01-01 09:44:00,
2013-01-01 03:45:00,48.0,32.6,29.32,WNW,292,0.0,0.0,55,0.05,,---,0.05,VWS V14.01,2013-01-01 09:45:00,
2013-01-01 03:46:00,48.0,32.6,29.32,WNW,292,0.0,0.0,55,0.05,,---,0.05,VWS V14.01,2013-01-01 09:46:00,
2013-01-01 03:47:00,48.0,32.6,29.32,WNW,292,0.0,0.0,55,0.05,,---,0.05,VWS V14.01,2013-01-01 09:47:00,
2013-01-01 03:48:00,48.0,32.6,29.32,WNW,292,0.0,0.0,55,0.05,,---,0.05,VWS V14.01,2013-01-01 09:48:00,
2013-01-01 03:49:00,47.5,37.1,29.38,WNW,292,0.0,0.0,67,0.17,,---,0.25,VWS V14.01,2013-01-01 09:49:00,
2013-01-01 03:50:00,48.0,33.1,29.32,WNW,292,0.0,0.0,56,0.05,,---,0.05,VWS V14.01,2013-01-01 09:50:00,
2013-01-01 03:51:00,48.0,33.1,29.32,WNW,292,0.0,0.0,56,0.05,,---,0.05,VWS V14.01,2013-01-01 09:51:00,
2013-01-01 03:52:00,48.0,33.1,29.32,WNW,292,0.0,0.0,56,0.05,,---,0.05,VWS V14.01,2013-01-01 09:52:00,
2013-01-01 03:53:00,48.0,33.1,29.32,WNW,292,0.0,0.0,56,0.05,,---,0.05,VWS V14.01,2013-01-01 09:53:00,
2013-01-01 03:54:00,47.5,37.1,29.38,WNW,292,0.0,0.0,67,0.17,,---,0.25,VWS V14.01,2013-01-01 09:54:00,
2013-01-01 03:55:00,48.0,33.1,29.32,WNW,292,0.0,0.0,56,0.05,,---,0.05,VWS V14.01,2013-01-01 09:55:00,
2013-01-01 03:56:00,48.0,33.1,29.32,WNW,292,0.0,0.0,56,0.05,,---,0.05,VWS V14.01,2013-01-01 09:56:00,
2013-01-01 03:57:00,47.8,33.4,29.32,WNW,292,0.0,0.0,57,0.05,,---,0.05,VWS V14.01,2013-01-01 09:57:00,
2013-01-01 03:58:00,47.8,33.4,29.35,WNW,292,0.0,0.0,57,0.05,,---,0.05,VWS V14.01,2013-01-01 09:58:00,
2013-01-01 03:59:00,47.5,37.1,29.38,WNW,292,0.0,0.0,67,0.21,,---,0.29,VWS V14.01,2013-01-01 09:59:00,
2013-01-01 04:00:00,47.8,33.4,29.35,WNW,292,0.0,0.0,57,0.05,,---,0.05,VWS V14.01,2013-01-01 10:00:00,
2013-01-01 04:01:00,47.8,33.4,29.35,WNW,292,0.0,0.0,57,0.05,,---,0.05,VWS V14.01,2013-01-01 10:01:00,
2013-01-01 04:02:00,47.8,33.4,29.35,WNW,292,0.0,0.0,57,0.05,,---,0.05,VWS V14.01,2013-01-01 10:02:00,
2013-01-01 04:03:00,47.8,33.4,29.35,WNW,292,0.0,0.0,57,0.05,,---,0.05,VWS V14.01,2013-01-01 10:03:00,
2013-01-01 04:04:00,47.5,37.5,29.38,WSW,248,0.0,0.0,68,0.16,,---,0.29,VWS V14.01,2013-01-01 10:04:00,
2013-01-01 04:05:00,47.8,33.8,29.35,WNW,292,0.0,0.0,58,0.05,,---,0.05,VWS V14.01,2013-01-01 10:05:00,
2013-01-01 04:06:00,47.8,34.2,29.35,WNW,292,0.0,0.0,59,0.05,,---,0.05,VWS V14.01,2013-01-01 10:06:00,
2013-01-01 04:07:00,47.8,34.2,29.35,WNW,292,0.0,0.0,59,0.05,,---,0.05,VWS V14.01,2013-01-01 10:07:00,
2013-01-01 04:08:00,47.8,34.2,29.35,WNW,292,0.0,0.0,59,0.05,,---,0.05,VWS V14.01,2013-01-01 10:08:00,
2013-01-01 04:09:00,47.3,37.3,29.38,West,270,0.0,0.0,68,0.21,,---,0.34,VWS V14.01,2013-01-01 10:09:00,
2013-01-01 04:10:00,47.8,34.6,29.35,WNW,292,0.0,0.0,60,0.05,,---,0.05,VWS V14.01,2013-01-01 10:10:00,
2013-01-01 04:11:00,47.7,34.0,29.35,WNW,292,0.0,0.0,59,0.05,,---,0.05,VWS V14.01,2013-01-01 10:11:00,
2013-01-01 04:12:00,47.7,34.0,29.35,WNW,292,0.0,0.0,59,0.05,,---,0.05,VWS V14.01,2013-01-01 10:12:00,
2013-01-01 04:13:00,47.7,34.0,29.35,WNW,292,0.0,0.0,59,0.05,,---,0.05,VWS V14.01,2013-01-01 10:13:00,
2013-01-01 04:14:00,47.3,37.7,29.38,West,270,0.0,0.0,69,0.21,,---,0.34,VWS V14.01,2013-01-01 10:14:00,
2013-01-01 04:15:00,47.7,34.0,29.35,WNW,292,0.0,0.0,59,0.05,,---,0.05,VWS V14.01,2013-01-01 10:15:00,
2013-01-01 04:16:00,47.7,34.5,29.35,WNW,292,0.0,0.0,60,0.05,,---,0.05,VWS V14.01,2013-01-01 10:16:00,
2013-01-01 04:17:00,47.7,34.5,29.35,WNW,292,0.0,0.0,60,0.05,,---,0.05,VWS V14.01,2013-01-01 10:17:00,
2013-01-01 04:18:00,47.7,34.5,29.35,WNW,292,0.0,0.0,60,0.05,,---,0.05,VWS V14.01,2013-01-01 10:18:00,
2013-01-01 04:19:00,47.3,38.0,29.38,West,270,0.0,0.0,70,0.21,,---,0.34,VWS V14.01,2013-01-01 10:19:00,
2013-01-01 04:20:00,47.7,34.5,29.35,WNW,292,0.0,0.0,60,0.05,,---,0.05,VWS V14.01,2013-01-01 10:20:00,
2013-01-01 04:21:00,47.5,34.3,29.35,WNW,292,0.0,0.0,60,0.05,,---,0.05,VWS V14.01,2013-01-01 10:21:00,
2013-01-01 04:22:00,47.5,34.3,29.35,WNW,292,0.0,0.0,60,0.05,,---,0.05,VWS V14.01,2013-01-01 10:22:00,
2013-01-01 04:23:00,47.5,34.3,29.35,WNW,292,0.0,0.0,60,0.05,,---,0.05,VWS V14.01,2013-01-01 10:23:00,
2013-01-01 04:24:00,47.3,38.7,29.38,West,270,0.0,0.0,72,0.21,,---,0.38,VWS V14.01,2013-01-01 10:24:00,
2013-01-01 04:25:00,47.5,34.3,29.35,WNW,292,0.0,0.0,60,0.05,,---,0.05,VWS V14.01,2013-01-01 10:25:00,
2013-01-01 04:26:00,47.5,34.3,29.35,WNW,292,0.0,0.0,60,0.05,,---,0.05,VWS V14.01,2013-01-01 10:26:00,
2013-01-01 04:27:00,47.5,34.7,29.35,WNW,292,0.0,0.0,61,0.05,,---,0.05,VWS V14.01,2013-01-01 10:27:00,
2013-01-01 04:28:00,47.5,34.7,29.35,WNW,292,0.0,0.0,61,0.05,,---,0.05,VWS V14.01,2013-01-01 10:28:00,
2013-01-01 04:29:00,47.3,39.1,29.38,WNW,292,0.0,0.0,73,0.21,,---,0.38,VWS V14.01,2013-01-01 10:29:00,
2013-01-01 04:30:00,47.5,35.1,29.35,WNW,292,0.0,0.0,62,0.08,,---,0.08,VWS V14.01,2013-01-01 10:30:00,
2013-01-01 04:31:00,47.5,35.1,29.35,WNW,292,0.0,0.0,62,0.08,,---,0.08,VWS V14.01,2013-01-01 10:31:00,
2013-01-01 04:32:00,47.5,35.5,29.35,WNW,292,0.0,0.0,63,0.08,,---,0.08,VWS V14.01,2013-01-01 10:32:00,
2013-01-01 04:33:00,47.5,35.5,29.35,WNW,292,0.0,0.0,63,0.08,,---,0.08,VWS V14.01,2013-01-01 10:33:00,
2013-01-01 04:34:00,47.3,39.5,29.38,WNW,292,0.0,0.0,74,0.21,,---,0.38,VWS V14.01,2013-01-01 10:34:00,
2013-01-01 04:35:00,47.5,35.5,29.35,WNW,292,0.0,0.0,63,0.08,,---,0.08,VWS V14.01,2013-01-01 10:35:00,
2013-01-01 04:36:00,47.5,35.1,29.35,WNW,292,0.0,0.0,62,0.08,,---,0.08,VWS V14.01,2013-01-01 10:36:00,
2013-01-01 04:37:00,47.5,34.7,29.35,WNW,292,0.0,0.0,61,0.08,,---,0.08,VWS V14.01,2013-01-01 10:37:00,
2013-01-01 04:38:00,47.5,34.7,29.35,WNW,292,0.0,0.0,61,0.03,,---,0.08,VWS V14.01,2013-01-01 10:38:00,
2013-01-01 04:39:00,47.3,39.8,29.38,NE,45,0.0,0.0,75,0.17,,---,0.38,VWS V14.01,2013-01-01 10:39:00,
2013-01-01 04:40:00,47.5,34.7,29.35,WNW,292,0.0,0.0,61,0.03,,---,0.08,VWS V14.01,2013-01-01 10:40:00,
2013-01-01 04:41:00,47.5,34.7,29.35,WNW,292,0.0,0.0,61,0.03,,---,0.08,VWS V14.01,2013-01-01 10:41:00,
2013-01-01 04:42:00,47.5,34.7,29.35,WNW,292,0.0,0.0,61,0.03,,---,0.08,VWS V14.01,2013-01-01 10:42:00,
2013-01-01 04:43:00,47.5,34.7,29.35,WNW,292,0.0,0.0,61,0.03,,---,0.08,VWS V14.01,2013-01-01 10:43:00,
2013-01-01 04:44:00,47.3,40.1,29.38,NE,45,0.0,0.0,76,0.17,,---,0.38,VWS V14.01,2013-01-01 10:44:00,
2013-01-01 04:45:00,47.5,35.1,29.35,WNW,292,0.0,0.0,62,0.03,,---,0.08,VWS V14.01,2013-01-01 10:45:00,
2013-01-01 04:46:00,47.5,35.1,29.35,WNW,292,0.0,0.0,62,0.03,,---,0.08,VWS V14.01,2013-01-01 10:46:00,
2013-01-01 04:47:00,47.5,35.1,29.35,WNW,292,0.0,0.0,62,0.03,,---,0.08,VWS V14.01,2013-01-01 10:47:00,
2013-01-01 04:48:00,47.5,35.1,29.35,WNW,292,0.0,0.0,62,0.03,,---,0.08,VWS V14.01,2013-01-01 10:48:00,
2013-01-01 04:49:00,47.3,40.1,29.38,NE,45,0.0,0.0,76,0.13,,---,0.38,VWS V14.01,2013-01-01 10:49:00,
2013-01-01 04:50:00,47.5,35.1,29.35,WNW,292,0.0,0.0,62,0.03,,---,0.08,VWS V14.01,2013-01-01 10:50:00,
2013-01-01 04:51:00,47.5,35.1,29.35,WNW,292,0.0,0.0,62,0.03,,---,0.08,VWS V14.01,2013-01-01 10:51:00,
2013-01-01 04:52:00,47.5,35.1,29.35,WNW,292,0.0,0.0,62,0.08,,---,0.13,VWS V14.01,2013-01-01 10:52:00,
2013-01-01 04:53:00,47.5,35.1,29.35,WNW,292,0.0,0.0,62,0.08,,---,0.13,VWS V14.01,2013-01-01 10:53:00,
2013-01-01 04:54:00,47.1,40.6,29.35,NE,45,0.0,0.0,78,0.17,,---,0.42,VWS V14.01,2013-01-01 10:54:00,
2013-01-01 04:55:00,47.5,35.1,29.35,WNW,292,0.0,0.0,62,0.08,,---,0.13,VWS V14.01,2013-01-01 10:55:00,
2013-01-01 04:56:00,47.5,35.5,29.35,WNW,292,0.0,0.0,63,0.08,,---,0.13,VWS V14.01,2013-01-01 10:56:00,
2013-01-01 04:57:00,47.5,35.5,29.35,WNW,292,0.0,0.0,63,0.08,,---,0.13,VWS V14.01,2013-01-01 10:57:00,
2013-01-01 04:58:00,47.5,35.1,29.38,WNW,292,0.0,0.0,62,0.08,,---,0.13,VWS V14.01,2013-01-01 10:58:00,
2013-01-01 04:59:00,47.1,41.0,29.35,NE,45,0.0,0.0,79,0.13,,---,0.42,VWS V14.01,2013-01-01 10:59:00,
2013-01-01 05:00:00,47.5,35.5,29.38,WNW,292,0.0,0.0,63,0.08,,---,0.13,VWS V14.01,2013-01-01 11:00:00,
2013-01-01 05:01:00,47.5,35.5,29.38,WNW,292,0.0,0.0,63,0.08,,---,0.13,VWS V14.01,2013-01-01 11:01:00,
2013-01-01 05:02:00,47.5,35.5,29.38,WNW,292,0.0,0.0,63,0.08,,---,0.13,VWS V14.01,2013-01-01 11:02:00,
2013-01-01 05:03:00,47.5,35.5,29.38,WNW,292,0.0,0.0,63,0.08,,---,0.13,VWS V14.01,2013-01-01 11:03:00,
2013-01-01 05:04:00,47.1,41.3,29.35,ESE,112,0.0,0.0,80,0.13,,---,0.42,VWS V14.01,2013-01-01 11:04:00,
2013-01-01 05:05:00,47.5,35.5,29.38,WNW,292,0.0,0.0,63,0.08,,---,0.13,VWS V14.01,2013-01-01 11:05:00,
2013-01-01 05:06:00,47.5,35.5,29.38,WNW,292,0.0,0.0,63,0.08,,---,0.13,VWS V14.01,2013-01-01 11:06:00,
2013-01-01 05:07:00,47.5,35.9,29.38,WNW,292,0.0,0.0,64,0.08,,---,0.13,VWS V14.01,2013-01-01 11:07:00,
2013-01-01 05:08:00,47.5,35.9,29.38,WNW,292,0.0,0.0,64,0.08,,---,0.13,VWS V14.01,2013-01-01 11:08:00,
2013-01-01 05:09:00,47.1,41.6,29.35,ESE,112,0.0,0.0,81,0.08,,---,0.42,VWS V14.01,2013-01-01 11:09:00,
2013-01-01 05:10:00,47.5,35.9,29.38,WNW,292,0.0,0.0,64,0.08,,---,0.13,VWS V14.01,2013-01-01 11:10:00,
2013-01-01 05:11:00,47.5,35.9,29.38,WNW,292,0.0,0.0,64,0.08,,---,0.13,VWS V14.01,2013-01-01 11:11:00,
2013-01-01 05:12:00,47.5,35.9,29.38,WNW,292,0.0,0.0,64,0.12,,---,0.17,VWS V14.01,2013-01-01 11:12:00,
2013-01-01 05:13:00,47.5,36.3,29.38,WNW,292,0.0,0.0,65,0.12,,---,0.17,VWS V14.01,2013-01-01 11:13:00,
2013-01-01 05:14:00,47.1,41.9,29.35,ESE,112,0.0,0.0,82,0.08,,---,0.42,VWS V14.01,2013-01-01 11:14:00,
2013-01-01 05:15:00,47.5,36.3,29.38,WNW,292,0.0,0.0,65,0.12,,---,0.17,VWS V14.01,2013-01-01 11:15:00,
2013-01-01 05:16:00,47.5,36.3,29.38,WNW,292,0.0,0.0,65,0.12,,---,0.17,VWS V14.01,2013-01-01 11:16:00,
2013-01-01 05:17:00,47.5,36.3,29.38,WNW,292,0.0,0.0,65,0.12,,---,0.17,VWS V14.01,2013-01-01 11:17:00,
2013-01-01 05:18:00,47.5,36.3,29.38,WNW,292,0.0,0.0,65,0.12,,---,0.17,VWS V14.01,2013-01-01 11:18:00,
2013-01-01 05:19:00,46.9,41.7,29.35,ESE,112,0.0,0.0,82,0.12,,---,0.46,VWS V14.01,2013-01-01 11:19:00,
2013-01-01 05:20:00,47.5,36.3,29.38,WNW,292,0.0,0.0,65,0.12,,---,0.17,VWS V14.01,2013-01-01 11:20:00,
2013-01-01 05:21:00,47.5,35.9,29.38,WNW,292,0.0,0.0,64,0.12,,---,0.17,VWS V14.01,2013-01-01 11:21:00,
2013-01-01 05:22:00,47.5,35.9,29.38,WNW,292,0.0,0.0,64,0.12,,---,0.17,VWS V14.01,2013-01-01 11:22:00,
2013-01-01 05:23:00,47.5,36.3,29.38,WNW,292,0.0,0.0,65,0.12,,---,0.17,VWS V14.01,2013-01-01 11:23:00,
2013-01-01 05:24:00,46.9,41.7,29.35,ESE,112,0.0,0.0,82,0.08,,---,0.46,VWS V14.01,2013-01-01 11:24:00,
2013-01-01 05:25:00,47.5,36.3,29.38,WNW,292,0.0,0.0,65,0.12,,---,0.17,VWS V14.01,2013-01-01 11:25:00,
2013-01-01 05:26:00,47.5,36.7,29.38,WNW,292,0.0,0.0,66,0.12,,---,0.17,VWS V14.01,2013-01-01 11:26:00,
2013-01-01 05:27:00,47.5,36.7,29.38,WNW,292,0.0,0.0,66,0.16,,---,0.21,VWS V14.01,2013-01-01 11:27:00,
2013-01-01 05:28:00,47.5,36.7,29.38,WNW,292,0.0,0.0,66,0.16,,---,0.21,VWS V14.01,2013-01-01 11:28:00,
2013-01-01 05:29:00,46.9,42.0,29.35,West,270,0.0,0.0,83,0.08,,---,0.46,VWS V14.01,2013-01-01 11:29:00,
2013-01-01 05:30:00,47.5,36.7,29.38,WNW,292,0.0,0.0,66,0.13,,---,0.21,VWS V14.01,2013-01-01 11:30:00,
2013-01-01 05:31:00,47.5,36.7,29.38,WNW,292,0.0,0.0,66,0.13,,---,0.21,VWS V14.01,2013-01-01 11:31:00,
2013-01-01 05:32:00,47.5,36.7,29.38,WNW,292,0.0,0.0,66,0.13,,---,0.21,VWS V14.01,2013-01-01 11:32:00,
2013-01-01 05:33:00,47.5,37.1,29.38,WNW,292,0.0,0.0,67,0.13,,---,0.21,VWS V14.01,2013-01-01 11:33:00,
2013-01-01 05:34:00,47.1,42.2,29.35,West,270,0.0,0.0,83,0.12,,---,0.50,VWS V14.01,2013-01-01 11:34:00,
2013-01-01 05:35:00,47.3,36.9,29.38,WNW,292,0.0,0.0,67,0.13,,---,0.21,VWS V14.01,2013-01-01 11:35:00,
2013-01-01 05:36:00,47.5,36.7,29.38,WNW,292,0.0,0.0,66,0.13,,---,0.21,VWS V14.01,2013-01-01 11:36:00,
2013-01-01 05:37:00,47.5,37.1,29.38,WNW,292,0.0,0.0,67,0.13,,---,0.21,VWS V14.01,2013-01-01 11:37:00,
2013-01-01 05:38:00,47.5,37.1,29.38,WNW,292,0.0,0.0,67,0.13,,---,0.21,VWS V14.01,2013-01-01 11:38:00,
2013-01-01 05:39:00,47.1,42.5,29.35,West,270,0.0,0.0,84,0.12,,---,0.50,VWS V14.01,2013-01-01 11:39:00,
2013-01-01 05:40:00,47.3,36.9,29.38,WSW,248,0.0,0.0,67,0.17,,---,0.25,VWS V14.01,2013-01-01 11:40:00,
2013-01-01 05:41:00,47.3,36.9,29.38,WSW,248,0.0,0.0,67,0.17,,---,0.25,VWS V14.01,2013-01-01 11:41:00,
2013-01-01 05:42:00,47.5,37.1,29.38,WSW,248,0.0,0.0,67,0.17,,---,0.25,VWS V14.01,2013-01-01 11:42:00,
2013-01-01 05:43:00,47.5,37.1,29.38,WSW,248,0.0,0.0,67,0.17,,---,0.25,VWS V14.01,2013-01-01 11:43:00,
2013-01-01 05:44:00,47.1,42.5,29.35,West,270,0.0,0.0,84,0.12,,---,0.50,VWS V14.01,2013-01-01 11:44:00,
2013-01-01 05:45:00,47.5,37.1,29.38,WNW,292,0.0,0.0,67,0.17,,---,0.25,VWS V14.01,2013-01-01 11:45:00,
2013-01-01 05:46:00,47.5,37.1,29.38,WNW,292,0.0,0.0,67,0.17,,---,0.25,VWS V14.01,2013-01-01 11:46:00,
2013-01-01 05:47:00,47.5,37.1,29.38,WNW,292,0.0,0.0,67,0.17,,---,0.25,VWS V14.01,2013-01-01 11:47:00,
2013-01-01 05:48:00,47.5,37.1,29.38,WNW,292,0.0,0.0,67,0.21,,---,0.29,VWS V14.01,2013-01-01 11:48:00,
2013-01-01 05:49:00,47.1,42.8,29.35,West,270,0.0,0.0,85,0.12,,---,0.50,VWS V14.01,2013-01-01 11:49:00,
2013-01-01 05:50:00,47.5,37.1,29.38,WSW,248,0.0,0.0,67,0.21,,---,0.29,VWS V14.01,2013-01-01 11:50:00,
2013-01-01 05:51:00,47.5,37.1,29.38,WSW,248,0.0,0.0,67,0.21,,---,0.29,VWS V14.01,2013-01-01 11:51:00,
2013-01-01 05:52:00,47.5,37.5,29.38,WSW,248,0.0,0.0,68,0.21,,---,0.29,VWS V14.01,2013-01-01 11:52:00,
2013-01-01 05:53:00,47.5,37.5,29.38,WSW,248,0.0,0.0,68,0.16,,---,0.29,VWS V14.01,2013-01-01 11:53:00,
2013-01-01 05:54:00,47.1,42.8,29.38,West,270,0.0,0.0,85,0.08,,---,0.50,VWS V14.01,2013-01-01 11:54:00,
2013-01-01 05:55:00,47.5,37.5,29.38,WSW,248,0.0,0.0,68,0.16,,---,0.29,VWS V14.01,2013-01-01 11:55:00,
2013-01-01 05:56:00,47.5,37.5,29.38,WSW,248,0.0,0.0,68,0.16,,---,0.29,VWS V14.01,2013-01-01 11:56:00,
2013-01-01 05:57:00,47.5,37.5,29.38,WSW,248,0.0,0.0,68,0.16,,---,0.29,VWS V14.01,2013-01-01 11:57:00,
2013-01-01 05:58:00,47.3,37.3,29.38,WSW,248,0.0,0.0,68,0.16,,---,0.29,VWS V14.01,2013-01-01 11:58:00,
2013-01-01 05:59:00,47.1,43.2,29.38,WSW,248,0.0,0.0,86,0.12,,---,0.54,VWS V14.01,2013-01-01 11:59:00,
2013-01-01 06:00:00,47.3,37.3,29.38,West,270,0.0,0.0,68,0.21,,---,0.34,VWS V14.01,2013-01-01 12:00:00,
2013-01-01 06:01:00,47.3,37.7,29.38,West,270,0.0,0.0,69,0.21,,---,0.34,VWS V14.01,2013-01-01 12:01:00,
2013-01-01 06:02:00,47.3,37.7,29.38,West,270,0.0,0.0,69,0.21,,---,0.34,VWS V14.01,2013-01-01 12:02:00,
2013-01-01 06:03:00,47.3,37.7,29.38,West,270,0.0,0.0,69,0.21,,---,0.34,VWS V14.01,2013-01-01 12:03:00,
2013-01-01 06:04:00,47.3,43.3,29.38,East,90,0.0,0.0,86,0.12,,---,0.54,VWS V14.01,2013-01-01 12:04:00,
2013-01-01 06:05:00,47.3,37.7,29.38,West,270,0.0,0.0,69,0.21,,---,0.34,VWS V14.01,2013-01-01 12:05:00,
2013-01-01 06:06:00,47.3,38.0,29.38,West,270,0.0,0.0,70,0.21,,---,0.34,VWS V14.01,2013-01-01 12:06:00,
2013-01-01 06:07:00,47.3,38.0,29.38,West,270,0.0,0.0,70,0.21,,---,0.34,VWS V14.01,2013-01-01 12:07:00,
2013-01-01 06:08:00,47.3,38.0,29.38,West,270,0.0,0.0,70,0.21,,---,0.34,VWS V14.01,2013-01-01 12:08:00,
2013-01-01 06:09:00,47.3,43.3,29.35,ESE,112,0.0,0.0,86,0.12,,---,0.54,VWS V14.01,2013-01-01 12:09:00,
2013-01-01 06:10:00,47.3,38.0,29.38,West,270,0.0,0.0,70,0.21,,---,0.34,VWS V14.01,2013-01-01 12:10:00,
2013-01-01 06:11:00,47.3,38.4,29.38,West,270,0.0,0.0,71,0.21,,---,0.34,VWS V14.01,2013-01-01 12:11:00,
2013-01-01 06:12:00,47.3,38.4,29.38,West,270,0.0,0.0,71,0.21,,---,0.34,VWS V14.01,2013-01-01 12:12:00,
2013-01-01 06:13:00,47.3,38.4,29.38,West,270,0.0,0.0,71,0.21,,---,0.38,VWS V14.01,2013-01-01 12:13:00,
2013-01-01 06:14:00,47.3,43.3,29.35,ESE,112,0.0,0.0,86,0.12,,---,0.54,VWS V14.01,2013-01-01 12:14:00,
2013-01-01 06:15:00,47.3,38.7,29.38,West,270,0.0,0.0,72,0.21,,---,0.38,VWS V14.01,2013-01-01 12:15:00,
2013-01-01 06:16:00,47.3,38.7,29.38,West,270,0.0,0.0,72,0.21,,---,0.38,VWS V14.01,2013-01-01 12:16:00,
2013-01-01 06:17:00,47.3,39.1,29.38,WNW,292,0.0,0.0,73,0.21,,---,0.38,VWS V14.01,2013-01-01 12:17:00,
2013-01-01 06:18:00,47.3,39.1,29.38,WNW,292,0.0,0.0,73,0.21,,---,0.38,VWS V14.01,2013-01-01 12:18:00,
2013-01-01 06:19:00,47.5,43.8,29.35,ESE,112,0.0,0.0,87,0.08,,---,0.54,VWS V14.01,2013-01-01 12:19:00,
2013-01-01 06:20:00,47.3,39.1,29.38,WNW,292,0.0,0.0,73,0.21,,---,0.38,VWS V14.01,2013-01-01 12:20:00,
2013-01-01 06:21:00,47.3,39.1,29.38,WNW,292,0.0,0.0,73,0.21,,---,0.38,VWS V14.01,2013-01-01 12:21:00,
2013-01-01 06:22:00,47.3,39.1,29.38,WNW,292,0.0,0.0,73,0.21,,---,0.38,VWS V14.01,2013-01-01 12:22:00,
2013-01-01 06:23:00,47.3,39.4,29.38,WNW,292,0.0,0.0,74,0.21,,---,0.38,VWS V14.01,2013-01-01 12:23:00,
2013-01-01 06:24:00,47.5,43.8,29.35,East,90,0.0,0.0,87,0.08,,---,0.54,VWS V14.01,2013-01-01 12:24:00,
2013-01-01 06:25:00,47.3,39.4,29.38,WNW,292,0.0,0.0,74,0.21,,---,0.38,VWS V14.01,2013-01-01 12:25:00,
2013-01-01 06:26:00,47.3,39.4,29.38,WNW,292,0.0,0.0,74,0.21,,---,0.38,VWS V14.01,2013-01-01 12:26:00,
2013-01-01 06:27:00,47.3,39.4,29.38,WNW,292,0.0,0.0,74,0.21,,---,0.38,VWS V14.01,2013-01-01 12:27:00,
2013-01-01 06:28:00,47.3,39.4,29.38,WNW,292,0.0,0.0,74,0.17,,---,0.38,VWS V14.01,2013-01-01 12:28:00,
2013-01-01 06:29:00,47.5,43.8,29.35,ESE,112,0.0,0.0,87,0.08,,---,0.54,VWS V14.01,2013-01-01 12:29:00,
2013-01-01 06:30:00,47.3,39.8,29.38,NE,45,0.0,0.0,75,0.17,,---,0.38,VWS V14.01,2013-01-01 12:30:00,
2013-01-01 06:31:00,47.3,39.8,29.38,NE,45,0.0,0.0,75,0.17,,---,0.38,VWS V14.01,2013-01-01 12:31:00,
2013-01-01 06:32:00,47.3,39.8,29.38,NE,45,0.0,0.0,75,0.17,,---,0.38,VWS V14.01,2013-01-01 12:32:00,
2013-01-01 06:33:00,47.3,40.1,29.38,NE,45,0.0,0.0,76,0.17,,---,0.38,VWS V14.01,2013-01-01 12:33:00,
2013-01-01 06:34:00,47.5,43.8,29.35,ESE,112,0.0,0.0,87,0.04,,---,0.54,VWS V14.01,2013-01-01 12:34:00,
2013-01-01 06:35:00,47.3,40.1,29.38,NE,45,0.0,0.0,76,0.17,,---,0.38,VWS V14.01,2013-01-01 12:35:00,
2013-01-01 06:36:00,47.3,40.1,29.38,NE,45,0.0,0.0,76,0.17,,---,0.38,VWS V14.01,2013-01-01 12:36:00,
2013-01-01 06:37:00,47.3,40.1,29.38,NE,45,0.0,0.0,76,0.17,,---,0.38,VWS V14.01,2013-01-01 12:37:00,
2013-01-01 06:38:00,47.3,40.1,29.38,NE,45,0.0,0.0,76,0.17,,---,0.38,VWS V14.01,2013-01-01 12:38:00,
2013-01-01 06:39:00,47.5,43.8,29.35,ESE,112,0.0,0.0,87,0.08,,---,0.58,VWS V14.01,2013-01-01 12:39:00,
2013-01-01 06:40:00,47.3,40.5,29.38,NE,45,0.0,0.0,77,0.17,,---,0.42,VWS V14.01,2013-01-01 12:40:00,
2013-01-01 06:41:00,47.3,40.5,29.38,NE,45,0.0,0.0,77,0.17,,---,0.42,VWS V14.01,2013-01-01 12:41:00,
2013-01-01 06:42:00,47.3,40.5,29.38,NE,45,0.0,0.0,77,0.17,,---,0.42,VWS V14.01,2013-01-01 12:42:00,
2013-01-01 06:43:00,47.1,40.6,29.35,NE,45,0.0,0.0,78,0.17,,---,0.42,VWS V14.01,2013-01-01 12:43:00,
2013-01-01 06:44:00,47.5,44.1,29.35,ESE,112,0.0,0.0,88,0.08,,---,0.58,VWS V14.01,2013-01-01 12:44:00,
2013-01-01 06:45:00,47.1,40.6,29.35,NE,45,0.0,0.0,78,0.17,,---,0.42,VWS V14.01,2013-01-01 12:45:00,
2013-01-01 06:46:00,47.1,41.0,29.35,NE,45,0.0,0.0,79,0.17,,---,0.42,VWS V14.01,2013-01-01 12:46:00,
2013-01-01 06:47:00,47.1,41.0,29.35,NE,45,0.0,0.0,79,0.17,,---,0.42,VWS V14.01,2013-01-01 12:47:00,
2013-01-01 06:48:00,47.1,41.0,29.35,NE,45,0.0,0.0,79,0.17,,---,0.42,VWS V14.01,2013-01-01 12:48:00,
2013-01-01 06:49:00,47.5,44.1,29.35,East,90,0.0,0.0,88,0.08,,---,0.58,VWS V14.01,2013-01-01 12:49:00,
2013-01-01 06:50:00,47.1,41.0,29.35,ESE,112,0.0,0.0,79,0.13,,---,0.42,VWS V14.01,2013-01-01 12:50:00,
2013-01-01 06:51:00,47.1,41.3,29.35,ESE,112,0.0,0.0,80,0.13,,---,0.42,VWS V14.01,2013-01-01 12:51:00,
2013-01-01 06:52:00,47.1,41.3,29.35,ESE,112,0.0,0.0,80,0.13,,---,0.42,VWS V14.01,2013-01-01 12:52:00,
2013-01-01 06:53:00,47.1,41.3,29.35,ESE,112,0.0,0.0,80,0.13,,---,0.42,VWS V14.01,2013-01-01 12:53:00,
2013-01-01 06:54:00,47.5,44.1,29.35,ESE,112,0.0,0.0,88,0.08,,---,0.58,VWS V14.01,2013-01-01 12:54:00,
2013-01-01 06:55:00,47.1,41.6,29.35,ESE,112,0.0,0.0,81,0.13,,---,0.42,VWS V14.01,2013-01-01 12:55:00,
2013-01-01 06:56:00,47.1,41.6,29.35,ESE,112,0.0,0.0,81,0.13,,---,0.42,VWS V14.01,2013-01-01 12:56:00,
2013-01-01 06:57:00,47.1,41.6,29.35,ESE,112,0.0,0.0,81,0.13,,---,0.42,VWS V14.01,2013-01-01 12:57:00,
2013-01-01 06:58:00,47.1,41.6,29.35,ESE,112,0.0,0.0,81,0.13,,---,0.42,VWS V14.01,2013-01-01 12:58:00,
2013-01-01 06:59:00,47.7,44.3,29.35,ESE,112,0.0,0.0,88,0.04,,---,0.58,VWS V14.01,2013-01-01 12:59:00,
2013-01-01 07:00:00,47.1,41.6,29.35,ESE,112,0.0,0.0,81,0.08,,---,0.42,VWS V14.01,2013-01-01 13:00:00,
2013-01-01 07:01:00,47.1,41.6,29.35,ESE,112,0.0,0.0,81,0.08,,---,0.42,VWS V14.01,2013-01-01 13:01:00,
2013-01-01 07:02:00,47.1,41.6,29.35,ESE,112,0.0,0.0,81,0.08,,---,0.42,VWS V14.01,2013-01-01 13:02:00,
2013-01-01 07:03:00,47.1,41.6,29.35,ESE,112,0.0,0.0,81,0.08,,---,0.42,VWS V14.01,2013-01-01 13:03:00,
2013-01-01 07:04:00,47.7,44.6,29.35,ESE,112,0.0,0.0,89,0.04,,---,0.58,VWS V14.01,2013-01-01 13:04:00,
2013-01-01 07:05:00,47.1,41.9,29.35,ESE,112,0.0,0.0,82,0.08,,---,0.42,VWS V14.01,2013-01-01 13:05:00,
2013-01-01 07:06:00,47.1,41.9,29.35,ESE,112,0.0,0.0,82,0.08,,---,0.42,VWS V14.01,2013-01-01 13:06:00,
2013-01-01 07:07:00,47.1,41.9,29.35,ESE,112,0.0,0.0,82,0.12,,---,0.46,VWS V14.01,2013-01-01 13:07:00,
2013-01-01 07:08:00,46.9,41.7,29.35,ESE,112,0.0,0.0,82,0.12,,---,0.46,VWS V14.01,2013-01-01 13:08:00,
2013-01-01 07:09:00,47.7,44.6,29.35,ESE,112,0.0,0.0,89,0.08,,---,0.62,VWS V14.01,2013-01-01 13:09:00,
2013-01-01 07:10:00,46.9,41.7,29.35,ESE,112,0.0,0.0,82,0.12,,---,0.46,VWS V14.01,2013-01-01 13:10:00,
2013-01-01 07:11:00,46.9,41.7,29.35,ESE,112,0.0,0.0,82,0.12,,---,0.46,VWS V14.01,2013-01-01 13:11:00,
2013-01-01 07:12:00,46.9,41.7,29.35,ESE,112,0.0,0.0,82,0.12,,---,0.46,VWS V14.01,2013-01-01 13:12:00,
2013-01-01 07:13:00,46.9,41.7,29.35,ESE,112,0.0,0.0,82,0.12,,---,0.46,VWS V14.01,2013-01-01 13:13:00,
2013-01-01 07:14:00,47.7,44.6,29.35,ESE,112,0.0,0.0,89,0.08,,---,0.62,VWS V14.01,2013-01-01 13:14:00,
2013-01-01 07:15:00,46.9,41.7,29.35,ESE,112,0.0,0.0,82,0.08,,---,0.46,VWS V14.01,2013-01-01 13:15:00,
2013-01-01 07:16:00,46.9,42.1,29.35,ESE,112,0.0,0.0,83,0.08,,---,0.46,VWS V14.01,2013-01-01 13:16:00,
2013-01-01 07:17:00,46.9,42.1,29.35,West,270,0.0,0.0,83,0.08,,---,0.46,VWS V14.01,2013-01-01 13:17:00,
2013-01-01 07:18:00,46.9,42.1,29.35,West,270,0.0,0.0,83,0.08,,---,0.46,VWS V14.01,2013-01-01 13:18:00,
2013-01-01 07:19:00,47.7,44.6,29.35,WSW,248,0.0,0.0,89,0.08,,---,0.62,VWS V14.01,2013-01-01 13:19:00,
2013-01-01 07:20:00,46.9,42.1,29.35,West,270,0.0,0.0,83,0.08,,---,0.46,VWS V14.01,2013-01-01 13:20:00,
2013-01-01 07:21:00,46.9,42.1,29.35,West,270,0.0,0.0,83,0.08,,---,0.46,VWS V14.01,2013-01-01 13:21:00,
2013-01-01 07:22:00,46.9,42.1,29.35,West,270,0.0,0.0,83,0.08,,---,0.46,VWS V14.01,2013-01-01 13:22:00,
2013-01-01 07:23:00,46.9,42.1,29.35,West,270,0.0,0.0,83,0.08,,---,0.46,VWS V14.01,2013-01-01 13:23:00,
2013-01-01 07:24:00,47.8,44.8,29.35,SW,225,0.0,0.0,89,0.08,,---,0.62,VWS V14.01,2013-01-01 13:24:00,
2013-01-01 07:25:00,47.1,42.2,29.35,West,270,0.0,0.0,83,0.12,,---,0.50,VWS V14.01,2013-01-01 13:25:00,
2013-01-01 07:26:00,47.1,42.2,29.35,West,270,0.0,0.0,83,0.12,,---,0.50,VWS V14.01,2013-01-01 13:26:00,
2013-01-01 07:27:00,47.1,42.5,29.35,West,270,0.0,0.0,84,0.12,,---,0.50,VWS V14.01,2013-01-01 13:27:00,
2013-01-01 07:28:00,47.1,42.5,29.35,West,270,0.0,0.0,84,0.12,,---,0.50,VWS V14.01,2013-01-01 13:28:00,
2013-01-01 07:29:00,47.8,44.8,29.35,ENE,68,0.0,0.0,89,0.08,,---,0.62,VWS V14.01,2013-01-01 13:29:00,
2013-01-01 07:30:00,47.1,42.5,29.35,West,270,0.0,0.0,84,0.12,,---,0.50,VWS V14.01,2013-01-01 13:30:00,
2013-01-01 07:31:00,47.1,42.5,29.35,West,270,0.0,0.0,84,0.12,,---,0.50,VWS V14.01,2013-01-01 13:31:00,
2013-01-01 07:32:00,47.1,42.5,29.35,West,270,0.0,0.0,84,0.12,,---,0.50,VWS V14.01,2013-01-01 13:32:00,
2013-01-01 07:33:00,47.1,42.5,29.35,West,270,0.0,0.0,84,0.12,,---,0.50,VWS V14.01,2013-01-01 13:33:00,
2013-01-01 07:34:00,47.8,44.8,29.35,ENE,68,0.0,0.0,89,0.08,,---,0.62,VWS V14.01,2013-01-01 13:34:00,
2013-01-01 07:35:00,47.1,42.5,29.35,West,270,0.0,0.0,84,0.12,,---,0.50,VWS V14.01,2013-01-01 13:35:00,
2013-01-01 07:36:00,47.1,42.5,29.35,West,270,0.0,0.0,84,0.12,,---,0.50,VWS V14.01,2013-01-01 13:36:00,
2013-01-01 07:37:00,47.1,42.5,29.35,West,270,0.0,0.0,84,0.12,,---,0.50,VWS V14.01,2013-01-01 13:37:00,
2013-01-01 07:38:00,47.1,42.5,29.35,West,270,0.0,0.0,84,0.12,,---,0.50,VWS V14.01,2013-01-01 13:38:00,
2013-01-01 07:39:00,47.8,44.8,29.35,East,90,0.0,0.0,89,0.04,,---,0.62,VWS V14.01,2013-01-01 13:39:00,
2013-01-01 07:40:00,47.1,42.8,29.35,West,270,0.0,0.0,85,0.12,,---,0.50,VWS V14.01,2013-01-01 13:40:00,
2013-01-01 07:41:00,47.1,42.8,29.35,West,270,0.0,0.0,85,0.08,,---,0.50,VWS V14.01,2013-01-01 13:41:00,
2013-01-01 07:42:00,47.1,42.8,29.35,West,270,0.0,0.0,85,0.08,,---,0.50,VWS V14.01,2013-01-01 13:42:00,
2013-01-01 07:43:00,47.1,42.8,29.38,West,270,0.0,0.0,85,0.08,,---,0.50,VWS V14.01,2013-01-01 13:43:00,
2013-01-01 07:44:00,47.8,45.0,29.35,East,90,0.0,0.0,90,0.04,,---,0.62,VWS V14.01,2013-01-01 13:44:00,
2013-01-01 07:45:00,47.1,42.8,29.38,West,270,0.0,0.0,85,0.12,,---,0.54,VWS V14.01,2013-01-01 13:45:00,
2013-01-01 07:46:00,47.1,42.8,29.38,West,270,0.0,0.0,85,0.12,,---,0.54,VWS V14.01,2013-01-01 13:46:00,
2013-01-01 07:47:00,47.1,42.8,29.38,WSW,248,0.0,0.0,85,0.12,,---,0.54,VWS V14.01,2013-01-01 13:47:00,
2013-01-01 07:48:00,47.1,42.8,29.38,WSW,248,0.0,0.0,85,0.12,,---,0.54,VWS V14.01,2013-01-01 13:48:00,
2013-01-01 07:49:00,48.0,45.2,29.35,East,90,0.0,0.0,90,0.04,,---,0.62,VWS V14.01,2013-01-01 13:49:00,
2013-01-01 07:50:00,47.3,43.3,29.38,West,270,0.0,0.0,86,0.12,,---,0.54,VWS V14.01,2013-01-01 13:50:00,
2013-01-01 07:51:00,47.3,43.3,29.38,West,270,0.0,0.0,86,0.12,,---,0.54,VWS V14.01,2013-01-01 13:51:00,
2013-01-01 07:52:00,47.3,43.3,29.38,West,270,0.0,0.0,86,0.12,,---,0.54,VWS V14.01,2013-01-01 13:52:00,
2013-01-01 07:53:00,47.3,43.3,29.38,ENE,68,0.0,0.0,86,0.12,,---,0.54,VWS V14.01,2013-01-01 13:53:00,
2013-01-01 07:54:00,48.0,45.2,29.35,East,90,0.0,0.0,90,0.04,,---,0.62,VWS V14.01,2013-01-01 13:54:00,
2013-01-01 07:55:00,47.3,43.3,29.38,ENE,68,0.0,0.0,86,0.12,,---,0.54,VWS V14.01,2013-01-01 13:55:00,
2013-01-01 07:56:00,47.3,43.3,29.38,East,90,0.0,0.0,86,0.12,,---,0.54,VWS V14.01,2013-01-01 13:56:00,
2013-01-01 07:57:00,47.3,43.3,29.38,ESE,112,0.0,0.0,86,0.12,,---,0.54,VWS V14.01,2013-01-01 13:57:00,
2013-01-01 07:58:00,47.3,43.3,29.35,ESE,112,0.0,0.0,86,0.12,,---,0.54,VWS V14.01,2013-01-01 13:58:00,
2013-01-01 07:59:00,48.0,45.5,29.35,East,90,0.0,0.0,91,0.04,,---,0.62,VWS V14.01,2013-01-01 13:59:00,
2013-01-01 08:00:00,47.3,43.3,29.35,ESE,112,0.0,0.0,86,0.12,,---,0.54,VWS V14.01,2013-01-01 14:00:00,
2013-01-01 08:01:00,47.3,43.3,29.35,ESE,112,0.0,0.0,86,0.12,,---,0.54,VWS V14.01,2013-01-01 14:01:00,
2013-01-01 08:02:00,47.3,43.3,29.35,ESE,112,0.0,0.0,86,0.12,,---,0.54,VWS V14.01,2013-01-01 14:02:00,
2013-01-01 08:03:00,47.3,43.3,29.35,ESE,112,0.0,0.0,86,0.12,,---,0.54,VWS V14.01,2013-01-01 14:03:00,
2013-01-01 08:04:00,48.2,45.7,29.35,East,90,0.0,0.0,91,0.04,,---,0.62,VWS V14.01,2013-01-01 14:04:00,
2013-01-01 08:05:00,47.3,43.3,29.35,ESE,112,0.0,0.0,86,0.12,,---,0.54,VWS V14.01,2013-01-01 14:05:00,
2013-01-01 08:06:00,47.3,43.3,29.35,ESE,112,0.0,0.0,86,0.12,,---,0.54,VWS V14.01,2013-01-01 14:06:00,
2013-01-01 08:07:00,47.5,43.5,29.35,ESE,112,0.0,0.0,86,0.12,,---,0.54,VWS V14.01,2013-01-01 14:07:00,
2013-01-01 08:08:00,47.5,43.5,29.35,ESE,112,0.0,0.0,86,0.08,,---,0.54,VWS V14.01,2013-01-01 14:08:00,
2013-01-01 08:09:00,48.2,45.7,29.35,East,90,0.0,0.0,91,0.00,,---,0.62,VWS V14.01,2013-01-01 14:09:00,
2013-01-01 08:10:00,47.5,43.8,29.35,ESE,112,0.0,0.0,87,0.08,,---,0.54,VWS V14.01,2013-01-01 14:10:00,
2013-01-01 08:11:00,47.5,43.8,29.35,ESE,112,0.0,0.0,87,0.08,,---,0.54,VWS V14.01,2013-01-01 14:11:00,
2013-01-01 08:12:00,47.5,43.8,29.35,ESE,112,0.0,0.0,87,0.08,,---,0.54,VWS V14.01,2013-01-01 14:12:00,
2013-01-01 08:13:00,47.5,43.8,29.35,East,90,0.0,0.0,87,0.08,,---,0.54,VWS V14.01,2013-01-01 14:13:00,
2013-01-01 08:14:00,48.4,46.2,29.35,East,90,0.0,0.0,92,0.00,,---,0.62,VWS V14.01,2013-01-01 14:14:00,
2013-01-01 08:15:00,47.5,43.8,29.35,East,90,0.0,0.0,87,0.08,,---,0.54,VWS V14.01,2013-01-01 14:15:00,
2013-01-01 08:16:00,47.5,43.8,29.35,East,90,0.0,0.0,87,0.08,,---,0.54,VWS V14.01,2013-01-01 14:16:00,
2013-01-01 08:17:00,47.5,43.8,29.35,East,90,0.0,0.0,87,0.08,,---,0.54,VWS V14.01,2013-01-01 14:17:00,
2013-01-01 08:18:00,47.5,43.8,29.35,ESE,112,0.0,0.0,87,0.08,,---,0.54,VWS V14.01,2013-01-01 14:18:00,
2013-01-01 08:19:00,48.4,46.2,29.35,East,90,0.0,0.0,92,0.00,,---,0.62,VWS V14.01,2013-01-01 14:19:00,
2013-01-01 08:20:00,47.5,43.8,29.35,ESE,112,0.0,0.0,87,0.08,,---,0.54,VWS V14.01,2013-01-01 14:20:00,
2013-01-01 08:21:00,47.5,43.8,29.35,ESE,112,0.0,0.0,87,0.08,,---,0.54,VWS V14.01,2013-01-01 14:21:00,
2013-01-01 08:22:00,47.5,43.8,29.35,ESE,112,0.0,0.0,87,0.08,,---,0.54,VWS V14.01,2013-01-01 14:22:00,
2013-01-01 08:23:00,47.5,43.8,29.35,ESE,112,0.0,0.0,87,0.08,,---,0.54,VWS V14.01,2013-01-01 14:23:00,
2013-01-01 08:24:00,48.6,46.6,29.35,East,90,0.0,0.0,93,0.05,,---,0.67,VWS V14.01,2013-01-01 14:24:00,
2013-01-01 08:25:00,47.5,43.8,29.35,ESE,112,0.0,0.0,87,0.04,,---,0.54,VWS V14.01,2013-01-01 14:25:00,
2013-01-01 08:26:00,47.5,43.8,29.35,ESE,112,0.0,0.0,87,0.04,,---,0.54,VWS V14.01,2013-01-01 14:26:00,
2013-01-01 08:27:00,47.5,43.8,29.35,ESE,112,0.0,0.0,87,0.08,,---,0.58,VWS V14.01,2013-01-01 14:27:00,
2013-01-01 08:28:00,47.5,43.8,29.35,ESE,112,0.0,0.0,87,0.08,,---,0.58,VWS V14.01,2013-01-01 14:28:00,
2013-01-01 08:29:00,48.6,46.6,29.35,East,90,0.0,0.0,93,0.05,,---,0.67,VWS V14.01,2013-01-01 14:29:00,
2013-01-01 08:30:00,47.7,44.0,29.35,ESE,112,0.0,0.0,87,0.08,,---,0.58,VWS V14.01,2013-01-01 14:30:00,
2013-01-01 08:31:00,47.5,43.8,29.35,ESE,112,0.0,0.0,87,0.08,,---,0.58,VWS V14.01,2013-01-01 14:31:00,
2013-01-01 08:32:00,47.5,43.8,29.35,ESE,112,0.0,0.0,87,0.08,,---,0.58,VWS V14.01,2013-01-01 14:32:00,
2013-01-01 08:33:00,47.7,44.3,29.35,ESE,112,0.0,0.0,88,0.08,,---,0.58,VWS V14.01,2013-01-01 14:33:00,
2013-01-01 08:34:00,48.6,46.6,29.35,East,90,0.0,0.0,93,0.05,,---,0.67,VWS V14.01,2013-01-01 14:34:00,
2013-01-01 08:35:00,47.7,44.3,29.35,ESE,112,0.0,0.0,88,0.08,,---,0.58,VWS V14.01,2013-01-01 14:35:00,
2013-01-01 08:36:00,47.5,44.1,29.35,ESE,112,0.0,0.0,88,0.08,,---,0.58,VWS V14.01,2013-01-01 14:36:00,
2013-01-01 08:37:00,47.7,44.3,29.35,East,90,0.0,0.0,88,0.08,,---,0.58,VWS V14.01,2013-01-01 14:37:00,
2013-01-01 08:38:00,47.5,44.1,29.35,East,90,0.0,0.0,88,0.08,,---,0.58,VWS V14.01,2013-01-01 14:38:00,
2013-01-01 08:39:00,48.6,46.6,29.35,East,90,0.0,0.0,93,0.05,,---,0.67,VWS V14.01,2013-01-01 14:39:00,
2013-01-01 08:40:00,47.5,44.1,29.35,East,90,0.0,0.0,88,0.08,,---,0.58,VWS V14.01,2013-01-01 14:40:00,
2013-01-01 08:41:00,47.5,44.1,29.35,East,90,0.0,0.0,88,0.08,,---,0.58,VWS V14.01,2013-01-01 14:41:00,
2013-01-01 08:42:00,47.5,44.1,29.35,East,90,0.0,0.0,88,0.08,,---,0.58,VWS V14.01,2013-01-01 14:42:00,
2013-01-01 08:43:00,47.5,44.1,29.35,ESE,112,0.0,0.0,88,0.08,,---,0.58,VWS V14.01,2013-01-01 14:43:00,
2013-01-01 08:44:00,48.7,46.8,29.35,East,90,0.0,0.0,93,0.05,,---,0.67,VWS V14.01,2013-01-01 14:44:00,
2013-01-01 08:45:00,47.7,44.3,29.35,ESE,112,0.0,0.0,88,0.08,,---,0.58,VWS V14.01,2013-01-01 14:45:00,
2013-01-01 08:46:00,47.7,44.3,29.35,ESE,112,0.0,0.0,88,0.04,,---,0.58,VWS V14.01,2013-01-01 14:46:00,
2013-01-01 08:47:00,47.7,44.3,29.35,ESE,112,0.0,0.0,88,0.04,,---,0.58,VWS V14.01,2013-01-01 14:47:00,
2013-01-01 08:48:00,47.7,44.3,29.35,ESE,112,0.0,0.0,88,0.04,,---,0.58,VWS V14.01,2013-01-01 14:48:00,
2013-01-01 08:49:00,48.7,46.8,29.35,East,90,0.0,0.0,93,0.05,,---,0.67,VWS V14.01,2013-01-01 14:49:00,
2013-01-01 08:50:00,47.7,44.3,29.35,ESE,112,0.0,0.0,88,0.04,,---,0.58,VWS V14.01,2013-01-01 14:50:00,
2013-01-01 08:51:00,47.7,44.3,29.35,ESE,112,0.0,0.0,88,0.04,,---,0.58,VWS V14.01,2013-01-01 14:51:00,
2013-01-01 08:52:00,47.7,44.3,29.35,ESE,112,0.0,0.0,88,0.04,,---,0.58,VWS V14.01,2013-01-01 14:52:00,
2013-01-01 08:53:00,47.7,44.3,29.35,ESE,112,0.0,0.0,88,0.04,,---,0.58,VWS V14.01,2013-01-01 14:53:00,
2013-01-01 08:54:00,48.7,46.8,29.35,East,90,0.0,0.0,93,0.05,,---,0.67,VWS V14.01,2013-01-01 14:54:00,
2013-01-01 08:55:00,47.7,44.6,29.35,ESE,112,0.0,0.0,89,0.04,,---,0.58,VWS V14.01,2013-01-01 14:55:00,
2013-01-01 08:56:00,47.7,44.6,29.35,ESE,112,0.0,0.0,89,0.04,,---,0.58,VWS V14.01,2013-01-01 14:56:00,
2013-01-01 08:57:00,47.7,44.6,29.35,ESE,112,0.0,0.0,89,0.08,,---,0.62,VWS V14.01,2013-01-01 14:57:00,
2013-01-01 08:58:00,47.7,44.6,29.35,ESE,112,0.0,0.0,89,0.08,,---,0.62,VWS V14.01,2013-01-01 14:58:00,
2013-01-01 08:59:00,48.7,46.8,29.35,ENE,68,0.0,0.0,93,0.05,,---,0.67,VWS V14.01,2013-01-01 14:59:00,
2013-01-01 09:00:00,47.7,44.6,29.35,ESE,112,0.0,0.0,89,0.08,,---,0.62,VWS V14.01,2013-01-01 15:00:00,
2013-01-01 09:01:00,47.7,44.6,29.35,ESE,112,0.0,0.0,89,0.08,,---,0.62,VWS V14.01,2013-01-01 15:01:00,
2013-01-01 09:02:00,47.7,44.6,29.35,ESE,112,0.0,0.0,89,0.08,,---,0.62,VWS V14.01,2013-01-01 15:02:00,
2013-01-01 09:03:00,47.7,44.6,29.35,ESE,112,0.0,0.0,89,0.08,,---,0.62,VWS V14.01,2013-01-01 15:03:00,
2013-01-01 09:04:00,48.9,47.0,29.35,East,90,0.0,0.0,93,0.09,,---,0.71,VWS V14.01,2013-01-01 15:04:00,
2013-01-01 09:05:00,47.7,44.6,29.35,ESE,112,0.0,0.0,89,0.08,,---,0.62,VWS V14.01,2013-01-01 15:05:00,
2013-01-01 09:06:00,47.7,44.6,29.35,ESE,112,0.0,0.0,89,0.08,,---,0.62,VWS V14.01,2013-01-01 15:06:00,
2013-01-01 09:07:00,47.7,44.6,29.35,ESE,112,0.0,0.0,89,0.08,,---,0.62,VWS V14.01,2013-01-01 15:07:00,
2013-01-01 09:08:00,47.7,44.6,29.35,WSW,248,0.0,0.0,89,0.08,,---,0.62,VWS V14.01,2013-01-01 15:08:00,
2013-01-01 09:09:00,48.9,47.3,29.32,ENE,68,0.0,0.0,94,0.09,,---,0.71,VWS V14.01,2013-01-01 15:09:00,
2013-01-01 09:10:00,47.7,44.6,29.35,SW,225,0.0,0.0,89,0.08,,---,0.62,VWS V14.01,2013-01-01 15:10:00,
2013-01-01 09:11:00,47.8,44.8,29.35,SW,225,0.0,0.0,89,0.08,,---,0.62,VWS V14.01,2013-01-01 15:11:00,
2013-01-01 09:12:00,47.8,44.8,29.35,SW,225,0.0,0.0,89,0.08,,---,0.62,VWS V14.01,2013-01-01 15:12:00,
2013-01-01 09:13:00,47.8,44.8,29.35,SW,225,0.0,0.0,89,0.08,,---,0.62,VWS V14.01,2013-01-01 15:13:00,
2013-01-01 09:14:00,49.1,47.5,29.32,ENE,68,0.0,0.0,94,0.09,,---,0.71,VWS V14.01,2013-01-01 15:14:00,
2013-01-01 09:15:00,47.8,44.8,29.35,SW,225,0.0,0.0,89,0.08,,---,0.62,VWS V14.01,2013-01-01 15:15:00,
2013-01-01 09:16:00,47.8,44.8,29.35,SW,225,0.0,0.0,89,0.08,,---,0.62,VWS V14.01,2013-01-01 15:16:00,
2013-01-01 09:17:00,47.8,44.8,29.35,ENE,68,0.0,0.0,89,0.08,,---,0.62,VWS V14.01,2013-01-01 15:17:00,
2013-01-01 09:18:00,47.8,44.8,29.35,ENE,68,0.0,0.0,89,0.08,,---,0.62,VWS V14.01,2013-01-01 15:18:00,
2013-01-01 09:19:00,49.1,47.5,29.32,East,90,0.0,0.0,94,0.09,,---,0.71,VWS V14.01,2013-01-01 15:19:00,
2013-01-01 09:20:00,47.8,44.8,29.35,ENE,68,0.0,0.0,89,0.08,,---,0.62,VWS V14.01,2013-01-01 15:20:00,
2013-01-01 09:21:00,47.8,44.8,29.35,ENE,68,0.0,0.0,89,0.08,,---,0.62,VWS V14.01,2013-01-01 15:21:00,
2013-01-01 09:22:00,47.8,44.8,29.35,ENE,68,0.0,0.0,89,0.08,,---,0.62,VWS V14.01,2013-01-01 15:22:00,
2013-01-01 09:23:00,47.8,44.8,29.35,ENE,68,0.0,0.0,89,0.08,,---,0.62,VWS V14.01,2013-01-01 15:23:00,
2013-01-01 09:24:00,49.3,47.6,29.35,East,90,0.0,0.0,94,0.04,,---,0.71,VWS V14.01,2013-01-01 15:24:00,
2013-01-01 09:25:00,47.8,44.8,29.35,ENE,68,0.0,0.0,89,0.08,,---,0.62,VWS V14.01,2013-01-01 15:25:00,
2013-01-01 09:26:00,47.8,44.8,29.35,East,90,0.0,0.0,89,0.08,,---,0.62,VWS V14.01,2013-01-01 15:26:00,
2013-01-01 09:27:00,47.8,44.8,29.35,East,90,0.0,0.0,89,0.08,,---,0.62,VWS V14.01,2013-01-01 15:27:00,
2013-01-01 09:28:00,47.8,44.8,29.35,East,90,0.0,0.0,89,0.04,,---,0.62,VWS V14.01,2013-01-01 15:28:00,
2013-01-01 09:29:00,49.5,48.1,29.35,East,90,0.0,0.0,95,0.04,,---,0.71,VWS V14.01,2013-01-01 15:29:00,
2013-01-01 09:30:00,47.8,45.0,29.35,East,90,0.0,0.0,90,0.04,,---,0.62,VWS V14.01,2013-01-01 15:30:00,
2013-01-01 09:31:00,47.8,45.0,29.35,East,90,0.0,0.0,90,0.04,,---,0.62,VWS V14.01,2013-01-01 15:31:00,
2013-01-01 09:32:00,47.8,45.0,29.35,East,90,0.0,0.0,90,0.04,,---,0.62,VWS V14.01,2013-01-01 15:32:00,
2013-01-01 09:33:00,47.8,45.0,29.35,East,90,0.0,0.0,90,0.04,,---,0.62,VWS V14.01,2013-01-01 15:33:00,
2013-01-01 09:34:00,49.5,48.1,29.35,ENE,68,0.0,0.0,95,0.04,,---,0.71,VWS V14.01,2013-01-01 15:34:00,
2013-01-01 09:35:00,47.8,45.0,29.35,East,90,0.0,0.0,90,0.04,,---,0.62,VWS V14.01,2013-01-01 15:35:00,
2013-01-01 09:36:00,47.8,45.0,29.35,East,90,0.0,0.0,90,0.04,,---,0.62,VWS V14.01,2013-01-01 15:36:00,
2013-01-01 09:37:00,48.0,45.2,29.35,East,90,0.0,0.0,90,0.04,,---,0.62,VWS V14.01,2013-01-01 15:37:00,
2013-01-01 09:38:00,48.0,45.2,29.35,East,90,0.0,0.0,90,0.04,,---,0.62,VWS V14.01,2013-01-01 15:38:00,
2013-01-01 09:39:00,49.6,48.3,29.35,WNW,292,0.0,0.0,95,0.04,,---,0.71,VWS V14.01,2013-01-01 15:39:00,
2013-01-01 09:40:00,48.0,45.2,29.35,East,90,0.0,0.0,90,0.04,,---,0.62,VWS V14.01,2013-01-01 15:40:00,
2013-01-01 09:41:00,48.0,45.2,29.35,East,90,0.0,0.0,90,0.04,,---,0.62,VWS V14.01,2013-01-01 15:41:00,
2013-01-01 09:42:00,48.0,45.2,29.35,East,90,0.0,0.0,90,0.04,,---,0.62,VWS V14.01,2013-01-01 15:42:00,
2013-01-01 09:43:00,48.0,45.2,29.35,East,90,0.0,0.0,90,0.04,,---,0.62,VWS V14.01,2013-01-01 15:43:00,
2013-01-01 09:44:00,49.8,48.7,29.35,WNW,292,0.0,0.0,96,0.04,,---,0.71,VWS V14.01,2013-01-01 15:44:00,
2013-01-01 09:45:00,48.0,45.2,29.35,East,90,0.0,0.0,90,0.04,,---,0.62,VWS V14.01,2013-01-01 15:45:00,
2013-01-01 09:46:00,48.0,45.2,29.35,East,90,0.0,0.0,90,0.04,,---,0.62,VWS V14.01,2013-01-01 15:46:00,
2013-01-01 09:47:00,48.0,45.5,29.35,East,90,0.0,0.0,91,0.04,,---,0.62,VWS V14.01,2013-01-01 15:47:00,
2013-01-01 09:48:00,48.0,45.5,29.35,East,90,0.0,0.0,91,0.04,,---,0.62,VWS V14.01,2013-01-01 15:48:00,
2013-01-01 09:49:00,49.8,48.7,29.35,WNW,292,0.0,0.0,96,0.04,,---,0.71,VWS V14.01,2013-01-01 15:49:00,
2013-01-01 09:50:00,48.0,45.5,29.35,East,90,0.0,0.0,91,0.04,,---,0.62,VWS V14.01,2013-01-01 15:50:00,
2013-01-01 09:51:00,48.0,45.5,29.35,East,90,0.0,0.0,91,0.04,,---,0.62,VWS V14.01,2013-01-01 15:51:00,
2013-01-01 09:52:00,48.0,45.5,29.35,East,90,0.0,0.0,91,0.04,,---,0.62,VWS V14.01,2013-01-01 15:52:00,
2013-01-01 09:53:00,48.2,45.7,29.35,East,90,0.0,0.0,91,0.04,,---,0.62,VWS V14.01,2013-01-01 15:53:00,
2013-01-01 09:54:00,50.0,48.9,29.35,WNW,292,0.0,0.0,96,0.08,,---,0.75,VWS V14.01,2013-01-01 15:54:00,
2013-01-01 09:55:00,48.2,45.7,29.35,East,90,0.0,0.0,91,0.04,,---,0.62,VWS V14.01,2013-01-01 15:55:00,
2013-01-01 09:56:00,48.2,45.7,29.35,East,90,0.0,0.0,91,0.04,,---,0.62,VWS V14.01,2013-01-01 15:56:00,
2013-01-01 09:57:00,48.2,45.7,29.35,East,90,0.0,0.0,91,0.04,,---,0.62,VWS V14.01,2013-01-01 15:57:00,
2013-01-01 09:58:00,48.2,45.7,29.35,East,90,0.0,0.0,91,0.00,,---,0.62,VWS V14.01,2013-01-01 15:58:00,
2013-01-01 09:59:00,50.0,48.9,29.35,WSW,248,0.0,0.0,96,0.08,,---,0.75,VWS V14.01,2013-01-01 15:59:00,
2013-01-01 10:00:00,48.2,45.7,29.35,East,90,0.0,0.0,91,0.00,,---,0.62,VWS V14.01,2013-01-01 16:00:00,
2013-01-01 10:01:00,48.2,46.0,29.35,East,90,0.0,0.0,92,0.00,,---,0.62,VWS V14.01,2013-01-01 16:01:00,
2013-01-01 10:02:00,48.2,46.0,29.35,East,90,0.0,0.0,92,0.00,,---,0.62,VWS V14.01,2013-01-01 16:02:00,
2013-01-01 10:03:00,48.2,46.0,29.35,East,90,0.0,0.0,92,0.00,,---,0.62,VWS V14.01,2013-01-01 16:03:00,
2013-01-01 10:04:00,50.2,49.1,29.35,WSW,248,0.0,0.0,96,0.04,,---,0.75,VWS V14.01,2013-01-01 16:04:00,
2013-01-01 10:05:00,48.4,46.2,29.35,East,90,0.0,0.0,92,0.00,,---,0.62,VWS V14.01,2013-01-01 16:05:00,
2013-01-01 10:06:00,48.4,46.2,29.35,East,90,0.0,0.0,92,0.00,,---,0.62,VWS V14.01,2013-01-01 16:06:00,
2013-01-01 10:07:00,48.4,46.2,29.35,East,90,0.0,0.0,92,0.00,,---,0.62,VWS V14.01,2013-01-01 16:07:00,
2013-01-01 10:08:00,48.4,46.2,29.35,East,90,0.0,0.0,92,0.00,,---,0.62,VWS V14.01,2013-01-01 16:08:00,
2013-01-01 10:09:00,50.2,49.1,29.38,WSW,248,0.0,0.0,96,0.04,,---,0.75,VWS V14.01,2013-01-01 16:09:00,
2013-01-01 10:10:00,48.4,46.2,29.35,East,90,0.0,0.0,92,0.05,,---,0.67,VWS V14.01,2013-01-01 16:10:00,
2013-01-01 10:11:00,48.4,46.5,29.35,East,90,0.0,0.0,93,0.05,,---,0.67,VWS V14.01,2013-01-01 16:11:00,
2013-01-01 10:12:00,48.4,46.5,29.35,East,90,0.0,0.0,93,0.05,,---,0.67,VWS V14.01,2013-01-01 16:12:00,
2013-01-01 10:13:00,48.6,46.6,29.35,East,90,0.0,0.0,93,0.05,,---,0.67,VWS V14.01,2013-01-01 16:13:00,
2013-01-01 10:14:00,50.4,49.3,29.38,WSW,248,0.0,0.0,96,0.04,,---,0.75,VWS V14.01,2013-01-01 16:14:00,
2013-01-01 10:15:00,48.6,46.6,29.35,East,90,0.0,0.0,93,0.05,,---,0.67,VWS V14.01,2013-01-01 16:15:00,
2013-01-01 10:16:00,48.6,46.6,29.35,East,90,0.0,0.0,93,0.05,,---,0.67,VWS V14.01,2013-01-01 16:16:00,
2013-01-01 10:17:00,48.6,46.6,29.35,East,90,0.0,0.0,93,0.05,,---,0.67,VWS V14.01,2013-01-01 16:17:00,
2013-01-01 10:18:00,48.6,46.6,29.35,East,90,0.0,0.0,93,0.05,,---,0.67,VWS V14.01,2013-01-01 16:18:00,
2013-01-01 10:19:00,50.4,49.5,29.38,WSW,248,0.0,0.0,97,0.04,,---,0.75,VWS V14.01,2013-01-01 16:19:00,
2013-01-01 10:20:00,48.6,46.6,29.35,East,90,0.0,0.0,93,0.05,,---,0.67,VWS V14.01,2013-01-01 16:20:00,
2013-01-01 10:21:00,48.6,46.6,29.35,East,90,0.0,0.0,93,0.05,,---,0.67,VWS V14.01,2013-01-01 16:21:00,
2013-01-01 10:22:00,48.6,46.6,29.35,East,90,0.0,0.0,93,0.05,,---,0.67,VWS V14.01,2013-01-01 16:22:00,
2013-01-01 10:23:00,48.6,46.6,29.35,East,90,0.0,0.0,93,0.05,,---,0.67,VWS V14.01,2013-01-01 16:23:00,
2013-01-01 10:24:00,50.4,49.3,29.35,West,270,0.0,0.0,96,0.04,,---,0.75,VWS V14.01,2013-01-01 16:24:00,
2013-01-01 10:25:00,48.6,46.6,29.35,East,90,0.0,0.0,93,0.05,,---,0.67,VWS V14.01,2013-01-01 16:25:00,
2013-01-01 10:26:00,48.6,46.6,29.35,East,90,0.0,0.0,93,0.05,,---,0.67,VWS V14.01,2013-01-01 16:26:00,
2013-01-01 10:27:00,48.6,46.6,29.35,East,90,0.0,0.0,93,0.05,,---,0.67,VWS V14.01,2013-01-01 16:27:00,
2013-01-01 10:28:00,48.6,46.6,29.35,East,90,0.0,0.0,93,0.05,,---,0.67,VWS V14.01,2013-01-01 16:28:00,
2013-01-01 10:29:00,50.4,49.3,29.35,West,270,0.0,0.0,96,0.04,,---,0.75,VWS V14.01,2013-01-01 16:29:00,
2013-01-01 10:30:00,48.7,46.8,29.35,East,90,0.0,0.0,93,0.05,,---,0.67,VWS V14.01,2013-01-01 16:30:00,
2013-01-01 10:31:00,48.7,46.8,29.35,East,90,0.0,0.0,93,0.05,,---,0.67,VWS V14.01,2013-01-01 16:31:00,
2013-01-01 10:32:00,48.7,46.8,29.35,East,90,0.0,0.0,93,0.05,,---,0.67,VWS V14.01,2013-01-01 16:32:00,
2013-01-01 10:33:00,48.7,46.8,29.35,East,90,0.0,0.0,93,0.05,,---,0.67,VWS V14.01,2013-01-01 16:33:00,
2013-01-01 10:34:00,50.4,49.3,29.35,West,270,0.0,0.0,96,0.04,,---,0.75,VWS V14.01,2013-01-01 16:34:00,
2013-01-01 10:35:00,48.7,46.8,29.35,East,90,0.0,0.0,93,0.05,,---,0.67,VWS V14.01,2013-01-01 16:35:00,
2013-01-01 10:36:00,48.7,46.8,29.35,East,90,0.0,0.0,93,0.05,,---,0.67,VWS V14.01,2013-01-01 16:36:00,
2013-01-01 10:37:00,48.7,46.8,29.35,East,90,0.0,0.0,93,0.05,,---,0.67,VWS V14.01,2013-01-01 16:37:00,
2013-01-01 10:38:00,48.7,46.8,29.35,ESE,112,0.0,0.0,93,0.05,,---,0.67,VWS V14.01,2013-01-01 16:38:00,
2013-01-01 10:39:00,50.4,49.3,29.35,West,270,0.0,0.0,96,0.04,,---,0.75,VWS V14.01,2013-01-01 16:39:00,
2013-01-01 10:40:00,48.7,46.8,29.35,East,90,0.0,0.0,93,0.05,,---,0.67,VWS V14.01,2013-01-01 16:40:00,
2013-01-01 10:41:00,48.7,46.8,29.35,East,90,0.0,0.0,93,0.05,,---,0.67,VWS V14.01,2013-01-01 16:41:00,
2013-01-01 10:42:00,48.7,46.8,29.35,East,90,0.0,0.0,93,0.05,,---,0.67,VWS V14.01,2013-01-01 16:42:00,
2013-01-01 10:43:00,48.7,46.8,29.35,ESE,112,0.0,0.0,93,0.05,,---,0.67,VWS V14.01,2013-01-01 16:43:00,
2013-01-01 10:44:00,50.4,49.3,29.35,WSW,248,0.0,0.0,96,0.04,,---,0.75,VWS V14.01,2013-01-01 16:44:00,
2013-01-01 10:45:00,48.7,46.8,29.35,ENE,68,0.0,0.0,93,0.05,,---,0.67,VWS V14.01,2013-01-01 16:45:00,
2013-01-01 10:46:00,48.7,46.8,29.35,ENE,68,0.0,0.0,93,0.05,,---,0.67,VWS V14.01,2013-01-01 16:46:00,
2013-01-01 10:47:00,48.7,46.8,29.35,ENE,68,0.0,0.0,93,0.05,,---,0.67,VWS V14.01,2013-01-01 16:47:00,
2013-01-01 10:48:00,48.7,46.8,29.35,ENE,68,0.0,0.0,93,0.05,,---,0.67,VWS V14.01,2013-01-01 16:48:00,
2013-01-01 10:49:00,50.4,49.0,29.35,SSW,202,0.0,0.0,95,0.08,,---,0.79,VWS V14.01,2013-01-01 16:49:00,
2013-01-01 10:50:00,48.7,46.8,29.35,ENE,68,0.0,0.0,93,0.09,,---,0.71,VWS V14.01,2013-01-01 16:50:00,
2013-01-01 10:51:00,48.7,46.8,29.35,ENE,68,0.0,0.0,93,0.09,,---,0.71,VWS V14.01,2013-01-01 16:51:00,
2013-01-01 10:52:00,48.7,46.8,29.35,West,270,0.0,0.0,93,0.09,,---,0.71,VWS V14.01,2013-01-01 16:52:00,
2013-01-01 10:53:00,48.9,47.0,29.35,West,270,0.0,0.0,93,0.09,,---,0.71,VWS V14.01,2013-01-01 16:53:00,
2013-01-01 10:54:00,50.4,49.0,29.35,SSW,202,0.0,0.0,95,0.08,,---,0.79,VWS V14.01,2013-01-01 16:54:00,
2013-01-01 10:55:00,48.9,47.3,29.35,East,90,0.0,0.0,94,0.09,,---,0.71,VWS V14.01,2013-01-01 16:55:00,
2013-01-01 10:56:00,48.9,47.3,29.35,ESE,112,0.0,0.0,94,0.09,,---,0.71,VWS V14.01,2013-01-01 16:56:00,
2013-01-01 10:57:00,48.9,47.3,29.35,ENE,68,0.0,0.0,94,0.09,,---,0.71,VWS V14.01,2013-01-01 16:57:00,
2013-01-01 10:58:00,48.9,47.3,29.32,ENE,68,0.0,0.0,94,0.09,,---,0.71,VWS V14.01,2013-01-01 16:58:00,
2013-01-01 10:59:00,50.4,49.0,29.35,WNW,292,0.0,0.0,95,0.04,,---,0.79,VWS V14.01,2013-01-01 16:59:00,
2013-01-01 11:00:00,48.9,47.3,29.32,ENE,68,0.0,0.0,94,0.09,,---,0.71,VWS V14.01,2013-01-01 17:00:00,
2013-01-01 11:01:00,48.9,47.3,29.32,ENE,68,0.0,0.0,94,0.09,,---,0.71,VWS V14.01,2013-01-01 17:01:00,
2013-01-01 11:02:00,48.9,47.3,29.32,ENE,68,0.0,0.0,94,0.09,,---,0.71,VWS V14.01,2013-01-01 17:02:00,
2013-01-01 11:03:00,49.1,47.5,29.32,ENE,68,0.0,0.0,94,0.09,,---,0.71,VWS V14.01,2013-01-01 17:03:00,
2013-01-01 11:04:00,50.4,49.0,29.35,WNW,292,0.0,0.0,95,0.04,,---,0.79,VWS V14.01,2013-01-01 17:04:00,
2013-01-01 11:05:00,49.1,47.5,29.32,East,90,0.0,0.0,94,0.09,,---,0.71,VWS V14.01,2013-01-01 17:05:00,
2013-01-01 11:06:00,49.1,47.5,29.32,East,90,0.0,0.0,94,0.09,,---,0.71,VWS V14.01,2013-01-01 17:06:00,
2013-01-01 11:07:00,49.1,47.5,29.32,East,90,0.0,0.0,94,0.09,,---,0.71,VWS V14.01,2013-01-01 17:07:00,
2013-01-01 11:08:00,49.1,47.5,29.32,East,90,0.0,0.0,94,0.09,,---,0.71,VWS V14.01,2013-01-01 17:08:00,
2013-01-01 11:09:00,50.4,49.3,29.35,WNW,292,0.0,0.0,96,0.08,,---,0.83,VWS V14.01,2013-01-01 17:09:00,
2013-01-01 11:10:00,49.1,47.5,29.32,East,90,0.0,0.0,94,0.09,,---,0.71,VWS V14.01,2013-01-01 17:10:00,
2013-01-01 11:11:00,49.3,47.6,29.32,East,90,0.0,0.0,94,0.04,,---,0.71,VWS V14.01,2013-01-01 17:11:00,
2013-01-01 11:12:00,49.3,47.6,29.32,East,90,0.0,0.0,94,0.04,,---,0.71,VWS V14.01,2013-01-01 17:12:00,
2013-01-01 11:13:00,49.3,47.6,29.35,East,90,0.0,0.0,94,0.04,,---,0.71,VWS V14.01,2013-01-01 17:13:00,
2013-01-01 11:14:00,50.4,49.0,29.35,WNW,292,0.0,0.0,95,0.08,,---,0.83,VWS V14.01,2013-01-01 17:14:00,
2013-01-01 11:15:00,49.3,47.9,29.35,East,90,0.0,0.0,95,0.04,,---,0.71,VWS V14.01,2013-01-01 17:15:00,
2013-01-01 11:16:00,49.3,47.9,29.35,East,90,0.0,0.0,95,0.04,,---,0.71,VWS V14.01,2013-01-01 17:16:00,
2013-01-01 11:17:00,49.3,47.9,29.35,East,90,0.0,0.0,95,0.04,,---,0.71,VWS V14.01,2013-01-01 17:17:00,
2013-01-01 11:18:00,49.5,48.1,29.35,East,90,0.0,0.0,95,0.04,,---,0.71,VWS V14.01,2013-01-01 17:18:00,
2013-01-01 11:19:00,50.4,49.3,29.35,WSW,248,0.0,0.0,96,0.08,,---,0.83,VWS V14.01,2013-01-01 17:19:00,
2013-01-01 11:20:00,49.5,48.1,29.35,East,90,0.0,0.0,95,0.04,,---,0.71,VWS V14.01,2013-01-01 17:20:00,
2013-01-01 11:21:00,49.5,48.1,29.35,East,90,0.0,0.0,95,0.04,,---,0.71,VWS V14.01,2013-01-01 17:21:00,
2013-01-01 11:22:00,49.5,48.1,29.35,East,90,0.0,0.0,95,0.04,,---,0.71,VWS V14.01,2013-01-01 17:22:00,
2013-01-01 11:23:00,49.5,48.1,29.35,East,90,0.0,0.0,95,0.04,,---,0.71,VWS V14.01,2013-01-01 17:23:00,
2013-01-01 11:24:00,50.4,49.3,29.35,WSW,248,0.0,0.0,96,0.08,,---,0.83,VWS V14.01,2013-01-01 17:24:00,
2013-01-01 11:25:00,49.5,48.1,29.35,WNW,292,0.0,0.0,95,0.04,,---,0.71,VWS V14.01,2013-01-01 17:25:00,
2013-01-01 11:26:00,49.6,48.3,29.35,WNW,292,0.0,0.0,95,0.04,,---,0.71,VWS V14.01,2013-01-01 17:26:00,
2013-01-01 11:27:00,49.6,48.3,29.35,WNW,292,0.0,0.0,95,0.04,,---,0.71,VWS V14.01,2013-01-01 17:27:00,
2013-01-01 11:28:00,49.6,48.3,29.35,WNW,292,0.0,0.0,95,0.04,,---,0.71,VWS V14.01,2013-01-01 17:28:00,
2013-01-01 11:29:00,50.4,49.3,29.35,WSW,248,0.0,0.0,96,0.12,,---,0.87,VWS V14.01,2013-01-01 17:29:00,
2013-01-01 11:30:00,49.6,48.3,29.35,WNW,292,0.0,0.0,95,0.04,,---,0.71,VWS V14.01,2013-01-01 17:30:00,
2013-01-01 11:31:00,49.6,48.3,29.35,WNW,292,0.0,0.0,95,0.04,,---,0.71,VWS V14.01,2013-01-01 17:31:00,
2013-01-01 11:32:00,49.6,48.3,29.35,WNW,292,0.0,0.0,95,0.04,,---,0.71,VWS V14.01,2013-01-01 17:32:00,
2013-01-01 11:33:00,49.8,48.7,29.35,WNW,292,0.0,0.0,96,0.04,,---,0.71,VWS V14.01,2013-01-01 17:33:00,
2013-01-01 11:34:00,50.4,49.3,29.35,SSE,158,0.0,0.0,96,0.12,,---,0.87,VWS V14.01,2013-01-01 17:34:00,
2013-01-01 11:35:00,49.8,48.7,29.35,WNW,292,0.0,0.0,96,0.04,,---,0.71,VWS V14.01,2013-01-01 17:35:00,
2013-01-01 11:36:00,49.8,48.7,29.35,WNW,292,0.0,0.0,96,0.04,,---,0.71,VWS V14.01,2013-01-01 17:36:00,
2013-01-01 11:37:00,49.8,48.7,29.35,WNW,292,0.0,0.0,96,0.04,,---,0.71,VWS V14.01,2013-01-01 17:37:00,
2013-01-01 11:38:00,49.8,48.7,29.35,WNW,292,0.0,0.0,96,0.04,,---,0.71,VWS V14.01,2013-01-01 17:38:00,
2013-01-01 11:39:00,50.4,49.3,29.32,SSE,158,0.0,0.0,96,0.12,,---,0.87,VWS V14.01,2013-01-01 17:39:00,
2013-01-01 11:40:00,49.8,48.7,29.35,WNW,292,0.0,0.0,96,0.04,,---,0.71,VWS V14.01,2013-01-01 17:40:00,
2013-01-01 11:41:00,50.0,48.9,29.35,WNW,292,0.0,0.0,96,0.04,,---,0.71,VWS V14.01,2013-01-01 17:41:00,
2013-01-01 11:42:00,50.0,48.9,29.35,WNW,292,0.0,0.0,96,0.04,,---,0.71,VWS V14.01,2013-01-01 17:42:00,
2013-01-01 11:43:00,50.0,48.9,29.35,WNW,292,0.0,0.0,96,0.04,,---,0.71,VWS V14.01,2013-01-01 17:43:00,
2013-01-01 11:44:00,50.5,49.5,29.32,ENE,68,0.0,0.0,96,0.12,,---,0.87,VWS V14.01,2013-01-01 17:44:00,
2013-01-01 11:45:00,50.0,48.9,29.35,WSW,248,0.0,0.0,96,0.08,,---,0.75,VWS V14.01,2013-01-01 17:45:00,
2013-01-01 11:46:00,50.0,48.9,29.35,WSW,248,0.0,0.0,96,0.08,,---,0.75,VWS V14.01,2013-01-01 17:46:00,
2013-01-01 11:47:00,50.0,48.9,29.35,WSW,248,0.0,0.0,96,0.08,,---,0.75,VWS V14.01,2013-01-01 17:47:00,
2013-01-01 11:48:00,50.0,48.9,29.35,WSW,248,0.0,0.0,96,0.08,,---,0.75,VWS V14.01,2013-01-01 17:48:00,
2013-01-01 11:49:00,50.7,49.6,29.32,East,90,0.0,0.0,96,0.08,,---,0.87,VWS V14.01,2013-01-01 17:49:00,
2013-01-01 11:50:00,50.0,48.9,29.35,WSW,248,0.0,0.0,96,0.08,,---,0.75,VWS V14.01,2013-01-01 17:50:00,
2013-01-01 11:51:00,50.0,48.9,29.35,WSW,248,0.0,0.0,96,0.04,,---,0.75,VWS V14.01,2013-01-01 17:51:00,
2013-01-01 11:52:00,50.2,49.1,29.35,WSW,248,0.0,0.0,96,0.04,,---,0.75,VWS V14.01,2013-01-01 17:52:00,
2013-01-01 11:53:00,50.2,49.1,29.35,WSW,248,0.0,0.0,96,0.04,,---,0.75,VWS V14.01,2013-01-01 17:53:00,
2013-01-01 11:54:00,50.7,49.9,29.32,East,90,0.0,0.0,97,0.08,,---,0.87,VWS V14.01,2013-01-01 17:54:00,
2013-01-01 11:55:00,50.2,49.1,29.35,WSW,248,0.0,0.0,96,0.04,,---,0.75,VWS V14.01,2013-01-01 17:55:00,
2013-01-01 11:56:00,50.2,49.1,29.35,WSW,248,0.0,0.0,96,0.04,,---,0.75,VWS V14.01,2013-01-01 17:56:00,
2013-01-01 11:57:00,50.2,49.1,29.35,WSW,248,0.0,0.0,96,0.04,,---,0.75,VWS V14.01,2013-01-01 17:57:00,
2013-01-01 11:58:00,50.2,49.1,29.38,WSW,248,0.0,0.0,96,0.04,,---,0.75,VWS V14.01,2013-01-01 17:58:00,
2013-01-01 11:59:00,50.9,50.1,29.32,WSW,248,0.0,0.0,97,0.08,,---,0.87,VWS V14.01,2013-01-01 17:59:00,
2013-01-01 12:00:00,50.2,49.1,29.38,WSW,248,0.0,0.0,96,0.04,,---,0.75,VWS V14.01,2013-01-01 18:00:00,
2013-01-01 12:01:00,50.2,49.1,29.38,WSW,248,0.0,0.0,96,0.04,,---,0.75,VWS V14.01,2013-01-01 18:01:00,
2013-01-01 12:02:00,50.2,49.1,29.38,WSW,248,0.0,0.0,96,0.04,,---,0.75,VWS V14.01,2013-01-01 18:02:00,
2013-01-01 12:03:00,50.4,49.3,29.38,WSW,248,0.0,0.0,96,0.04,,---,0.75,VWS V14.01,2013-01-01 18:03:00,
2013-01-01 12:04:00,51.1,50.5,29.32,SSE,158,0.0,0.0,98,0.13,,---,0.92,VWS V14.01,2013-01-01 18:04:00,
2013-01-01 12:05:00,50.4,49.3,29.38,WSW,248,0.0,0.0,96,0.04,,---,0.75,VWS V14.01,2013-01-01 18:05:00,
2013-01-01 12:06:00,50.4,49.3,29.38,WSW,248,0.0,0.0,96,0.04,,---,0.75,VWS V14.01,2013-01-01 18:06:00,
2013-01-01 12:07:00,50.4,49.3,29.38,WSW,248,0.0,0.0,96,0.04,,---,0.75,VWS V14.01,2013-01-01 18:07:00,
2013-01-01 12:08:00,50.4,49.5,29.38,WSW,248,0.0,0.0,97,0.04,,---,0.75,VWS V14.01,2013-01-01 18:08:00,
2013-01-01 12:09:00,51.1,50.5,29.32,SSE,158,0.0,0.0,98,0.09,,---,0.92,VWS V14.01,2013-01-01 18:09:00,
2013-01-01 12:10:00,50.4,49.5,29.38,West,270,0.0,0.0,97,0.04,,---,0.75,VWS V14.01,2013-01-01 18:10:00,
2013-01-01 12:11:00,50.4,49.5,29.38,West,270,0.0,0.0,97,0.04,,---,0.75,VWS V14.01,2013-01-01 18:11:00,
2013-01-01 12:12:00,50.4,49.5,29.38,West,270,0.0,0.0,97,0.04,,---,0.75,VWS V14.01,2013-01-01 18:12:00,
2013-01-01 12:13:00,50.4,49.3,29.38,West,270,0.0,0.0,96,0.04,,---,0.75,VWS V14.01,2013-01-01 18:13:00,
2013-01-01 12:14:00,51.1,50.5,29.32,SSE,158,0.0,0.0,98,0.09,,---,0.92,VWS V14.01,2013-01-01 18:14:00,
2013-01-01 12:15:00,50.4,49.3,29.35,West,270,0.0,0.0,96,0.04,,---,0.75,VWS V14.01,2013-01-01 18:15:00,
2013-01-01 12:16:00,50.4,49.3,29.35,West,270,0.0,0.0,96,0.04,,---,0.75,VWS V14.01,2013-01-01 18:16:00,
2013-01-01 12:17:00,50.4,49.3,29.35,West,270,0.0,0.0,96,0.04,,---,0.75,VWS V14.01,2013-01-01 18:17:00,
2013-01-01 12:18:00,50.4,49.3,29.35,West,270,0.0,0.0,96,0.04,,---,0.75,VWS V14.01,2013-01-01 18:18:00,
2013-01-01 12:19:00,51.1,50.5,29.32,ENE,68,0.0,0.0,98,0.09,,---,0.92,VWS V14.01,2013-01-01 18:19:00,
2013-01-01 12:20:00,50.4,49.3,29.35,West,270,0.0,0.0,96,0.04,,---,0.75,VWS V14.01,2013-01-01 18:20:00,
2013-01-01 12:21:00,50.4,49.3,29.35,West,270,0.0,0.0,96,0.04,,---,0.75,VWS V14.01,2013-01-01 18:21:00,
2013-01-01 12:22:00,50.4,49.3,29.35,West,270,0.0,0.0,96,0.04,,---,0.75,VWS V14.01,2013-01-01 18:22:00,
2013-01-01 12:23:00,50.4,49.3,29.35,West,270,0.0,0.0,96,0.04,,---,0.75,VWS V14.01,2013-01-01 18:23:00,
2013-01-01 12:24:00,51.3,50.7,29.29,ENE,68,0.0,0.0,98,0.09,,---,0.92,VWS V14.01,2013-01-01 18:24:00,
2013-01-01 12:25:00,50.4,49.3,29.35,West,270,0.0,0.0,96,0.04,,---,0.75,VWS V14.01,2013-01-01 18:25:00,
2013-01-01 12:26:00,50.4,49.3,29.35,West,270,0.0,0.0,96,0.04,,---,0.75,VWS V14.01,2013-01-01 18:26:00,
2013-01-01 12:27:00,50.4,49.3,29.35,West,270,0.0,0.0,96,0.04,,---,0.75,VWS V14.01,2013-01-01 18:27:00,
2013-01-01 12:28:00,50.4,49.3,29.35,West,270,0.0,0.0,96,0.04,,---,0.75,VWS V14.01,2013-01-01 18:28:00,
2013-01-01 12:29:00,51.3,50.7,29.29,ENE,68,0.0,0.0,98,0.05,,---,0.92,VWS V14.01,2013-01-01 18:29:00,
2013-01-01 12:30:00,50.4,49.3,29.35,West,270,0.0,0.0,96,0.04,,---,0.75,VWS V14.01,2013-01-01 18:30:00,
2013-01-01 12:31:00,50.4,49.3,29.35,West,270,0.0,0.0,96,0.04,,---,0.75,VWS V14.01,2013-01-01 18:31:00,
2013-01-01 12:32:00,50.4,49.3,29.35,WSW,248,0.0,0.0,96,0.04,,---,0.75,VWS V14.01,2013-01-01 18:32:00,
2013-01-01 12:33:00,51.3,50.7,29.29,NNW,338,0.0,0.0,98,0.05,,---,0.92,VWS V14.01,2013-01-01 18:33:00,
2013-01-01 12:34:00,50.4,49.3,29.35,WSW,248,0.0,0.0,96,0.08,,---,0.79,VWS V14.01,2013-01-01 18:34:00,
2013-01-01 12:35:00,50.4,49.3,29.35,WSW,248,0.0,0.0,96,0.08,,---,0.79,VWS V14.01,2013-01-01 18:35:00,
2013-01-01 12:36:00,50.4,49.0,29.35,SSW,202,0.0,0.0,95,0.08,,---,0.79,VWS V14.01,2013-01-01 18:36:00,
2013-01-01 12:37:00,50.4,49.0,29.35,SSW,202,0.0,0.0,95,0.08,,---,0.79,VWS V14.01,2013-01-01 18:37:00,
2013-01-01 12:38:00,51.3,50.7,29.29,NNW,338,0.0,0.0,98,0.05,,---,0.92,VWS V14.01,2013-01-01 18:38:00,
2013-01-01 12:39:00,50.4,49.0,29.35,SSW,202,0.0,0.0,95,0.08,,---,0.79,VWS V14.01,2013-01-01 18:39:00,
2013-01-01 12:40:00,50.4,49.0,29.35,SSW,202,0.0,0.0,95,0.08,,---,0.79,VWS V14.01,2013-01-01 18:40:00,
2013-01-01 12:41:00,50.4,49.0,29.35,SSW,202,0.0,0.0,95,0.08,,---,0.79,VWS V14.01,2013-01-01 18:41:00,
2013-01-01 12:42:00,50.4,49.0,29.35,SSW,202,0.0,0.0,95,0.08,,---,0.79,VWS V14.01,2013-01-01 18:42:00,
2013-01-01 12:43:00,51.3,50.7,29.29,WNW,292,0.0,0.0,98,0.05,,---,0.92,VWS V14.01,2013-01-01 18:43:00,
2013-01-01 12:44:00,50.4,49.0,29.35,SSW,202,0.0,0.0,95,0.08,,---,0.79,VWS V14.01,2013-01-01 18:44:00,
2013-01-01 12:45:00,50.4,49.0,29.35,West,270,0.0,0.0,95,0.04,,---,0.79,VWS V14.01,2013-01-01 18:45:00,
2013-01-01 12:46:00,50.4,49.0,29.35,West,270,0.0,0.0,95,0.04,,---,0.79,VWS V14.01,2013-01-01 18:46:00,
2013-01-01 12:47:00,50.4,49.0,29.35,WSW,248,0.0,0.0,95,0.04,,---,0.79,VWS V14.01,2013-01-01 18:47:00,
2013-01-01 12:48:00,51.3,50.7,29.29,SSW,202,0.0,0.0,98,0.05,,---,0.92,VWS V14.01,2013-01-01 18:48:00,
2013-01-01 12:49:00,50.4,49.0,29.35,WNW,292,0.0,0.0,95,0.04,,---,0.79,VWS V14.01,2013-01-01 18:49:00,
2013-01-01 12:50:00,50.4,49.0,29.35,WNW,292,0.0,0.0,95,0.04,,---,0.79,VWS V14.01,2013-01-01 18:50:00,
2013-01-01 12:51:00,50.4,49.0,29.35,WNW,292,0.0,0.0,95,0.04,,---,0.79,VWS V14.01,2013-01-01 18:51:00,
2013-01-01 12:52:00,50.4,49.0,29.35,WNW,292,0.0,0.0,95,0.04,,---,0.79,VWS V14.01,2013-01-01 18:52:00,
2013-01-01 12:53:00,51.3,50.4,29.32,SSW,202,0.0,0.0,97,0.05,,---,0.92,VWS V14.01,2013-01-01 18:53:00,
2013-01-01 12:54:00,50.4,49.0,29.35,WNW,292,0.0,0.0,95,0.04,,---,0.79,VWS V14.01,2013-01-01 18:54:00,
2013-01-01 12:55:00,50.4,49.0,29.35,WNW,292,0.0,0.0,95,0.04,,---,0.79,VWS V14.01,2013-01-01 18:55:00,
2013-01-01 12:56:00,50.4,49.3,29.35,WNW,292,0.0,0.0,96,0.04,,---,0.79,VWS V14.01,2013-01-01 18:56:00,
2013-01-01 12:57:00,50.4,49.3,29.35,WNW,292,0.0,0.0,96,0.08,,---,0.83,VWS V14.01,2013-01-01 18:57:00,
2013-01-01 12:58:00,51.3,50.4,29.32,SSW,202,0.0,0.0,97,0.05,,---,0.92,VWS V14.01,2013-01-01 18:58:00,
2013-01-01 12:59:00,50.4,49.3,29.35,WNW,292,0.0,0.0,96,0.08,,---,0.83,VWS V14.01,2013-01-01 18:59:00,
2013-01-01 13:00:00,50.4,49.0,29.35,WNW,292,0.0,0.0,95,0.08,,---,0.83,VWS V14.01,2013-01-01 19:00:00,
2013-01-01 13:01:00,50.4,49.0,29.35,WNW,292,0.0,0.0,95,0.08,,---,0.83,VWS V14.01,2013-01-01 19:01:00,
2013-01-01 13:02:00,50.4,49.0,29.35,WNW,292,0.0,0.0,95,0.08,,---,0.83,VWS V14.01,2013-01-01 19:02:00,
2013-01-01 13:03:00,51.3,50.4,29.32,SW,225,0.0,0.0,97,0.00,,---,0.92,VWS V14.01,2013-01-01 19:03:00,
2013-01-01 13:04:00,50.4,49.0,29.35,WNW,292,0.0,0.0,95,0.08,,---,0.83,VWS V14.01,2013-01-01 19:04:00,
2013-01-01 13:05:00,50.4,49.0,29.35,WSW,248,0.0,0.0,95,0.08,,---,0.83,VWS V14.01,2013-01-01 19:05:00,
2013-01-01 13:06:00,50.4,49.3,29.35,WSW,248,0.0,0.0,96,0.08,,---,0.83,VWS V14.01,2013-01-01 19:06:00,
2013-01-01 13:07:00,50.4,49.3,29.35,WSW,248,0.0,0.0,96,0.08,,---,0.83,VWS V14.01,2013-01-01 19:07:00,
2013-01-01 13:08:00,51.3,50.4,29.32,West,270,0.0,0.0,97,0.00,,---,0.92,VWS V14.01,2013-01-01 19:08:00,
2013-01-01 13:09:00,50.4,49.3,29.35,WSW,248,0.0,0.0,96,0.08,,---,0.83,VWS V14.01,2013-01-01 19:09:00,
2013-01-01 13:10:00,50.4,49.3,29.35,WSW,248,0.0,0.0,96,0.08,,---,0.83,VWS V14.01,2013-01-01 19:10:00,
2013-01-01 13:11:00,50.4,49.3,29.35,SW,225,0.0,0.0,96,0.08,,---,0.83,VWS V14.01,2013-01-01 19:11:00,
2013-01-01 13:12:00,50.4,49.3,29.35,WSW,248,0.0,0.0,96,0.08,,---,0.83,VWS V14.01,2013-01-01 19:12:00,
2013-01-01 13:13:00,51.4,50.9,29.32,West,270,0.0,0.0,98,0.04,,---,0.96,VWS V14.01,2013-01-01 19:13:00,
2013-01-01 13:14:00,50.4,49.3,29.35,WSW,248,0.0,0.0,96,0.08,,---,0.83,VWS V14.01,2013-01-01 19:14:00,
2013-01-01 13:15:00,50.4,49.3,29.35,WSW,248,0.0,0.0,96,0.08,,---,0.83,VWS V14.01,2013-01-01 19:15:00,
2013-01-01 13:16:00,50.4,49.3,29.35,WSW,248,0.0,0.0,96,0.08,,---,0.83,VWS V14.01,2013-01-01 19:16:00,
2013-01-01 13:17:00,50.4,49.3,29.35,WSW,248,0.0,0.0,96,0.12,,---,0.87,VWS V14.01,2013-01-01 19:17:00,
2013-01-01 13:18:00,51.4,50.9,29.32,WSW,248,0.0,0.0,98,0.04,,---,0.96,VWS V14.01,2013-01-01 19:18:00,
2013-01-01 13:19:00,50.4,49.3,29.35,West,270,0.0,0.0,96,0.12,,---,0.87,VWS V14.01,2013-01-01 19:19:00,
2013-01-01 13:20:00,50.4,49.3,29.35,SSE,158,0.0,0.0,96,0.12,,---,0.87,VWS V14.01,2013-01-01 19:20:00,
2013-01-01 13:21:00,50.4,49.3,29.35,SSE,158,0.0,0.0,96,0.12,,---,0.87,VWS V14.01,2013-01-01 19:21:00,
2013-01-01 13:22:00,50.4,49.3,29.35,SSE,158,0.0,0.0,96,0.12,,---,0.87,VWS V14.01,2013-01-01 19:22:00,
2013-01-01 13:23:00,51.4,50.9,29.29,WSW,248,0.0,0.0,98,0.04,,---,0.96,VWS V14.01,2013-01-01 19:23:00,
2013-01-01 13:24:00,50.4,49.3,29.35,SSE,158,0.0,0.0,96,0.12,,---,0.87,VWS V14.01,2013-01-01 19:24:00,
2013-01-01 13:25:00,50.4,49.3,29.35,SSE,158,0.0,0.0,96,0.12,,---,0.87,VWS V14.01,2013-01-01 19:25:00,
2013-01-01 13:26:00,50.4,49.3,29.35,SSE,158,0.0,0.0,96,0.12,,---,0.87,VWS V14.01,2013-01-01 19:26:00,
2013-01-01 13:27:00,50.4,49.3,29.35,SSE,158,0.0,0.0,96,0.12,,---,0.87,VWS V14.01,2013-01-01 19:27:00,
2013-01-01 13:28:00,51.3,50.7,29.29,SSE,158,0.0,0.0,98,0.04,,---,0.96,VWS V14.01,2013-01-01 19:28:00,
2013-01-01 13:29:00,50.4,49.3,29.32,SSE,158,0.0,0.0,96,0.12,,---,0.87,VWS V14.01,2013-01-01 19:29:00,
2013-01-01 13:30:00,50.4,49.3,29.32,SSE,158,0.0,0.0,96,0.12,,---,0.87,VWS V14.01,2013-01-01 19:30:00,
2013-01-01 13:31:00,50.5,49.4,29.32,East,90,0.0,0.0,96,0.12,,---,0.87,VWS V14.01,2013-01-01 19:31:00,
2013-01-01 13:32:00,50.5,49.4,29.32,East,90,0.0,0.0,96,0.12,,---,0.87,VWS V14.01,2013-01-01 19:32:00,
2013-01-01 13:33:00,51.3,50.4,29.29,West,270,0.0,0.0,97,0.04,,---,0.96,VWS V14.01,2013-01-01 19:33:00,
2013-01-01 13:34:00,50.5,49.4,29.32,ENE,68,0.0,0.0,96,0.12,,---,0.87,VWS V14.01,2013-01-01 19:34:00,
2013-01-01 13:35:00,50.5,49.4,29.32,ENE,68,0.0,0.0,96,0.08,,---,0.87,VWS V14.01,2013-01-01 19:35:00,
2013-01-01 13:36:00,50.5,49.4,29.32,East,90,0.0,0.0,96,0.08,,---,0.87,VWS V14.01,2013-01-01 19:36:00,
2013-01-01 13:37:00,50.5,49.4,29.32,East,90,0.0,0.0,96,0.08,,---,0.87,VWS V14.01,2013-01-01 19:37:00,
2013-01-01 13:38:00,51.3,50.4,29.29,West,270,0.0,0.0,97,0.04,,---,0.96,VWS V14.01,2013-01-01 19:38:00,
2013-01-01 13:39:00,50.7,49.6,29.32,East,90,0.0,0.0,96,0.08,,---,0.87,VWS V14.01,2013-01-01 19:39:00,
2013-01-01 13:40:00,50.7,49.6,29.32,East,90,0.0,0.0,96,0.08,,---,0.87,VWS V14.01,2013-01-01 19:40:00,
2013-01-01 13:41:00,50.7,49.6,29.32,East,90,0.0,0.0,96,0.08,,---,0.87,VWS V14.01,2013-01-01 19:41:00,
2013-01-01 13:42:00,50.7,49.9,29.32,East,90,0.0,0.0,97,0.08,,---,0.87,VWS V14.01,2013-01-01 19:42:00,
2013-01-01 13:43:00,51.3,50.4,29.29,West,270,0.0,0.0,97,0.04,,---,0.96,VWS V14.01,2013-01-01 19:43:00,
2013-01-01 13:44:00,50.7,49.9,29.32,East,90,0.0,0.0,97,0.08,,---,0.87,VWS V14.01,2013-01-01 19:44:00,
2013-01-01 13:45:00,50.7,49.9,29.32,SW,225,0.0,0.0,97,0.08,,---,0.87,VWS V14.01,2013-01-01 19:45:00,
2013-01-01 13:46:00,50.9,50.1,29.32,WSW,248,0.0,0.0,97,0.08,,---,0.87,VWS V14.01,2013-01-01 19:46:00,
2013-01-01 13:47:00,50.9,50.1,29.32,WSW,248,0.0,0.0,97,0.08,,---,0.87,VWS V14.01,2013-01-01 19:47:00,
2013-01-01 13:48:00,51.4,50.6,29.29,West,270,0.0,0.0,97,0.04,,---,0.96,VWS V14.01,2013-01-01 19:48:00,
2013-01-01 13:49:00,51.1,50.3,29.32,WSW,248,0.0,0.0,97,0.13,,---,0.92,VWS V14.01,2013-01-01 19:49:00,
2013-01-01 13:50:00,51.1,50.5,29.32,SSE,158,0.0,0.0,98,0.13,,---,0.92,VWS V14.01,2013-01-01 19:50:00,
2013-01-01 13:51:00,51.1,50.5,29.32,SSE,158,0.0,0.0,98,0.13,,---,0.92,VWS V14.01,2013-01-01 19:51:00,
2013-01-01 13:52:00,51.1,50.5,29.32,SSE,158,0.0,0.0,98,0.13,,---,0.92,VWS V14.01,2013-01-01 19:52:00,
2013-01-01 13:53:00,51.4,50.9,29.29,West,270,0.0,0.0,98,0.08,,---,1.00,VWS V14.01,2013-01-01 19:53:00,
2013-01-01 13:54:00,51.1,50.5,29.32,SSE,158,0.0,0.0,98,0.13,,---,0.92,VWS V14.01,2013-01-01 19:54:00,
2013-01-01 13:55:00,51.1,50.5,29.32,SSE,158,0.0,0.0,98,0.13,,---,0.92,VWS V14.01,2013-01-01 19:55:00,
2013-01-01 13:56:00,51.1,50.5,29.32,SSE,158,0.0,0.0,98,0.13,,---,0.92,VWS V14.01,2013-01-01 19:56:00,
2013-01-01 13:57:00,51.1,50.5,29.32,SSE,158,0.0,0.0,98,0.13,,---,0.92,VWS V14.01,2013-01-01 19:57:00,
2013-01-01 13:58:00,51.4,50.9,29.29,West,270,0.0,0.0,98,0.08,,---,1.00,VWS V14.01,2013-01-01 19:58:00,
2013-01-01 13:59:00,51.1,50.5,29.32,SSE,158,0.0,0.0,98,0.09,,---,0.92,VWS V14.01,2013-01-01 19:59:00,
2013-01-01 14:00:00,51.1,50.5,29.32,SSE,158,0.0,0.0,98,0.09,,---,0.92,VWS V14.01,2013-01-01 20:00:00,
2013-01-01 14:01:00,51.1,50.5,29.32,SSE,158,0.0,0.0,98,0.09,,---,0.92,VWS V14.01,2013-01-01 20:01:00,
2013-01-01 14:02:00,51.1,50.5,29.32,SSE,158,0.0,0.0,98,0.09,,---,0.92,VWS V14.01,2013-01-01 20:02:00,
2013-01-01 14:03:00,51.4,50.9,29.29,West,270,0.0,0.0,98,0.08,,---,1.00,VWS V14.01,2013-01-01 20:03:00,
2013-01-01 14:04:00,51.1,50.5,29.32,SSE,158,0.0,0.0,98,0.09,,---,0.92,VWS V14.01,2013-01-01 20:04:00,
2013-01-01 14:05:00,51.1,50.5,29.32,ESE,112,0.0,0.0,98,0.09,,---,0.92,VWS V14.01,2013-01-01 20:05:00,
2013-01-01 14:06:00,51.1,50.5,29.32,ESE,112,0.0,0.0,98,0.09,,---,0.92,VWS V14.01,2013-01-01 20:06:00,
2013-01-01 14:07:00,51.1,50.5,29.32,East,90,0.0,0.0,98,0.09,,---,0.92,VWS V14.01,2013-01-01 20:07:00,
2013-01-01 14:08:00,51.4,50.9,29.32,West,270,0.0,0.0,98,0.08,,---,1.00,VWS V14.01,2013-01-01 20:08:00,
2013-01-01 14:09:00,51.1,50.5,29.32,ENE,68,0.0,0.0,98,0.09,,---,0.92,VWS V14.01,2013-01-01 20:09:00,
2013-01-01 14:10:00,51.1,50.5,29.32,ENE,68,0.0,0.0,98,0.09,,---,0.92,VWS V14.01,2013-01-01 20:10:00,
2013-01-01 14:11:00,51.3,50.7,29.32,ENE,68,0.0,0.0,98,0.09,,---,0.92,VWS V14.01,2013-01-01 20:11:00,
2013-01-01 14:12:00,51.3,50.7,29.32,ENE,68,0.0,0.0,98,0.09,,---,0.92,VWS V14.01,2013-01-01 20:12:00,
2013-01-01 14:13:00,51.4,50.9,29.32,West,270,0.0,0.0,98,0.04,,---,1.00,VWS V14.01,2013-01-01 20:13:00,
2013-01-01 14:14:00,51.3,50.7,29.29,ENE,68,0.0,0.0,98,0.09,,---,0.92,VWS V14.01,2013-01-01 20:14:00,
2013-01-01 14:15:00,51.3,50.7,29.29,ENE,68,0.0,0.0,98,0.09,,---,0.92,VWS V14.01,2013-01-01 20:15:00,
2013-01-01 14:16:00,51.3,50.7,29.29,ENE,68,0.0,0.0,98,0.09,,---,0.92,VWS V14.01,2013-01-01 20:16:00,
2013-01-01 14:17:00,51.3,50.7,29.29,ENE,68,0.0,0.0,98,0.09,,---,0.92,VWS V14.01,2013-01-01 20:17:00,
2013-01-01 14:18:00,51.6,51.1,29.32,West,270,0.0,0.0,98,0.04,,---,1.00,VWS V14.01,2013-01-01 20:18:00,
2013-01-01 14:19:00,51.3,50.7,29.29,SW,225,0.0,0.0,98,0.05,,---,0.92,VWS V14.01,2013-01-01 20:19:00,
2013-01-01 14:20:00,51.3,50.7,29.29,WSW,248,0.0,0.0,98,0.05,,---,0.92,VWS V14.01,2013-01-01 20:20:00,
2013-01-01 14:21:00,51.3,50.7,29.29,WSW,248,0.0,0.0,98,0.05,,---,0.92,VWS V14.01,2013-01-01 20:21:00,
2013-01-01 14:22:00,51.3,50.7,29.29,WNW,292,0.0,0.0,98,0.05,,---,0.92,VWS V14.01,2013-01-01 20:22:00,
2013-01-01 14:23:00,51.6,51.1,29.32,West,270,0.0,0.0,98,0.04,,---,1.00,VWS V14.01,2013-01-01 20:23:00,
2013-01-01 14:24:00,51.3,50.7,29.29,NNW,338,0.0,0.0,98,0.05,,---,0.92,VWS V14.01,2013-01-01 20:24:00,
2013-01-01 14:25:00,51.3,50.7,29.29,NNW,338,0.0,0.0,98,0.05,,---,0.92,VWS V14.01,2013-01-01 20:25:00,
2013-01-01 14:26:00,51.3,50.7,29.29,NNW,338,0.0,0.0,98,0.05,,---,0.92,VWS V14.01,2013-01-01 20:26:00,
2013-01-01 14:27:00,51.3,50.7,29.29,NNW,338,0.0,0.0,98,0.05,,---,0.92,VWS V14.01,2013-01-01 20:27:00,
2013-01-01 14:28:00,51.6,51.1,29.32,West,270,0.0,0.0,98,0.04,,---,1.00,VWS V14.01,2013-01-01 20:28:00,
2013-01-01 14:29:00,51.3,50.7,29.29,NNW,338,0.0,0.0,98,0.05,,---,0.92,VWS V14.01,2013-01-01 20:29:00,
2013-01-01 14:30:00,51.3,50.7,29.29,NNW,338,0.0,0.0,98,0.05,,---,0.92,VWS V14.01,2013-01-01 20:30:00,
2013-01-01 14:31:00,51.3,50.7,29.29,NNW,338,0.0,0.0,98,0.05,,---,0.92,VWS V14.01,2013-01-01 20:31:00,
2013-01-01 14:32:00,51.3,50.7,29.29,NNW,338,0.0,0.0,98,0.05,,---,0.92,VWS V14.01,2013-01-01 20:32:00,
2013-01-01 14:33:00,51.6,51.1,29.32,West,270,0.0,0.0,98,0.04,,---,1.00,VWS V14.01,2013-01-01 20:33:00,
2013-01-01 14:34:00,51.3,50.7,29.29,WNW,292,0.0,0.0,98,0.05,,---,0.92,VWS V14.01,2013-01-01 20:34:00,
2013-01-01 14:35:00,51.3,50.7,29.29,West,270,0.0,0.0,98,0.05,,---,0.92,VWS V14.01,2013-01-01 20:35:00,
2013-01-01 14:36:00,51.3,50.7,29.29,SW,225,0.0,0.0,98,0.05,,---,0.92,VWS V14.01,2013-01-01 20:36:00,
2013-01-01 14:37:00,51.3,50.7,29.29,SSW,202,0.0,0.0,98,0.05,,---,0.92,VWS V14.01,2013-01-01 20:37:00,
2013-01-01 14:38:00,51.6,51.1,29.32,West,270,0.0,0.0,98,0.04,,---,1.00,VWS V14.01,2013-01-01 20:38:00,
2013-01-01 14:39:00,51.3,50.7,29.29,SSW,202,0.0,0.0,98,0.05,,---,0.92,VWS V14.01,2013-01-01 20:39:00,
2013-01-01 14:40:00,51.3,50.7,29.29,SSW,202,0.0,0.0,98,0.05,,---,0.92,VWS V14.01,2013-01-01 20:40:00,
2013-01-01 14:41:00,51.3,50.7,29.29,SSW,202,0.0,0.0,98,0.05,,---,0.92,VWS V14.01,2013-01-01 20:41:00,
2013-01-01 14:42:00,51.3,50.4,29.29,SSW,202,0.0,0.0,97,0.05,,---,0.92,VWS V14.01,2013-01-01 20:42:00,
2013-01-01 14:43:00,51.6,51.1,29.32,West,270,0.0,0.0,98,0.04,,---,1.00,VWS V14.01,2013-01-01 20:43:00,
2013-01-01 14:44:00,51.3,50.4,29.32,SSW,202,0.0,0.0,97,0.05,,---,0.92,VWS V14.01,2013-01-01 20:44:00,
2013-01-01 14:45:00,51.3,50.4,29.32,SSW,202,0.0,0.0,97,0.05,,---,0.92,VWS V14.01,2013-01-01 20:45:00,
2013-01-01 14:46:00,51.3,50.4,29.32,SSW,202,0.0,0.0,97,0.05,,---,0.92,VWS V14.01,2013-01-01 20:46:00,
2013-01-01 14:47:00,51.3,50.4,29.32,SSW,202,0.0,0.0,97,0.05,,---,0.92,VWS V14.01,2013-01-01 20:47:00,
2013-01-01 14:48:00,51.6,51.1,29.32,West,270,0.0,0.0,98,0.04,,---,1.00,VWS V14.01,2013-01-01 20:48:00,
2013-01-01 14:49:00,51.3,50.4,29.32,SSW,202,0.0,0.0,97,0.05,,---,0.92,VWS V14.01,2013-01-01 20:49:00,
2013-01-01 14:50:00,51.3,50.4,29.32,WSW,248,0.0,0.0,97,0.00,,---,0.92,VWS V14.01,2013-01-01 20:50:00,
2013-01-01 14:51:00,51.3,50.4,29.32,WSW,248,0.0,0.0,97,0.00,,---,0.92,VWS V14.01,2013-01-01 20:51:00,
2013-01-01 14:52:00,51.3,50.4,29.32,WSW,248,0.0,0.0,97,0.00,,---,0.92,VWS V14.01,2013-01-01 20:52:00,
2013-01-01 14:53:00,51.4,50.9,29.32,West,270,0.0,0.0,98,0.00,,---,1.00,VWS V14.01,2013-01-01 20:53:00,
2013-01-01 14:54:00,51.3,50.4,29.32,SW,225,0.0,0.0,97,0.00,,---,0.92,VWS V14.01,2013-01-01 20:54:00,
2013-01-01 14:55:00,51.3,50.4,29.32,SW,225,0.0,0.0,97,0.00,,---,0.92,VWS V14.01,2013-01-01 20:55:00,
2013-01-01 14:56:00,51.3,50.4,29.32,West,270,0.0,0.0,97,0.00,,---,0.92,VWS V14.01,2013-01-01 20:56:00,
2013-01-01 14:57:00,51.3,50.4,29.32,West,270,0.0,0.0,97,0.00,,---,0.92,VWS V14.01,2013-01-01 20:57:00,
2013-01-01 14:58:00,51.4,50.9,29.32,WNW,292,0.0,0.0,98,0.00,,---,1.00,VWS V14.01,2013-01-01 20:58:00,
2013-01-01 14:59:00,51.3,50.4,29.32,West,270,0.0,0.0,97,0.00,,---,0.92,VWS V14.01,2013-01-01 20:59:00,
2013-01-01 15:00:00,51.4,50.6,29.32,West,270,0.0,0.0,97,0.00,,---,0.92,VWS V14.01,2013-01-01 21:00:00,
2013-01-01 15:01:00,51.4,50.9,29.32,West,270,0.0,0.0,98,0.00,,---,0.92,VWS V14.01,2013-01-01 21:01:00,
2013-01-01 15:02:00,51.4,50.9,29.32,West,270,0.0,0.0,98,0.00,,---,0.92,VWS V14.01,2013-01-01 21:02:00,
2013-01-01 15:03:00,50.9,50.1,29.32,WNW,292,0.0,0.0,97,0.00,,---,1.00,VWS V14.01,2013-01-01 21:03:00,
2013-01-01 15:04:00,51.4,50.9,29.32,West,270,0.0,0.0,98,0.04,,---,0.96,VWS V14.01,2013-01-01 21:04:00,
2013-01-01 15:05:00,51.4,50.9,29.32,SSW,202,0.0,0.0,98,0.04,,---,0.96,VWS V14.01,2013-01-01 21:05:00,
2013-01-01 15:06:00,51.4,50.9,29.32,SSW,202,0.0,0.0,98,0.04,,---,0.96,VWS V14.01,2013-01-01 21:06:00,
2013-01-01 15:07:00,51.4,50.9,29.32,SSW,202,0.0,0.0,98,0.04,,---,0.96,VWS V14.01,2013-01-01 21:07:00,
2013-01-01 15:08:00,50.4,49.0,29.32,WNW,292,0.0,0.0,95,0.00,,---,1.00,VWS V14.01,2013-01-01 21:08:00,
2013-01-01 15:09:00,51.4,50.9,29.32,WSW,248,0.0,0.0,98,0.04,,---,0.96,VWS V14.01,2013-01-01 21:09:00,
2013-01-01 15:10:00,51.3,50.7,29.32,WSW,248,0.0,0.0,98,0.04,,---,0.96,VWS V14.01,2013-01-01 21:10:00,
2013-01-01 15:11:00,51.4,50.9,29.32,WSW,248,0.0,0.0,98,0.04,,---,0.96,VWS V14.01,2013-01-01 21:11:00,
2013-01-01 15:12:00,51.4,50.9,29.32,WSW,248,0.0,0.0,98,0.04,,---,0.96,VWS V14.01,2013-01-01 21:12:00,
2013-01-01 15:13:00,50.2,48.5,29.32,WNW,292,0.0,0.0,94,0.00,,---,1.00,VWS V14.01,2013-01-01 21:13:00,
2013-01-01 15:14:00,51.4,50.9,29.29,SSE,158,0.0,0.0,98,0.04,,---,0.96,VWS V14.01,2013-01-01 21:14:00,
2013-01-01 15:15:00,51.4,50.9,29.29,SSE,158,0.0,0.0,98,0.04,,---,0.96,VWS V14.01,2013-01-01 21:15:00,
2013-01-01 15:16:00,51.4,50.9,29.29,SSE,158,0.0,0.0,98,0.04,,---,0.96,VWS V14.01,2013-01-01 21:16:00,
2013-01-01 15:17:00,51.4,50.9,29.29,SSE,158,0.0,0.0,98,0.04,,---,0.96,VWS V14.01,2013-01-01 21:17:00,
2013-01-01 15:18:00,49.8,47.9,29.32,NE,45,0.0,0.0,93,0.00,,---,1.00,VWS V14.01,2013-01-01 21:18:00,
2013-01-01 15:19:00,51.3,50.7,29.29,South,180,0.0,0.0,98,0.04,,---,0.96,VWS V14.01,2013-01-01 21:19:00,
2013-01-01 15:20:00,51.3,50.4,29.29,West,270,0.0,0.0,97,0.04,,---,0.96,VWS V14.01,2013-01-01 21:20:00,
2013-01-01 15:21:00,51.3,50.4,29.29,West,270,0.0,0.0,97,0.04,,---,0.96,VWS V14.01,2013-01-01 21:21:00,
2013-01-01 15:22:00,51.3,50.4,29.29,West,270,0.0,0.0,97,0.04,,---,0.96,VWS V14.01,2013-01-01 21:22:00,
2013-01-01 15:23:00,49.5,47.2,29.32,NNE,22,0.0,0.0,92,0.00,,---,1.00,VWS V14.01,2013-01-01 21:23:00,
2013-01-01 15:24:00,51.3,50.4,29.29,West,270,0.0,0.0,97,0.04,,---,0.96,VWS V14.01,2013-01-01 21:24:00,
2013-01-01 15:25:00,51.3,50.4,29.29,West,270,0.0,0.0,97,0.04,,---,0.96,VWS V14.01,2013-01-01 21:25:00,
2013-01-01 15:26:00,51.3,50.4,29.29,West,270,0.0,0.0,97,0.04,,---,0.96,VWS V14.01,2013-01-01 21:26:00,
2013-01-01 15:27:00,51.3,50.4,29.29,West,270,0.0,0.0,97,0.04,,---,0.96,VWS V14.01,2013-01-01 21:27:00,
2013-01-01 15:28:00,49.1,46.6,29.32,NNW,338,0.0,0.0,91,0.00,,---,1.00,VWS V14.01,2013-01-01 21:28:00,
2013-01-01 15:29:00,51.3,50.4,29.29,West,270,0.0,0.0,97,0.04,,---,0.96,VWS V14.01,2013-01-01 21:29:00,
2013-01-01 15:30:00,51.3,50.4,29.29,West,270,0.0,0.0,97,0.04,,---,0.96,VWS V14.01,2013-01-01 21:30:00,
2013-01-01 15:31:00,51.3,50.4,29.29,West,270,0.0,0.0,97,0.04,,---,0.96,VWS V14.01,2013-01-01 21:31:00,
2013-01-01 15:32:00,51.3,50.4,29.29,West,270,0.0,0.0,97,0.04,,---,0.96,VWS V14.01,2013-01-01 21:32:00,
2013-01-01 15:33:00,48.4,45.3,29.32,NNE,22,0.0,0.0,89,0.00,,---,1.00,VWS V14.01,2013-01-01 21:33:00,
2013-01-01 15:34:00,51.3,50.4,29.29,West,270,0.0,0.0,97,0.04,,---,0.96,VWS V14.01,2013-01-01 21:34:00,
2013-01-01 15:35:00,51.3,50.4,29.29,West,270,0.0,0.0,97,0.04,,---,0.96,VWS V14.01,2013-01-01 21:35:00,
2013-01-01 15:36:00,51.4,50.6,29.29,West,270,0.0,0.0,97,0.04,,---,0.96,VWS V14.01,2013-01-01 21:36:00,
2013-01-01 15:37:00,51.4,50.6,29.29,West,270,0.0,0.0,97,0.04,,---,0.96,VWS V14.01,2013-01-01 21:37:00,
2013-01-01 15:38:00,48.0,44.6,29.32,NW,315,0.0,0.0,88,0.04,,---,1.04,VWS V14.01,2013-01-01 21:38:00,
2013-01-01 15:39:00,51.4,50.6,29.29,West,270,0.0,0.0,97,0.04,,---,0.96,VWS V14.01,2013-01-01 21:39:00,
2013-01-01 15:40:00,51.4,50.6,29.29,West,270,0.0,0.0,97,0.04,,---,0.96,VWS V14.01,2013-01-01 21:40:00,
2013-01-01 15:41:00,51.4,50.6,29.29,West,270,0.0,0.0,97,0.04,,---,0.96,VWS V14.01,2013-01-01 21:41:00,
2013-01-01 15:42:00,51.4,50.9,29.29,West,270,0.0,0.0,98,0.04,,---,0.96,VWS V14.01,2013-01-01 21:42:00,
2013-01-01 15:43:00,47.7,44.3,29.32,NE,45,0.0,0.0,88,0.04,,---,1.04,VWS V14.01,2013-01-01 21:43:00,
2013-01-01 15:44:00,51.4,50.9,29.29,West,270,0.0,0.0,98,0.08,,---,1.00,VWS V14.01,2013-01-01 21:44:00,
2013-01-01 15:45:00,51.4,50.9,29.29,West,270,0.0,0.0,98,0.08,,---,1.00,VWS V14.01,2013-01-01 21:45:00,
2013-01-01 15:46:00,51.4,50.9,29.29,West,270,0.0,0.0,98,0.08,,---,1.00,VWS V14.01,2013-01-01 21:46:00,
2013-01-01 15:47:00,51.4,50.9,29.29,West,270,0.0,0.0,98,0.08,,---,1.00,VWS V14.01,2013-01-01 21:47:00,
2013-01-01 15:48:00,47.5,44.1,29.32,NNE,22,0.0,0.0,88,0.04,,---,1.04,VWS V14.01,2013-01-01 21:48:00,
2013-01-01 15:49:00,51.4,50.9,29.29,West,270,0.0,0.0,98,0.08,,---,1.00,VWS V14.01,2013-01-01 21:49:00,
2013-01-01 15:50:00,51.4,50.9,29.29,West,270,0.0,0.0,98,0.08,,---,1.00,VWS V14.01,2013-01-01 21:50:00,
2013-01-01 15:51:00,51.4,50.9,29.29,West,270,0.0,0.0,98,0.08,,---,1.00,VWS V14.01,2013-01-01 21:51:00,
2013-01-01 15:52:00,51.4,50.9,29.29,West,270,0.0,0.0,98,0.08,,---,1.00,VWS V14.01,2013-01-01 21:52:00,
2013-01-01 15:53:00,47.3,44.2,29.32,ENE,68,0.0,2.7,89,0.04,,---,1.04,VWS V14.01,2013-01-01 21:53:00,
2013-01-01 15:54:00,51.4,50.9,29.29,West,270,0.0,0.0,98,0.08,,---,1.00,VWS V14.01,2013-01-01 21:54:00,
2013-01-01 15:55:00,51.4,50.9,29.29,West,270,0.0,0.0,98,0.08,,---,1.00,VWS V14.01,2013-01-01 21:55:00,
2013-01-01 15:56:00,51.4,50.9,29.29,West,270,0.0,0.0,98,0.08,,---,1.00,VWS V14.01,2013-01-01 21:56:00,
2013-01-01 15:57:00,51.4,50.9,29.29,West,270,0.0,0.0,98,0.08,,---,1.00,VWS V14.01,2013-01-01 21:57:00,
2013-01-01 15:58:00,46.9,43.9,29.32,NE,45,0.0,0.0,89,0.04,,---,1.04,VWS V14.01,2013-01-01 21:58:00,
2013-01-01 15:59:00,51.4,50.9,29.32,West,270,0.0,0.0,98,0.08,,---,1.00,VWS V14.01,2013-01-01 21:59:00,
2013-01-01 16:00:00,51.4,50.9,29.32,West,270,0.0,0.0,98,0.08,,---,1.00,VWS V14.01,2013-01-01 22:00:00,
2013-01-01 16:01:00,51.4,50.9,29.32,West,270,0.0,0.0,98,0.08,,---,1.00,VWS V14.01,2013-01-01 22:01:00,
2013-01-01 16:02:00,51.4,50.9,29.32,West,270,0.0,0.0,98,0.08,,---,1.00,VWS V14.01,2013-01-01 22:02:00,
2013-01-01 16:03:00,46.8,43.7,29.32,ENE,68,0.0,0.0,89,0.04,,---,0.21,VWS V14.01,2013-01-01 22:03:00,
2013-01-01 16:04:00,51.4,50.9,29.32,West,270,0.0,0.0,98,0.04,,---,1.00,VWS V14.01,2013-01-01 22:04:00,
2013-01-01 16:05:00,51.4,50.9,29.32,West,270,0.0,0.0,98,0.04,,---,1.00,VWS V14.01,2013-01-01 22:05:00,
2013-01-01 16:06:00,51.4,50.9,29.32,West,270,0.0,0.0,98,0.04,,---,1.00,VWS V14.01,2013-01-01 22:06:00,
2013-01-01 16:07:00,51.4,50.9,29.32,West,270,0.0,0.0,98,0.04,,---,1.00,VWS V14.01,2013-01-01 22:07:00,
2013-01-01 16:08:00,46.6,43.5,29.32,ENE,68,0.0,0.0,89,0.04,,---,1.04,VWS V14.01,2013-01-01 22:08:00,
2013-01-01 16:09:00,51.6,51.1,29.32,West,270,0.0,0.0,98,0.04,,---,1.00,VWS V14.01,2013-01-01 22:09:00,
2013-01-01 16:10:00,51.6,51.1,29.32,West,270,0.0,0.0,98,0.04,,---,1.00,VWS V14.01,2013-01-01 22:10:00,
2013-01-01 16:11:00,51.6,51.1,29.32,West,270,0.0,0.0,98,0.04,,---,1.00,VWS V14.01,2013-01-01 22:11:00,
2013-01-01 16:12:00,51.6,51.1,29.32,West,270,0.0,0.0,98,0.04,,---,1.00,VWS V14.01,2013-01-01 22:12:00,
2013-01-01 16:13:00,46.4,43.3,29.32,NNE,22,0.0,0.0,89,0.04,,---,1.04,VWS V14.01,2013-01-01 22:13:00,
2013-01-01 16:14:00,51.6,51.1,29.32,West,270,0.0,0.0,98,0.04,,---,1.00,VWS V14.01,2013-01-01 22:14:00,
2013-01-01 16:15:00,51.6,51.1,29.32,West,270,0.0,0.0,98,0.04,,---,1.00,VWS V14.01,2013-01-01 22:15:00,
2013-01-01 16:16:00,51.6,51.1,29.32,West,270,0.0,0.0,98,0.04,,---,1.00,VWS V14.01,2013-01-01 22:16:00,
2013-01-01 16:17:00,51.6,51.1,29.32,West,270,0.0,0.0,98,0.04,,---,1.00,VWS V14.01,2013-01-01 22:17:00,
2013-01-01 16:18:00,46.4,43.6,29.32,NE,45,0.0,0.9,90,0.04,,---,1.04,VWS V14.01,2013-01-01 22:18:00,
2013-01-01 16:19:00,51.6,51.1,29.32,West,270,0.0,0.0,98,0.04,,---,1.00,VWS V14.01,2013-01-01 22:19:00,
2013-01-01 16:20:00,51.6,51.1,29.32,West,270,0.0,0.0,98,0.04,,---,1.00,VWS V14.01,2013-01-01 22:20:00,
2013-01-01 16:21:00,51.6,51.1,29.32,West,270,0.0,0.0,98,0.04,,---,1.00,VWS V14.01,2013-01-01 22:21:00,
2013-01-01 16:22:00,51.6,51.1,29.32,West,270,0.0,0.0,98,0.04,,---,1.00,VWS V14.01,2013-01-01 22:22:00,
2013-01-01 16:23:00,46.2,43.5,29.32,NW,315,0.0,0.0,90,0.04,,---,1.04,VWS V14.01,2013-01-01 22:23:00,
2013-01-01 16:24:00,51.6,51.1,29.32,West,270,0.0,0.0,98,0.04,,---,1.00,VWS V14.01,2013-01-01 22:24:00,
2013-01-01 16:25:00,51.6,51.1,29.32,West,270,0.0,0.0,98,0.04,,---,1.00,VWS V14.01,2013-01-01 22:25:00,
2013-01-01 16:26:00,51.6,51.1,29.32,West,270,0.0,0.0,98,0.04,,---,1.00,VWS V14.01,2013-01-01 22:26:00,
2013-01-01 16:27:00,51.6,51.1,29.32,West,270,0.0,0.0,98,0.04,,---,1.00,VWS V14.01,2013-01-01 22:27:00,
2013-01-01 16:28:00,46.0,43.3,29.32,ENE,68,0.0,0.0,90,0.04,,---,1.04,VWS V14.01,2013-01-01 22:28:00,
2013-01-01 16:29:00,51.6,51.1,29.32,West,270,0.0,0.0,98,0.04,,---,1.00,VWS V14.01,2013-01-01 22:29:00,
2013-01-01 16:30:00,51.6,51.1,29.32,West,270,0.0,0.0,98,0.04,,---,1.00,VWS V14.01,2013-01-01 22:30:00,
2013-01-01 16:31:00,51.6,51.1,29.32,West,270,0.0,0.0,98,0.04,,---,1.00,VWS V14.01,2013-01-01 22:31:00,
2013-01-01 16:32:00,51.6,51.1,29.32,West,270,0.0,0.0,98,0.04,,---,1.00,VWS V14.01,2013-01-01 22:32:00,
2013-01-01 16:33:00,45.9,43.1,29.32,ENE,68,0.0,0.0,90,0.04,,---,1.04,VWS V14.01,2013-01-01 22:33:00,
2013-01-01 16:34:00,51.6,51.1,29.32,West,270,0.0,0.0,98,0.04,,---,1.00,VWS V14.01,2013-01-01 22:34:00,
2013-01-01 16:35:00,51.6,51.1,29.32,West,270,0.0,0.0,98,0.04,,---,1.00,VWS V14.01,2013-01-01 22:35:00,
2013-01-01 16:36:00,51.6,51.1,29.32,West,270,0.0,0.0,98,0.04,,---,1.00,VWS V14.01,2013-01-01 22:36:00,
2013-01-01 16:37:00,51.6,51.1,29.32,West,270,0.0,0.0,98,0.04,,---,1.00,VWS V14.01,2013-01-01 22:37:00,
2013-01-01 16:38:00,45.9,43.1,29.32,NNE,22,0.0,0.0,90,0.00,,---,1.04,VWS V14.01,2013-01-01 22:38:00,
2013-01-01 16:39:00,51.6,51.1,29.32,West,270,0.0,0.0,98,0.04,,---,1.00,VWS V14.01,2013-01-01 22:39:00,
2013-01-01 16:40:00,51.4,50.9,29.32,West,270,0.0,0.0,98,0.04,,---,1.00,VWS V14.01,2013-01-01 22:40:00,
2013-01-01 16:41:00,51.4,50.9,29.32,West,270,0.0,0.0,98,0.04,,---,1.00,VWS V14.01,2013-01-01 22:41:00,
2013-01-01 16:42:00,51.4,50.9,29.32,West,270,0.0,0.0,98,0.04,,---,1.00,VWS V14.01,2013-01-01 22:42:00,
2013-01-01 16:43:00,45.5,42.7,29.32,NE,45,0.0,0.0,90,0.00,,---,1.04,VWS V14.01,2013-01-01 22:43:00,
2013-01-01 16:44:00,51.4,50.9,29.32,West,270,0.0,0.0,98,0.00,,---,1.00,VWS V14.01,2013-01-01 22:44:00,
2013-01-01 16:45:00,51.4,50.9,29.32,West,270,0.0,0.0,98,0.00,,---,1.00,VWS V14.01,2013-01-01 22:45:00,
2013-01-01 16:46:00,51.4,50.9,29.32,West,270,0.0,0.0,98,0.00,,---,1.00,VWS V14.01,2013-01-01 22:46:00,
2013-01-01 16:47:00,51.4,50.9,29.32,WNW,292,0.0,0.0,98,0.00,,---,1.00,VWS V14.01,2013-01-01 22:47:00,
2013-01-01 16:48:00,45.3,42.6,29.32,ENE,68,0.0,0.0,90,0.00,,---,1.04,VWS V14.01,2013-01-01 22:48:00,
2013-01-01 16:49:00,51.3,50.7,29.32,WNW,292,0.0,0.0,98,0.00,,---,1.00,VWS V14.01,2013-01-01 22:49:00,
2013-01-01 16:50:00,51.3,50.4,29.32,WNW,292,0.0,0.0,97,0.00,,---,1.00,VWS V14.01,2013-01-01 22:50:00,
2013-01-01 16:51:00,51.1,50.3,29.32,WNW,292,0.0,0.0,97,0.00,,---,1.00,VWS V14.01,2013-01-01 22:51:00,
2013-01-01 16:52:00,50.9,50.1,29.32,WNW,292,0.0,0.0,97,0.00,,---,1.00,VWS V14.01,2013-01-01 22:52:00,
2013-01-01 16:53:00,45.3,42.6,29.32,NNE,22,0.0,0.0,90,0.00,,---,1.04,VWS V14.01,2013-01-01 22:53:00,
2013-01-01 16:54:00,50.9,49.8,29.32,WNW,292,0.0,0.0,96,0.00,,---,1.00,VWS V14.01,2013-01-01 22:54:00,
2013-01-01 16:55:00,50.7,49.6,29.32,WNW,292,0.0,0.0,96,0.00,,---,1.00,VWS V14.01,2013-01-01 22:55:00,
2013-01-01 16:56:00,50.7,49.6,29.32,WNW,292,0.0,0.0,96,0.00,,---,1.00,VWS V14.01,2013-01-01 22:56:00,
2013-01-01 16:57:00,50.5,49.4,29.32,WNW,292,0.0,0.0,96,0.00,,---,1.00,VWS V14.01,2013-01-01 22:57:00,
2013-01-01 16:58:00,45.1,42.4,29.32,ENE,68,0.0,0.0,90,0.00,,---,1.04,VWS V14.01,2013-01-01 22:58:00,
2013-01-01 16:59:00,50.4,49.0,29.32,WNW,292,0.0,0.0,95,0.00,,---,1.00,VWS V14.01,2013-01-01 22:59:00,
2013-01-01 17:00:00,50.2,48.5,29.32,WNW,292,0.0,0.0,94,0.00,,---,1.00,VWS V14.01,2013-01-01 23:00:00,
2013-01-01 17:01:00,50.2,48.5,29.32,WNW,292,0.0,0.0,94,0.00,,---,1.00,VWS V14.01,2013-01-01 23:01:00,
2013-01-01 17:02:00,50.2,48.5,29.32,WNW,292,0.0,0.0,94,0.00,,---,1.00,VWS V14.01,2013-01-01 23:02:00,
2013-01-01 17:03:00,45.0,42.2,29.32,ENE,68,0.0,2.5,90,0.00,,---,1.04,VWS V14.01,2013-01-01 23:03:00,
2013-01-01 17:04:00,50.0,48.1,29.32,WNW,292,0.0,0.0,93,0.00,,---,1.00,VWS V14.01,2013-01-01 23:04:00,
2013-01-01 17:05:00,50.0,48.1,29.32,WNW,292,0.0,0.0,93,0.00,,---,1.00,VWS V14.01,2013-01-01 23:05:00,
2013-01-01 17:06:00,50.0,48.1,29.32,WNW,292,0.0,0.0,93,0.00,,---,1.00,VWS V14.01,2013-01-01 23:06:00,
2013-01-01 17:07:00,49.8,47.9,29.32,NNW,338,0.0,0.0,93,0.00,,---,1.00,VWS V14.01,2013-01-01 23:07:00,
2013-01-01 17:08:00,44.6,41.8,29.32,East,90,0.0,0.0,90,0.04,,---,1.08,VWS V14.01,2013-01-01 23:08:00,
2013-01-01 17:09:00,49.8,47.9,29.32,NE,45,0.0,0.0,93,0.00,,---,1.00,VWS V14.01,2013-01-01 23:09:00,
2013-01-01 17:10:00,49.8,47.9,29.32,NE,45,0.0,0.0,93,0.00,,---,1.00,VWS V14.01,2013-01-01 23:10:00,
2013-01-01 17:11:00,49.6,47.4,29.32,NE,45,0.0,0.0,92,0.00,,---,1.00,VWS V14.01,2013-01-01 23:11:00,
2013-01-01 17:12:00,49.6,47.4,29.32,NNE,22,0.0,0.0,92,0.00,,---,1.00,VWS V14.01,2013-01-01 23:12:00,
2013-01-01 17:13:00,44.4,41.7,29.32,ENE,68,0.0,0.0,90,0.04,,---,1.08,VWS V14.01,2013-01-01 23:13:00,
2013-01-01 17:14:00,49.3,47.1,29.32,North,0,0.0,0.0,92,0.00,,---,1.00,VWS V14.01,2013-01-01 23:14:00,
2013-01-01 17:15:00,49.3,47.1,29.32,NNE,22,0.0,0.0,92,0.00,,---,1.00,VWS V14.01,2013-01-01 23:15:00,
2013-01-01 17:16:00,49.3,47.1,29.32,NNE,22,0.0,0.0,92,0.00,,---,1.00,VWS V14.01,2013-01-01 23:16:00,
2013-01-01 17:17:00,49.1,46.6,29.32,North,0,0.0,0.0,91,0.00,,---,1.00,VWS V14.01,2013-01-01 23:17:00,
2013-01-01 17:18:00,44.2,41.5,29.32,ENE,68,0.0,1.6,90,0.04,,---,1.08,VWS V14.01,2013-01-01 23:18:00,
2013-01-01 17:19:00,48.9,46.4,29.32,NNW,338,0.0,0.0,91,0.00,,---,1.00,VWS V14.01,2013-01-01 23:19:00,
2013-01-01 17:20:00,48.7,46.2,29.32,NNW,338,0.0,0.0,91,0.00,,---,1.00,VWS V14.01,2013-01-01 23:20:00,
2013-01-01 17:21:00,48.6,45.8,29.32,NNE,22,0.0,0.0,90,0.00,,---,1.00,VWS V14.01,2013-01-01 23:21:00,
2013-01-01 17:22:00,48.6,45.8,29.32,North,0,0.0,0.0,90,0.00,,---,1.00,VWS V14.01,2013-01-01 23:22:00,
2013-01-01 17:23:00,44.1,41.3,29.35,ENE,68,0.0,0.0,90,0.04,,---,1.08,VWS V14.01,2013-01-01 23:23:00,
2013-01-01 17:24:00,48.4,45.3,29.32,NNE,22,0.0,0.0,89,0.00,,---,1.00,VWS V14.01,2013-01-01 23:24:00,
2013-01-01 17:25:00,48.2,45.1,29.32,NNE,22,0.0,0.0,89,0.00,,---,1.00,VWS V14.01,2013-01-01 23:25:00,
2013-01-01 17:26:00,48.2,45.1,29.32,NNE,22,0.0,0.0,89,0.04,,---,1.04,VWS V14.01,2013-01-01 23:26:00,
2013-01-01 17:27:00,48.0,44.6,29.32,NW,315,0.0,0.0,88,0.04,,---,1.04,VWS V14.01,2013-01-01 23:27:00,
2013-01-01 17:28:00,44.1,41.3,29.35,NE,45,0.0,0.0,90,0.04,,---,1.08,VWS V14.01,2013-01-01 23:28:00,
2013-01-01 17:29:00,47.8,44.5,29.32,NW,315,0.0,0.0,88,0.04,,---,1.04,VWS V14.01,2013-01-01 23:29:00,
2013-01-01 17:30:00,47.8,44.5,29.32,NW,315,0.0,0.0,88,0.04,,---,1.04,VWS V14.01,2013-01-01 23:30:00,
2013-01-01 17:31:00,47.7,44.3,29.32,ENE,68,0.0,0.0,88,0.04,,---,1.04,VWS V14.01,2013-01-01 23:31:00,
2013-01-01 17:32:00,47.7,44.3,29.32,North,0,0.0,0.0,88,0.04,,---,1.04,VWS V14.01,2013-01-01 23:32:00,
2013-01-01 17:33:00,43.9,41.1,29.35,ENE,68,0.0,0.0,90,0.04,,---,1.08,VWS V14.01,2013-01-01 23:33:00,
2013-01-01 17:34:00,47.7,44.3,29.32,NNE,22,0.0,0.0,88,0.04,,---,1.04,VWS V14.01,2013-01-01 23:34:00,
2013-01-01 17:35:00,47.5,44.1,29.32,NNE,22,0.0,0.0,88,0.04,,---,1.04,VWS V14.01,2013-01-01 23:35:00,
2013-01-01 17:36:00,47.5,44.1,29.32,NNE,22,0.0,0.0,88,0.04,,---,1.04,VWS V14.01,2013-01-01 23:36:00,
2013-01-01 17:37:00,47.5,44.1,29.32,NNE,22,0.0,0.0,88,0.04,,---,1.04,VWS V14.01,2013-01-01 23:37:00,
2013-01-01 17:38:00,43.7,41.0,29.35,NE,45,0.0,0.0,90,0.04,,---,1.08,VWS V14.01,2013-01-01 23:38:00,
2013-01-01 17:39:00,47.3,43.9,29.32,NE,45,0.0,0.0,88,0.04,,---,1.04,VWS V14.01,2013-01-01 23:39:00,
2013-01-01 17:40:00,47.3,43.9,29.32,NE,45,0.0,0.0,88,0.04,,---,1.04,VWS V14.01,2013-01-01 23:40:00,
2013-01-01 17:41:00,47.3,43.9,29.32,ESE,112,2.7,2.7,88,0.04,,---,1.04,VWS V14.01,2013-01-01 23:41:00,
2013-01-01 17:42:00,47.3,44.2,29.32,NE,45,2.7,2.7,89,0.04,,---,1.04,VWS V14.01,2013-01-01 23:42:00,
2013-01-01 17:43:00,43.7,41.2,29.35,NE,45,0.0,0.0,91,0.04,,---,1.08,VWS V14.01,2013-01-01 23:43:00,
2013-01-01 17:44:00,47.1,43.8,29.32,ENE,68,0.0,0.0,88,0.04,,---,1.04,VWS V14.01,2013-01-01 23:44:00,
2013-01-01 17:45:00,47.1,43.8,29.32,North,0,0.0,0.0,88,0.04,,---,1.04,VWS V14.01,2013-01-01 23:45:00,
2013-01-01 17:46:00,47.1,44.0,29.32,NNE,22,0.0,0.0,89,0.04,,---,1.04,VWS V14.01,2013-01-01 23:46:00,
2013-01-01 17:47:00,46.9,43.9,29.32,NE,45,0.0,0.0,89,0.04,,---,1.04,VWS V14.01,2013-01-01 23:47:00,
2013-01-01 17:48:00,43.5,41.1,29.35,NNE,22,0.0,0.0,91,0.04,,---,1.08,VWS V14.01,2013-01-01 23:48:00,
2013-01-01 17:49:00,46.9,43.9,29.32,NNE,22,0.0,0.0,89,0.04,,---,1.04,VWS V14.01,2013-01-01 23:49:00,
2013-01-01 17:50:00,46.9,43.9,29.32,NE,45,0.0,0.0,89,0.04,,---,1.04,VWS V14.01,2013-01-01 23:50:00,
2013-01-01 17:51:00,46.9,43.9,29.32,ENE,68,0.0,0.0,89,0.04,,---,1.04,VWS V14.01,2013-01-01 23:51:00,
2013-01-01 17:52:00,46.8,43.7,29.32,East,90,0.0,0.0,89,0.04,,---,1.04,VWS V14.01,2013-01-01 23:52:00,
2013-01-01 17:53:00,43.5,41.1,29.35,ENE,68,0.0,0.0,91,0.04,,---,1.08,VWS V14.01,2013-01-01 23:53:00,
2013-01-01 17:54:00,46.8,43.7,29.32,ENE,68,0.0,0.0,89,0.04,,---,1.04,VWS V14.01,2013-01-01 23:54:00,
2013-01-01 17:55:00,46.8,43.7,29.32,NNE,22,0.0,0.0,89,0.04,,---,1.04,VWS V14.01,2013-01-01 23:55:00,
2013-01-01 17:56:00,46.8,43.7,29.32,ENE,68,0.0,0.0,89,0.04,,---,1.04,VWS V14.01,2013-01-01 23:56:00,
2013-01-01 17:57:00,46.6,43.5,29.32,ENE,68,0.0,2.0,89,0.04,,---,1.04,VWS V14.01,2013-01-01 23:57:00,
2013-01-01 17:58:00,43.3,40.9,29.35,East,90,0.0,0.0,91,0.04,,---,1.08,VWS V14.01,2013-01-01 23:58:00,
2013-01-01 17:59:00,46.6,43.5,29.32,ENE,68,0.0,0.0,89,0.04,,---,1.04,VWS V14.01,2013-01-01 23:59:00,
2013-01-01 18:00:00,46.6,43.5,29.32,ENE,68,0.0,0.0,89,0.04,,---,1.04,VWS V14.01,2013-01-02 00:00:00,
2013-01-01 18:01:00,46.6,43.5,29.32,ENE,68,0.0,0.0,89,0.04,,---,1.04,VWS V14.01,2013-01-02 00:01:00,
2013-01-01 18:02:00,46.6,43.5,29.32,ENE,68,0.0,0.0,89,0.04,,---,1.04,VWS V14.01,2013-01-02 00:02:00,
2013-01-01 18:03:00,43.2,40.7,29.35,ENE,68,0.0,0.0,91,0.04,,---,1.08,VWS V14.01,2013-01-02 00:03:00,
2013-01-01 18:04:00,46.4,43.3,29.32,NE,45,0.0,0.0,89,0.04,,---,1.04,VWS V14.01,2013-01-02 00:04:00,
2013-01-01 18:05:00,46.4,43.6,29.32,NE,45,0.0,0.0,90,0.04,,---,1.04,VWS V14.01,2013-01-02 00:05:00,
2013-01-01 18:06:00,46.4,43.6,29.32,ENE,68,0.0,0.0,90,0.04,,---,1.04,VWS V14.01,2013-01-02 00:06:00,
2013-01-01 18:07:00,46.4,43.6,29.32,ENE,68,0.9,0.9,90,0.04,,---,1.04,VWS V14.01,2013-01-02 00:07:00,
2013-01-01 18:08:00,43.2,40.7,29.35,ENE,68,0.0,0.0,91,0.00,,---,1.08,VWS V14.01,2013-01-02 00:08:00,
2013-01-01 18:09:00,46.2,43.5,29.32,ENE,68,0.0,1.1,90,0.04,,---,1.04,VWS V14.01,2013-01-02 00:09:00,
2013-01-01 18:10:00,46.2,43.5,29.32,NE,45,0.0,0.0,90,0.04,,---,1.04,VWS V14.01,2013-01-02 00:10:00,
2013-01-01 18:11:00,46.2,43.5,29.32,ENE,68,0.0,0.0,90,0.04,,---,1.04,VWS V14.01,2013-01-02 00:11:00,
2013-01-01 18:12:00,46.2,43.5,29.32,NE,45,0.0,0.0,90,0.04,,---,1.04,VWS V14.01,2013-01-02 00:12:00,
2013-01-01 18:13:00,43.0,40.5,29.35,ENE,68,0.0,0.0,91,0.00,,---,1.08,VWS V14.01,2013-01-02 00:13:00,
2013-01-01 18:14:00,46.2,43.5,29.32,NNE,22,0.0,0.0,90,0.04,,---,1.04,VWS V14.01,2013-01-02 00:14:00,
2013-01-01 18:15:00,46.0,43.3,29.32,NNE,22,0.0,0.0,90,0.04,,---,1.04,VWS V14.01,2013-01-02 00:15:00,
2013-01-01 18:16:00,46.0,43.3,29.32,NNW,338,0.0,0.0,90,0.04,,---,1.04,VWS V14.01,2013-01-02 00:16:00,
2013-01-01 18:17:00,46.0,43.3,29.32,NNW,338,0.0,0.0,90,0.04,,---,1.04,VWS V14.01,2013-01-02 00:17:00,
2013-01-01 18:18:00,43.0,40.5,29.35,ENE,68,0.0,0.0,91,0.00,,---,1.08,VWS V14.01,2013-01-02 00:18:00,
2013-01-01 18:19:00,46.0,43.3,29.32,ENE,68,0.0,3.8,90,0.04,,---,1.04,VWS V14.01,2013-01-02 00:19:00,
2013-01-01 18:20:00,46.0,43.3,29.32,NNE,22,0.0,0.0,90,0.04,,---,1.04,VWS V14.01,2013-01-02 00:20:00,
2013-01-01 18:21:00,46.0,43.3,29.32,ENE,68,0.0,0.0,90,0.04,,---,1.04,VWS V14.01,2013-01-02 00:21:00,
2013-01-01 18:22:00,45.9,43.1,29.32,NNE,22,0.0,0.0,90,0.04,,---,1.04,VWS V14.01,2013-01-02 00:22:00,
2013-01-01 18:23:00,43.0,40.8,29.35,ENE,68,0.0,0.0,92,0.00,,---,1.08,VWS V14.01,2013-01-02 00:23:00,
2013-01-01 18:24:00,45.9,43.1,29.32,ENE,68,0.0,0.0,90,0.04,,---,1.04,VWS V14.01,2013-01-02 00:24:00,
2013-01-01 18:25:00,45.9,43.1,29.32,NNE,22,0.0,0.0,90,0.04,,---,1.04,VWS V14.01,2013-01-02 00:25:00,
2013-01-01 18:26:00,45.9,43.1,29.32,NNE,22,0.0,0.0,90,0.04,,---,1.04,VWS V14.01,2013-01-02 00:26:00,
2013-01-01 18:27:00,45.9,43.1,29.32,NNE,22,0.0,0.0,90,0.00,,---,1.04,VWS V14.01,2013-01-02 00:27:00,
2013-01-01 18:28:00,43.0,40.8,29.35,ENE,68,0.0,0.0,92,0.00,,---,1.08,VWS V14.01,2013-01-02 00:28:00,
2013-01-01 18:29:00,45.7,42.9,29.32,NNE,22,0.0,0.0,90,0.00,,---,1.04,VWS V14.01,2013-01-02 00:29:00,
2013-01-01 18:30:00,45.7,42.9,29.32,NNE,22,0.0,0.0,90,0.00,,---,1.04,VWS V14.01,2013-01-02 00:30:00,
2013-01-01 18:31:00,45.5,42.7,29.32,ENE,68,0.0,0.0,90,0.00,,---,1.04,VWS V14.01,2013-01-02 00:31:00,
2013-01-01 18:32:00,45.5,42.7,29.32,NE,45,0.0,0.0,90,0.00,,---,1.04,VWS V14.01,2013-01-02 00:32:00,
2013-01-01 18:33:00,43.0,40.8,29.35,ENE,68,0.0,0.0,92,0.00,,---,1.08,VWS V14.01,2013-01-02 00:33:00,
2013-01-01 18:34:00,45.5,42.7,29.32,ENE,68,0.0,0.0,90,0.00,,---,1.04,VWS V14.01,2013-01-02 00:34:00,
2013-01-01 18:35:00,45.5,42.7,29.32,ENE,68,0.0,0.0,90,0.00,,---,1.04,VWS V14.01,2013-01-02 00:35:00,
2013-01-01 18:36:00,45.5,42.7,29.32,NE,45,0.0,0.0,90,0.00,,---,1.04,VWS V14.01,2013-01-02 00:36:00,
2013-01-01 18:37:00,45.3,42.6,29.32,ENE,68,0.0,0.0,90,0.00,,---,1.04,VWS V14.01,2013-01-02 00:37:00,
2013-01-01 18:38:00,43.0,41.1,29.35,East,90,0.0,0.0,93,0.00,,---,1.08,VWS V14.01,2013-01-02 00:38:00,
2013-01-01 18:39:00,45.3,42.6,29.32,ESE,112,0.0,0.0,90,0.00,,---,1.04,VWS V14.01,2013-01-02 00:39:00,
2013-01-01 18:40:00,45.3,42.6,29.32,ENE,68,0.0,0.0,90,0.00,,---,1.04,VWS V14.01,2013-01-02 00:40:00,
2013-01-01 18:41:00,45.3,42.6,29.32,East,90,0.0,0.0,90,0.00,,---,1.04,VWS V14.01,2013-01-02 00:41:00,
2013-01-01 18:42:00,45.3,42.6,29.32,ENE,68,0.0,2.5,90,0.00,,---,1.04,VWS V14.01,2013-01-02 00:42:00,
2013-01-01 18:43:00,42.8,40.9,29.35,East,90,0.0,0.0,93,0.00,,---,1.08,VWS V14.01,2013-01-02 00:43:00,
2013-01-01 18:44:00,45.3,42.6,29.32,NE,45,0.0,0.0,90,0.00,,---,1.04,VWS V14.01,2013-01-02 00:44:00,
2013-01-01 18:45:00,45.1,42.4,29.32,NNE,22,0.0,0.0,90,0.00,,---,1.04,VWS V14.01,2013-01-02 00:45:00,
2013-01-01 18:46:00,45.1,42.4,29.32,East,90,0.0,0.0,90,0.00,,---,1.04,VWS V14.01,2013-01-02 00:46:00,
2013-01-01 18:47:00,45.1,42.4,29.32,ENE,68,0.0,0.0,90,0.00,,---,1.04,VWS V14.01,2013-01-02 00:47:00,
2013-01-01 18:48:00,42.8,40.9,29.35,East,90,0.0,0.0,93,0.00,,---,1.08,VWS V14.01,2013-01-02 00:48:00,
2013-01-01 18:49:00,45.1,42.4,29.32,ENE,68,0.0,0.0,90,0.00,,---,1.04,VWS V14.01,2013-01-02 00:49:00,
2013-01-01 18:50:00,45.1,42.4,29.32,ENE,68,1.1,1.1,90,0.00,,---,1.04,VWS V14.01,2013-01-02 00:50:00,
2013-01-01 18:51:00,45.0,42.2,29.32,ENE,68,0.0,2.7,90,0.00,,---,1.04,VWS V14.01,2013-01-02 00:51:00,
2013-01-01 18:52:00,45.0,42.2,29.32,ENE,68,2.5,2.5,90,0.00,,---,1.04,VWS V14.01,2013-01-02 00:52:00,
2013-01-01 18:53:00,42.8,40.9,29.29,East,90,0.0,0.0,93,0.04,,---,1.12,VWS V14.01,2013-01-02 00:53:00,
2013-01-01 18:54:00,44.8,42.0,29.32,ENE,68,0.0,0.0,90,0.00,,---,1.04,VWS V14.01,2013-01-02 00:54:00,
2013-01-01 18:55:00,44.8,42.0,29.32,NE,45,1.3,1.6,90,0.00,,---,1.04,VWS V14.01,2013-01-02 00:55:00,
2013-01-01 18:56:00,44.8,42.0,29.32,ENE,68,0.0,1.3,90,0.00,,---,1.04,VWS V14.01,2013-01-02 00:56:00,
2013-01-01 18:57:00,44.8,42.0,29.32,ENE,68,0.0,0.0,90,0.04,,---,1.08,VWS V14.01,2013-01-02 00:57:00,
2013-01-01 18:58:00,43.0,41.4,29.29,NNW,338,0.0,0.0,94,0.04,,---,1.12,VWS V14.01,2013-01-02 00:58:00,
2013-01-01 18:59:00,44.6,41.8,29.32,NNE,22,0.9,0.9,90,0.04,,---,1.08,VWS V14.01,2013-01-02 00:59:00,
2013-01-01 19:00:00,44.6,41.8,29.32,ENE,68,0.0,0.9,90,0.04,,---,1.08,VWS V14.01,2013-01-02 01:00:00,
2013-01-01 19:01:00,44.6,41.8,29.32,ENE,68,0.0,0.0,90,0.04,,---,1.08,VWS V14.01,2013-01-02 01:01:00,
2013-01-01 19:02:00,44.4,41.7,29.32,ENE,68,0.0,0.0,90,0.04,,---,1.08,VWS V14.01,2013-01-02 01:02:00,
2013-01-01 19:03:00,43.0,41.4,29.29,NNW,338,0.0,0.0,94,0.04,,---,1.12,VWS V14.01,2013-01-02 01:03:00,
2013-01-01 19:04:00,44.4,41.7,29.32,ENE,68,0.0,0.0,90,0.04,,---,1.08,VWS V14.01,2013-01-02 01:04:00,
2013-01-01 19:05:00,44.4,41.7,29.32,ENE,68,0.0,0.0,90,0.04,,---,1.08,VWS V14.01,2013-01-02 01:05:00,
2013-01-01 19:06:00,44.2,41.5,29.32,East,90,0.0,0.0,90,0.04,,---,1.08,VWS V14.01,2013-01-02 01:06:00,
2013-01-01 19:07:00,44.2,41.5,29.32,ENE,68,0.0,0.0,90,0.04,,---,1.08,VWS V14.01,2013-01-02 01:07:00,
2013-01-01 19:08:00,43.0,41.4,29.35,NNW,338,0.0,0.0,94,0.04,,---,1.12,VWS V14.01,2013-01-02 01:08:00,
2013-01-01 19:09:00,44.2,41.5,29.32,ENE,68,0.0,0.0,90,0.04,,---,1.08,VWS V14.01,2013-01-02 01:09:00,
2013-01-01 19:10:00,44.1,41.3,29.32,ENE,68,0.0,0.0,90,0.04,,---,1.08,VWS V14.01,2013-01-02 01:10:00,
2013-01-01 19:11:00,44.1,41.3,29.32,ENE,68,0.0,0.0,90,0.04,,---,1.08,VWS V14.01,2013-01-02 01:11:00,
2013-01-01 19:12:00,44.1,41.3,29.32,ENE,68,0.0,0.0,90,0.04,,---,1.08,VWS V14.01,2013-01-02 01:12:00,
2013-01-01 19:13:00,42.8,41.2,29.35,NNW,338,0.0,0.0,94,0.04,,---,1.12,VWS V14.01,2013-01-02 01:13:00,
2013-01-01 19:14:00,44.1,41.3,29.35,ENE,68,0.0,0.0,90,0.04,,---,1.08,VWS V14.01,2013-01-02 01:14:00,
2013-01-01 19:15:00,44.1,41.3,29.35,NE,45,0.0,0.0,90,0.04,,---,1.08,VWS V14.01,2013-01-02 01:15:00,
2013-01-01 19:16:00,44.1,41.3,29.35,NE,45,0.0,0.0,90,0.04,,---,1.08,VWS V14.01,2013-01-02 01:16:00,
2013-01-01 19:17:00,44.1,41.3,29.35,ENE,68,0.0,0.0,90,0.04,,---,1.08,VWS V14.01,2013-01-02 01:17:00,
2013-01-01 19:18:00,42.8,41.2,29.35,NNW,338,0.0,0.0,94,0.04,,---,1.12,VWS V14.01,2013-01-02 01:18:00,
2013-01-01 19:19:00,44.1,41.3,29.35,NE,45,0.0,0.0,90,0.04,,---,1.08,VWS V14.01,2013-01-02 01:19:00,
2013-01-01 19:20:00,44.1,41.3,29.35,ENE,68,0.0,0.0,90,0.04,,---,1.08,VWS V14.01,2013-01-02 01:20:00,
2013-01-01 19:21:00,44.1,41.3,29.35,ENE,68,0.0,0.0,90,0.04,,---,1.08,VWS V14.01,2013-01-02 01:21:00,
2013-01-01 19:22:00,43.9,41.1,29.35,ENE,68,0.0,0.0,90,0.04,,---,1.08,VWS V14.01,2013-01-02 01:22:00,
2013-01-01 19:23:00,42.8,41.2,29.38,NNW,338,0.0,0.0,94,0.04,,---,1.12,VWS V14.01,2013-01-02 01:23:00,
2013-01-01 19:24:00,43.9,41.1,29.35,ENE,68,0.0,0.0,90,0.04,,---,1.08,VWS V14.01,2013-01-02 01:24:00,
2013-01-01 19:25:00,43.9,41.1,29.35,ENE,68,0.0,0.0,90,0.04,,---,1.08,VWS V14.01,2013-01-02 01:25:00,
2013-01-01 19:26:00,43.7,41.0,29.35,ENE,68,0.0,0.0,90,0.04,,---,1.08,VWS V14.01,2013-01-02 01:26:00,
2013-01-01 19:27:00,42.8,41.2,29.38,West,270,0.0,0.0,94,0.04,,---,1.12,VWS V14.01,2013-01-02 01:27:00,
2013-01-01 19:28:00,43.7,41.0,29.35,NE,45,0.0,0.0,90,0.04,,---,1.08,VWS V14.01,2013-01-02 01:28:00,
2013-01-01 19:29:00,43.7,41.2,29.35,NNE,22,0.0,0.0,91,0.04,,---,1.08,VWS V14.01,2013-01-02 01:29:00,
2013-01-01 19:30:00,43.7,41.2,29.35,NNE,22,0.0,0.0,91,0.04,,---,1.08,VWS V14.01,2013-01-02 01:30:00,
2013-01-01 19:31:00,43.7,41.2,29.35,NE,45,0.0,0.0,91,0.04,,---,1.08,VWS V14.01,2013-01-02 01:31:00,
2013-01-01 19:32:00,42.6,41.3,29.38,ENE,68,0.0,0.0,95,0.04,,---,1.12,VWS V14.01,2013-01-02 01:32:00,
2013-01-01 19:33:00,43.7,41.2,29.35,NE,45,0.0,0.0,91,0.04,,---,1.08,VWS V14.01,2013-01-02 01:33:00,
2013-01-01 19:34:00,43.7,41.2,29.35,NE,45,0.0,0.0,91,0.04,,---,1.08,VWS V14.01,2013-01-02 01:34:00,
2013-01-01 19:35:00,43.7,41.2,29.35,NE,45,0.0,0.0,91,0.04,,---,1.08,VWS V14.01,2013-01-02 01:35:00,
2013-01-01 19:36:00,43.7,41.2,29.35,NNE,22,0.0,0.0,91,0.04,,---,1.08,VWS V14.01,2013-01-02 01:36:00,
2013-01-01 19:37:00,42.4,40.8,29.35,East,90,0.0,0.0,94,0.04,,---,0.21,VWS V14.01,2013-01-02 01:37:00,
2013-01-01 19:38:00,43.5,41.1,29.35,NNE,22,0.0,0.0,91,0.04,,---,1.08,VWS V14.01,2013-01-02 01:38:00,
2013-01-01 19:39:00,43.5,41.1,29.35,NNE,22,0.0,0.0,91,0.04,,---,1.08,VWS V14.01,2013-01-02 01:39:00,
2013-01-01 19:40:00,43.5,41.1,29.35,NNE,22,0.0,0.0,91,0.04,,---,1.08,VWS V14.01,2013-01-02 01:40:00,
2013-01-01 19:41:00,43.5,41.1,29.35,NNE,22,0.0,0.0,91,0.04,,---,1.08,VWS V14.01,2013-01-02 01:41:00,
2013-01-01 19:42:00,42.4,40.8,29.35,ESE,112,0.0,0.0,94,0.04,,---,1.12,VWS V14.01,2013-01-02 01:42:00,
2013-01-01 19:43:00,43.5,41.1,29.35,ENE,68,0.0,0.0,91,0.04,,---,1.08,VWS V14.01,2013-01-02 01:43:00,
2013-01-01 19:44:00,43.5,41.1,29.35,ENE,68,0.0,0.0,91,0.04,,---,1.08,VWS V14.01,2013-01-02 01:44:00,
2013-01-01 19:45:00,43.5,41.1,29.35,East,90,0.0,0.0,91,0.04,,---,1.08,VWS V14.01,2013-01-02 01:45:00,
2013-01-01 19:46:00,43.3,40.9,29.35,East,90,0.0,0.0,91,0.04,,---,1.08,VWS V14.01,2013-01-02 01:46:00,
2013-01-01 19:47:00,42.4,41.1,29.35,ESE,112,0.0,0.0,95,0.04,,---,1.12,VWS V14.01,2013-01-02 01:47:00,
2013-01-01 19:48:00,43.3,40.9,29.35,East,90,0.0,0.0,91,0.04,,---,1.08,VWS V14.01,2013-01-02 01:48:00,
2013-01-01 19:49:00,43.3,40.9,29.35,ESE,112,0.0,0.0,91,0.04,,---,1.08,VWS V14.01,2013-01-02 01:49:00,
2013-01-01 19:50:00,43.3,40.9,29.35,ENE,68,0.0,0.0,91,0.04,,---,1.08,VWS V14.01,2013-01-02 01:50:00,
2013-01-01 19:51:00,43.3,40.9,29.35,ENE,68,0.0,0.0,91,0.04,,---,1.08,VWS V14.01,2013-01-02 01:51:00,
2013-01-01 19:52:00,42.3,40.9,29.35,ENE,68,0.0,0.0,95,0.00,,---,1.12,VWS V14.01,2013-01-02 01:52:00,
2013-01-01 19:53:00,43.2,40.7,29.35,ENE,68,0.0,0.0,91,0.04,,---,1.08,VWS V14.01,2013-01-02 01:53:00,
2013-01-01 19:54:00,43.2,40.7,29.35,ENE,68,0.0,0.0,91,0.04,,---,1.08,VWS V14.01,2013-01-02 01:54:00,
2013-01-01 19:55:00,43.2,40.7,29.35,ENE,68,0.0,0.0,91,0.04,,---,1.08,VWS V14.01,2013-01-02 01:55:00,
2013-01-01 19:56:00,43.2,40.7,29.35,East,90,0.0,0.0,91,0.04,,---,1.08,VWS V14.01,2013-01-02 01:56:00,
2013-01-01 19:57:00,42.4,41.1,29.35,ENE,68,0.0,0.0,95,0.00,,---,1.12,VWS V14.01,2013-01-02 01:57:00,
2013-01-01 19:58:00,43.2,40.7,29.35,ENE,68,0.0,0.0,91,0.00,,---,1.08,VWS V14.01,2013-01-02 01:58:00,
2013-01-01 19:59:00,43.2,40.7,29.35,ENE,68,0.0,0.0,91,0.00,,---,1.08,VWS V14.01,2013-01-02 01:59:00,
2013-01-01 20:00:00,43.0,40.5,29.35,ENE,68,0.0,0.0,91,0.00,,---,1.08,VWS V14.01,2013-01-02 02:00:00,
2013-01-01 20:01:00,43.0,40.5,29.35,ENE,68,0.0,0.0,91,0.00,,---,1.08,VWS V14.01,2013-01-02 02:01:00,
2013-01-01 20:02:00,42.4,41.1,29.35,ENE,68,0.0,0.0,95,0.00,,---,1.12,VWS V14.01,2013-01-02 02:02:00,
2013-01-01 20:03:00,43.0,40.5,29.35,ENE,68,0.0,0.0,91,0.00,,---,1.08,VWS V14.01,2013-01-02 02:03:00,
2013-01-01 20:04:00,43.0,40.5,29.35,ENE,68,0.0,0.0,91,0.00,,---,1.08,VWS V14.01,2013-01-02 02:04:00,
2013-01-01 20:05:00,43.0,40.5,29.35,ENE,68,0.0,0.0,91,0.00,,---,1.08,VWS V14.01,2013-01-02 02:05:00,
2013-01-01 20:06:00,43.0,40.5,29.35,ENE,68,0.0,0.0,91,0.00,,---,1.08,VWS V14.01,2013-01-02 02:06:00,
2013-01-01 20:07:00,42.4,41.4,29.35,ENE,68,0.0,0.0,96,0.00,,---,1.12,VWS V14.01,2013-01-02 02:07:00,
2013-01-01 20:08:00,43.0,40.5,29.35,ENE,68,0.0,0.0,91,0.00,,---,1.08,VWS V14.01,2013-01-02 02:08:00,
2013-01-01 20:09:00,43.0,40.5,29.35,ENE,68,0.0,0.0,91,0.00,,---,1.08,VWS V14.01,2013-01-02 02:09:00,
2013-01-01 20:10:00,43.0,40.8,29.35,ENE,68,0.0,0.0,92,0.00,,---,1.08,VWS V14.01,2013-01-02 02:10:00,
2013-01-01 20:11:00,43.0,40.8,29.35,ENE,68,0.0,0.0,92,0.00,,---,1.08,VWS V14.01,2013-01-02 02:11:00,
2013-01-01 20:12:00,42.4,41.4,29.35,WNW,292,0.0,0.0,96,0.00,,---,1.12,VWS V14.01,2013-01-02 02:12:00,
2013-01-01 20:13:00,43.0,40.8,29.35,ENE,68,0.0,0.0,92,0.00,,---,1.08,VWS V14.01,2013-01-02 02:13:00,
2013-01-01 20:14:00,43.0,40.8,29.35,ENE,68,0.0,0.0,92,0.00,,---,1.08,VWS V14.01,2013-01-02 02:14:00,
2013-01-01 20:15:00,43.0,40.8,29.35,ENE,68,0.0,0.0,92,0.00,,---,1.08,VWS V14.01,2013-01-02 02:15:00,
2013-01-01 20:16:00,43.0,40.8,29.35,ENE,68,0.0,0.0,92,0.00,,---,1.08,VWS V14.01,2013-01-02 02:16:00,
2013-01-01 20:17:00,42.4,41.4,29.35,WNW,292,0.0,0.0,96,0.00,,---,1.12,VWS V14.01,2013-01-02 02:17:00,
2013-01-01 20:18:00,43.0,40.8,29.35,ENE,68,0.0,0.0,92,0.00,,---,1.08,VWS V14.01,2013-01-02 02:18:00,
2013-01-01 20:19:00,43.0,40.8,29.35,ENE,68,0.0,0.0,92,0.00,,---,1.08,VWS V14.01,2013-01-02 02:19:00,
2013-01-01 20:20:00,43.0,40.8,29.35,ENE,68,0.0,0.0,92,0.00,,---,1.08,VWS V14.01,2013-01-02 02:20:00,
2013-01-01 20:21:00,43.0,40.8,29.35,ENE,68,0.0,0.0,92,0.00,,---,1.08,VWS V14.01,2013-01-02 02:21:00,
2013-01-01 20:22:00,42.4,41.4,29.38,WNW,292,0.0,0.0,96,0.00,,---,1.12,VWS V14.01,2013-01-02 02:22:00,
2013-01-01 20:23:00,43.0,40.8,29.35,ENE,68,0.0,0.0,92,0.00,,---,1.08,VWS V14.01,2013-01-02 02:23:00,
2013-01-01 20:24:00,43.0,40.8,29.35,ENE,68,0.0,0.0,92,0.00,,---,1.08,VWS V14.01,2013-01-02 02:24:00,
2013-01-01 20:25:00,43.0,40.8,29.35,ENE,68,0.0,0.0,92,0.00,,---,1.08,VWS V14.01,2013-01-02 02:25:00,
2013-01-01 20:26:00,43.0,41.1,29.35,ESE,112,0.0,0.0,93,0.00,,---,1.08,VWS V14.01,2013-01-02 02:26:00,
2013-01-01 20:27:00,42.4,41.4,29.38,NNW,338,0.0,0.0,96,0.00,,---,1.12,VWS V14.01,2013-01-02 02:27:00,
2013-01-01 20:28:00,43.0,41.1,29.35,ESE,112,1.6,1.6,93,0.00,,---,1.08,VWS V14.01,2013-01-02 02:28:00,
2013-01-01 20:29:00,43.0,41.1,29.35,ESE,112,0.0,1.6,93,0.00,,---,1.08,VWS V14.01,2013-01-02 02:29:00,
2013-01-01 20:30:00,42.8,40.9,29.35,ESE,112,0.0,0.0,93,0.00,,---,1.08,VWS V14.01,2013-01-02 02:30:00,
2013-01-01 20:31:00,42.8,40.9,29.35,ESE,112,0.0,0.0,93,0.00,,---,1.08,VWS V14.01,2013-01-02 02:31:00,
2013-01-01 20:32:00,42.3,41.2,29.38,NW,315,0.0,0.0,96,0.00,,---,1.12,VWS V14.01,2013-01-02 02:32:00,
2013-01-01 20:33:00,42.8,40.9,29.35,East,90,0.0,0.0,93,0.00,,---,1.08,VWS V14.01,2013-01-02 02:33:00,
2013-01-01 20:34:00,42.8,40.9,29.35,East,90,0.0,0.0,93,0.00,,---,1.08,VWS V14.01,2013-01-02 02:34:00,
2013-01-01 20:35:00,42.8,40.9,29.35,East,90,0.0,0.0,93,0.00,,---,1.08,VWS V14.01,2013-01-02 02:35:00,
2013-01-01 20:36:00,42.8,40.9,29.35,East,90,0.0,0.0,93,0.00,,---,1.08,VWS V14.01,2013-01-02 02:36:00,
2013-01-01 20:37:00,42.3,41.2,29.38,NW,315,0.0,0.0,96,0.00,,---,1.12,VWS V14.01,2013-01-02 02:37:00,
2013-01-01 20:38:00,42.8,40.9,29.35,East,90,0.0,0.0,93,0.04,,---,1.12,VWS V14.01,2013-01-02 02:38:00,
2013-01-01 20:39:00,42.8,40.9,29.35,East,90,0.0,0.0,93,0.04,,---,1.12,VWS V14.01,2013-01-02 02:39:00,
2013-01-01 20:40:00,42.8,40.9,29.35,East,90,0.0,0.0,93,0.04,,---,1.12,VWS V14.01,2013-01-02 02:40:00,
2013-01-01 20:41:00,42.8,40.9,29.35,East,90,0.0,0.0,93,0.04,,---,1.12,VWS V14.01,2013-01-02 02:41:00,
2013-01-01 20:42:00,42.1,40.8,29.38,NW,315,0.0,0.0,95,0.00,,---,1.12,VWS V14.01,2013-01-02 02:42:00,
2013-01-01 20:43:00,42.8,40.9,29.29,East,90,0.0,0.0,93,0.04,,---,1.12,VWS V14.01,2013-01-02 02:43:00,
2013-01-01 20:44:00,42.8,40.9,29.29,ENE,68,0.0,0.0,93,0.04,,---,1.12,VWS V14.01,2013-01-02 02:44:00,
2013-01-01 20:45:00,43.0,41.1,29.29,North,0,0.0,0.0,93,0.04,,---,1.12,VWS V14.01,2013-01-02 02:45:00,
2013-01-01 20:46:00,43.0,41.4,29.29,NNW,338,0.0,0.0,94,0.04,,---,1.12,VWS V14.01,2013-01-02 02:46:00,
2013-01-01 20:47:00,42.1,40.8,29.38,NNE,22,0.0,0.0,95,0.00,,---,1.12,VWS V14.01,2013-01-02 02:47:00,
2013-01-01 20:48:00,43.0,41.4,29.29,NNW,338,0.0,0.0,94,0.04,,---,1.12,VWS V14.01,2013-01-02 02:48:00,
2013-01-01 20:49:00,43.0,41.4,29.29,NNW,338,0.0,0.0,94,0.04,,---,1.12,VWS V14.01,2013-01-02 02:49:00,
2013-01-01 20:50:00,43.0,41.4,29.29,NNW,338,0.0,0.0,94,0.04,,---,1.12,VWS V14.01,2013-01-02 02:50:00,
2013-01-01 20:51:00,43.0,41.4,29.29,NNW,338,0.0,0.0,94,0.04,,---,1.12,VWS V14.01,2013-01-02 02:51:00,
2013-01-01 20:52:00,41.7,40.4,29.38,NW,315,0.0,0.0,95,0.00,,---,1.12,VWS V14.01,2013-01-02 02:52:00,
2013-01-01 20:53:00,43.0,41.4,29.29,NNW,338,0.0,0.0,94,0.04,,---,1.12,VWS V14.01,2013-01-02 02:53:00,
2013-01-01 20:54:00,43.0,41.4,29.29,NNW,338,0.0,0.0,94,0.04,,---,1.12,VWS V14.01,2013-01-02 02:54:00,
2013-01-01 20:55:00,43.0,41.4,29.29,NNW,338,0.0,0.0,94,0.04,,---,1.12,VWS V14.01,2013-01-02 02:55:00,
2013-01-01 20:56:00,43.0,41.4,29.29,NNW,338,0.0,0.0,94,0.04,,---,1.12,VWS V14.01,2013-01-02 02:56:00,
2013-01-01 20:57:00,41.5,40.0,29.38,NNW,338,0.0,0.0,94,0.00,,---,1.12,VWS V14.01,2013-01-02 02:57:00,
2013-01-01 20:58:00,43.0,41.4,29.35,NNW,338,0.0,0.0,94,0.04,,---,1.12,VWS V14.01,2013-01-02 02:58:00,
2013-01-01 20:59:00,43.0,41.4,29.35,NNW,338,0.0,0.0,94,0.04,,---,1.12,VWS V14.01,2013-01-02 02:59:00,
2013-01-01 21:00:00,43.0,41.4,29.35,NNW,338,0.0,0.0,94,0.04,,---,1.12,VWS V14.01,2013-01-02 03:00:00,
2013-01-01 21:01:00,43.0,41.4,29.35,NNW,338,0.0,0.0,94,0.04,,---,1.12,VWS V14.01,2013-01-02 03:01:00,
2013-01-01 21:02:00,41.4,39.8,29.38,WNW,292,0.0,0.0,94,0.00,,---,1.12,VWS V14.01,2013-01-02 03:02:00,
2013-01-01 21:03:00,42.8,41.2,29.35,NNW,338,0.0,0.0,94,0.04,,---,1.12,VWS V14.01,2013-01-02 03:03:00,
2013-01-01 21:04:00,42.8,41.2,29.35,NNW,338,0.0,0.0,94,0.04,,---,1.12,VWS V14.01,2013-01-02 03:04:00,
2013-01-01 21:05:00,42.8,41.2,29.35,NNW,338,0.0,0.0,94,0.04,,---,1.12,VWS V14.01,2013-01-02 03:05:00,
2013-01-01 21:06:00,42.8,41.2,29.35,NNW,338,0.0,0.0,94,0.04,,---,1.12,VWS V14.01,2013-01-02 03:06:00,
2013-01-01 21:07:00,41.2,39.3,29.38,NNW,338,0.0,0.0,93,0.00,,---,1.12,VWS V14.01,2013-01-02 03:07:00,
2013-01-01 21:08:00,42.8,41.2,29.35,NNW,338,0.0,0.0,94,0.04,,---,1.12,VWS V14.01,2013-01-02 03:08:00,
2013-01-01 21:09:00,42.8,41.2,29.35,NNW,338,0.0,0.0,94,0.04,,---,1.12,VWS V14.01,2013-01-02 03:09:00,
2013-01-01 21:10:00,42.8,41.2,29.35,NNW,338,0.0,0.0,94,0.04,,---,1.12,VWS V14.01,2013-01-02 03:10:00,
2013-01-01 21:11:00,42.8,41.2,29.35,NNW,338,0.0,0.0,94,0.04,,---,1.12,VWS V14.01,2013-01-02 03:11:00,
2013-01-01 21:12:00,40.8,39.0,29.38,NNE,22,0.0,0.0,93,0.00,,---,1.12,VWS V14.01,2013-01-02 03:12:00,
2013-01-01 21:13:00,42.8,41.2,29.38,NNW,338,0.0,0.0,94,0.04,,---,1.12,VWS V14.01,2013-01-02 03:13:00,
2013-01-01 21:14:00,42.8,41.2,29.38,NNW,338,0.0,0.0,94,0.04,,---,1.12,VWS V14.01,2013-01-02 03:14:00,
2013-01-01 21:15:00,42.8,41.2,29.38,WSW,248,0.0,0.0,94,0.04,,---,1.12,VWS V14.01,2013-01-02 03:15:00,
2013-01-01 21:16:00,42.8,41.2,29.38,West,270,0.0,0.0,94,0.04,,---,1.12,VWS V14.01,2013-01-02 03:16:00,
2013-01-01 21:17:00,40.6,38.5,29.38,NNW,338,0.0,0.0,92,0.00,,---,1.12,VWS V14.01,2013-01-02 03:17:00,
2013-01-01 21:18:00,42.8,41.2,29.38,NW,315,0.0,0.0,94,0.04,,---,1.12,VWS V14.01,2013-01-02 03:18:00,
2013-01-01 21:19:00,42.6,41.3,29.38,ENE,68,0.0,0.0,95,0.04,,---,1.12,VWS V14.01,2013-01-02 03:19:00,
2013-01-01 21:20:00,42.6,41.3,29.38,ENE,68,0.0,0.0,95,0.04,,---,1.12,VWS V14.01,2013-01-02 03:20:00,
2013-01-01 21:21:00,42.6,41.3,29.38,ENE,68,0.0,0.0,95,0.04,,---,1.12,VWS V14.01,2013-01-02 03:21:00,
2013-01-01 21:22:00,40.5,38.3,29.38,NW,315,0.0,0.0,92,0.00,,---,1.12,VWS V14.01,2013-01-02 03:22:00,
2013-01-01 21:23:00,42.6,41.3,29.38,NE,45,0.0,0.0,95,0.04,,---,1.12,VWS V14.01,2013-01-02 03:23:00,
2013-01-01 21:24:00,42.4,41.1,29.38,NE,45,0.0,0.0,95,0.04,,---,1.12,VWS V14.01,2013-01-02 03:24:00,
2013-01-01 21:25:00,42.4,41.1,29.38,East,90,0.0,0.0,95,0.04,,---,1.12,VWS V14.01,2013-01-02 03:25:00,
2013-01-01 21:26:00,42.4,41.1,29.38,East,90,0.0,0.0,95,0.04,,---,1.12,VWS V14.01,2013-01-02 03:26:00,
2013-01-01 21:27:00,40.3,38.2,29.38,NE,45,0.0,0.0,92,0.00,,---,1.12,VWS V14.01,2013-01-02 03:27:00,
2013-01-01 21:28:00,42.4,40.8,29.35,East,90,0.0,0.0,94,0.04,,---,1.12,VWS V14.01,2013-01-02 03:28:00,
2013-01-01 21:29:00,42.4,40.8,29.35,ESE,112,0.0,0.0,94,0.04,,---,1.12,VWS V14.01,2013-01-02 03:29:00,
2013-01-01 21:30:00,42.4,40.8,29.35,ESE,112,0.0,0.0,94,0.04,,---,1.12,VWS V14.01,2013-01-02 03:30:00,
2013-01-01 21:31:00,42.4,40.8,29.35,ESE,112,0.0,0.0,94,0.04,,---,1.12,VWS V14.01,2013-01-02 03:31:00,
2013-01-01 21:32:00,40.3,38.2,29.38,NE,45,0.0,0.0,92,0.00,,---,1.12,VWS V14.01,2013-01-02 03:32:00,
2013-01-01 21:33:00,42.4,40.8,29.35,ESE,112,0.0,0.0,94,0.04,,---,1.12,VWS V14.01,2013-01-02 03:33:00,
2013-01-01 21:34:00,42.4,40.8,29.35,ESE,112,0.0,0.0,94,0.04,,---,1.12,VWS V14.01,2013-01-02 03:34:00,
2013-01-01 21:35:00,42.4,41.1,29.35,ESE,112,0.0,0.0,95,0.04,,---,1.12,VWS V14.01,2013-01-02 03:35:00,
2013-01-01 21:36:00,42.4,41.1,29.35,ESE,112,0.0,0.0,95,0.04,,---,1.12,VWS V14.01,2013-01-02 03:36:00,
2013-01-01 21:37:00,40.1,38.0,29.38,NNE,22,0.0,0.0,92,0.00,,---,1.12,VWS V14.01,2013-01-02 03:37:00,
2013-01-01 21:38:00,42.4,41.1,29.35,ESE,112,0.0,0.0,95,0.04,,---,1.12,VWS V14.01,2013-01-02 03:38:00,
2013-01-01 21:39:00,42.4,41.1,29.35,ESE,112,0.0,0.0,95,0.00,,---,1.12,VWS V14.01,2013-01-02 03:39:00,
2013-01-01 21:40:00,42.4,41.1,29.35,ESE,112,0.0,0.0,95,0.00,,---,1.12,VWS V14.01,2013-01-02 03:40:00,
2013-01-01 21:41:00,42.4,41.1,29.35,ESE,112,0.0,0.0,95,0.00,,---,1.12,VWS V14.01,2013-01-02 03:41:00,
2013-01-01 21:42:00,40.1,38.0,29.38,ESE,112,0.0,0.0,92,0.00,,---,1.12,VWS V14.01,2013-01-02 03:42:00,
2013-01-01 21:43:00,42.3,40.9,29.35,ENE,68,0.0,0.0,95,0.00,,---,1.12,VWS V14.01,2013-01-02 03:43:00,
2013-01-01 21:44:00,42.3,40.9,29.35,ENE,68,0.0,0.0,95,0.00,,---,1.12,VWS V14.01,2013-01-02 03:44:00,
2013-01-01 21:45:00,42.3,40.9,29.35,ENE,68,0.0,0.0,95,0.00,,---,1.12,VWS V14.01,2013-01-02 03:45:00,
2013-01-01 21:46:00,42.4,41.1,29.35,ENE,68,0.0,0.0,95,0.00,,---,1.12,VWS V14.01,2013-01-02 03:46:00,
2013-01-01 21:47:00,39.9,37.8,29.38,NNE,22,0.0,0.0,92,0.00,,---,1.12,VWS V14.01,2013-01-02 03:47:00,
2013-01-01 21:48:00,42.4,41.1,29.35,ENE,68,0.0,0.0,95,0.00,,---,1.12,VWS V14.01,2013-01-02 03:48:00,
2013-01-01 21:49:00,42.4,41.1,29.35,ENE,68,0.0,0.0,95,0.00,,---,1.12,VWS V14.01,2013-01-02 03:49:00,
2013-01-01 21:50:00,42.4,41.1,29.35,ENE,68,0.0,0.0,95,0.00,,---,1.12,VWS V14.01,2013-01-02 03:50:00,
2013-01-01 21:51:00,42.4,41.1,29.35,ENE,68,0.0,0.0,95,0.00,,---,1.12,VWS V14.01,2013-01-02 03:51:00,
2013-01-01 21:52:00,39.9,37.8,29.38,NNE,22,0.0,0.0,92,0.00,,---,1.12,VWS V14.01,2013-01-02 03:52:00,
2013-01-01 21:53:00,42.4,41.1,29.35,ENE,68,0.0,0.0,95,0.00,,---,1.12,VWS V14.01,2013-01-02 03:53:00,
2013-01-01 21:54:00,42.4,41.1,29.35,ENE,68,0.0,0.0,95,0.00,,---,1.12,VWS V14.01,2013-01-02 03:54:00,
2013-01-01 21:55:00,42.4,41.1,29.35,ENE,68,0.0,0.0,95,0.00,,---,1.12,VWS V14.01,2013-01-02 03:55:00,
2013-01-01 21:56:00,42.4,41.1,29.35,ENE,68,0.0,0.0,95,0.00,,---,1.12,VWS V14.01,2013-01-02 03:56:00,
2013-01-01 21:57:00,39.9,37.8,29.38,NE,45,0.0,0.0,92,0.00,,---,1.12,VWS V14.01,2013-01-02 03:57:00,
2013-01-01 21:58:00,42.4,41.4,29.35,ENE,68,0.0,0.0,96,0.00,,---,1.12,VWS V14.01,2013-01-02 03:58:00,
2013-01-01 21:59:00,42.4,41.4,29.35,WNW,292,0.0,0.0,96,0.00,,---,1.12,VWS V14.01,2013-01-02 03:59:00,
2013-01-01 22:00:00,42.4,41.4,29.35,WNW,292,0.0,0.0,96,0.00,,---,1.12,VWS V14.01,2013-01-02 04:00:00,
2013-01-01 22:01:00,42.4,41.4,29.35,WNW,292,0.0,0.0,96,0.00,,---,1.12,VWS V14.01,2013-01-02 04:01:00,
2013-01-01 22:02:00,39.7,37.6,29.38,NE,45,0.0,0.0,92,0.00,,---,1.12,VWS V14.01,2013-01-02 04:02:00,
2013-01-01 22:03:00,42.4,41.4,29.35,WNW,292,0.0,0.0,96,0.00,,---,1.12,VWS V14.01,2013-01-02 04:03:00,
2013-01-01 22:04:00,42.4,41.4,29.35,WNW,292,0.0,0.0,96,0.00,,---,1.12,VWS V14.01,2013-01-02 04:04:00,
2013-01-01 22:05:00,42.4,41.4,29.35,WNW,292,0.0,0.0,96,0.00,,---,1.12,VWS V14.01,2013-01-02 04:05:00,
2013-01-01 22:06:00,42.4,41.4,29.35,WNW,292,0.0,0.0,96,0.00,,---,1.12,VWS V14.01,2013-01-02 04:06:00,
2013-01-01 22:07:00,39.7,37.9,29.38,NNE,22,0.0,0.0,93,0.00,,---,1.12,VWS V14.01,2013-01-02 04:07:00,
2013-01-01 22:08:00,42.4,41.4,29.35,WNW,292,0.0,0.0,96,0.00,,---,1.12,VWS V14.01,2013-01-02 04:08:00,
2013-01-01 22:09:00,42.4,41.4,29.35,WNW,292,0.0,0.0,96,0.00,,---,1.12,VWS V14.01,2013-01-02 04:09:00,
2013-01-01 22:10:00,42.4,41.4,29.35,WNW,292,0.0,0.0,96,0.00,,---,1.12,VWS V14.01,2013-01-02 04:10:00,
2013-01-01 22:11:00,42.4,41.4,29.35,WNW,292,0.0,0.0,96,0.00,,---,1.12,VWS V14.01,2013-01-02 04:11:00,
2013-01-01 22:12:00,39.7,37.9,29.38,NNE,22,0.0,0.0,93,0.00,,---,0.00,VWS V14.01,2013-01-02 04:12:00,
2013-01-01 22:13:00,42.4,41.4,29.38,WNW,292,0.0,0.0,96,0.00,,---,1.12,VWS V14.01,2013-01-02 04:13:00,
2013-01-01 22:14:00,42.4,41.4,29.38,WNW,292,0.0,0.0,96,0.00,,---,1.12,VWS V14.01,2013-01-02 04:14:00,
2013-01-01 22:15:00,42.4,41.4,29.38,WNW,292,0.0,0.0,96,0.00,,---,1.12,VWS V14.01,2013-01-02 04:15:00,
2013-01-01 22:16:00,42.4,41.4,29.38,WNW,292,0.0,0.0,96,0.00,,---,1.12,VWS V14.01,2013-01-02 04:16:00,
2013-01-01 22:17:00,39.7,37.9,29.38,ENE,68,0.0,0.0,93,0.00,,---,0.00,VWS V14.01,2013-01-02 04:17:00,
2013-01-01 22:18:00,42.4,41.4,29.38,NW,315,0.0,0.0,96,0.00,,---,1.12,VWS V14.01,2013-01-02 04:18:00,
2013-01-01 22:19:00,42.4,41.4,29.38,NW,315,0.0,0.0,96,0.00,,---,1.12,VWS V14.01,2013-01-02 04:19:00,
2013-01-01 22:20:00,42.4,41.4,29.38,NW,315,0.0,0.0,96,0.00,,---,1.12,VWS V14.01,2013-01-02 04:20:00,
2013-01-01 22:21:00,42.3,41.2,29.38,NW,315,0.0,0.0,96,0.00,,---,1.12,VWS V14.01,2013-01-02 04:21:00,
2013-01-01 22:22:00,39.6,37.7,29.38,NNW,338,0.0,0.0,93,0.00,,---,0.00,VWS V14.01,2013-01-02 04:22:00,
2013-01-01 22:23:00,42.3,41.2,29.38,NW,315,0.0,0.0,96,0.00,,---,1.12,VWS V14.01,2013-01-02 04:23:00,
2013-01-01 22:24:00,42.3,41.2,29.38,NW,315,0.0,0.0,96,0.00,,---,1.12,VWS V14.01,2013-01-02 04:24:00,
2013-01-01 22:25:00,42.3,41.2,29.38,NW,315,0.0,0.0,96,0.00,,---,1.12,VWS V14.01,2013-01-02 04:25:00,
2013-01-01 22:26:00,42.3,41.2,29.38,NW,315,0.0,0.0,96,0.00,,---,1.12,VWS V14.01,2013-01-02 04:26:00,
2013-01-01 22:27:00,39.6,37.7,29.38,NNW,338,0.0,0.0,93,0.00,,---,0.00,VWS V14.01,2013-01-02 04:27:00,
2013-01-01 22:28:00,42.3,41.2,29.38,NW,315,0.0,0.0,96,0.00,,---,1.12,VWS V14.01,2013-01-02 04:28:00,
2013-01-01 22:29:00,42.3,41.2,29.38,NW,315,0.0,0.0,96,0.00,,---,1.12,VWS V14.01,2013-01-02 04:29:00,
2013-01-01 22:30:00,42.1,40.8,29.38,NW,315,0.0,0.0,95,0.00,,---,1.12,VWS V14.01,2013-01-02 04:30:00,
2013-01-01 22:31:00,42.1,40.8,29.38,WNW,292,0.0,0.0,95,0.00,,---,1.12,VWS V14.01,2013-01-02 04:31:00,
2013-01-01 22:32:00,39.4,37.5,29.38,ENE,68,0.0,0.0,93,0.00,,---,0.00,VWS V14.01,2013-01-02 04:32:00,
2013-01-01 22:33:00,42.1,40.8,29.38,ENE,68,0.0,0.0,95,0.00,,---,1.12,VWS V14.01,2013-01-02 04:33:00,
2013-01-01 22:34:00,42.1,40.8,29.38,NNE,22,0.0,0.0,95,0.00,,---,1.12,VWS V14.01,2013-01-02 04:34:00,
2013-01-01 22:35:00,42.1,40.8,29.38,NNE,22,0.0,0.0,95,0.00,,---,1.12,VWS V14.01,2013-01-02 04:35:00,
2013-01-01 22:36:00,42.1,40.8,29.38,NNE,22,0.0,0.0,95,0.00,,---,1.12,VWS V14.01,2013-01-02 04:36:00,
2013-01-01 22:37:00,39.4,37.5,29.38,ENE,68,0.0,0.0,93,0.00,,---,0.00,VWS V14.01,2013-01-02 04:37:00,
2013-01-01 22:38:00,42.1,40.8,29.38,NNE,22,0.0,0.0,95,0.00,,---,1.12,VWS V14.01,2013-01-02 04:38:00,
2013-01-01 22:39:00,41.9,40.6,29.38,North,0,0.0,0.0,95,0.00,,---,1.12,VWS V14.01,2013-01-02 04:39:00,
2013-01-01 22:40:00,41.9,40.6,29.38,NNW,338,0.0,0.0,95,0.00,,---,1.12,VWS V14.01,2013-01-02 04:40:00,
2013-01-01 22:41:00,41.9,40.6,29.38,NW,315,0.0,0.0,95,0.00,,---,1.12,VWS V14.01,2013-01-02 04:41:00,
2013-01-01 22:42:00,39.4,37.5,29.44,NE,45,0.0,0.0,93,0.00,,---,0.00,VWS V14.01,2013-01-02 04:42:00,
2013-01-01 22:43:00,41.7,40.4,29.38,NW,315,0.0,0.0,95,0.00,,---,1.12,VWS V14.01,2013-01-02 04:43:00,
2013-01-01 22:44:00,41.7,40.4,29.38,NW,315,0.0,0.0,95,0.00,,---,1.12,VWS V14.01,2013-01-02 04:44:00,
2013-01-01 22:45:00,41.7,40.4,29.38,NNW,338,0.0,0.0,95,0.00,,---,1.12,VWS V14.01,2013-01-02 04:45:00,
2013-01-01 22:46:00,41.7,40.4,29.38,NW,315,0.0,0.0,95,0.00,,---,1.12,VWS V14.01,2013-01-02 04:46:00,
2013-01-01 22:47:00,39.2,37.3,29.44,NNE,22,0.0,0.0,93,0.00,,---,0.00,VWS V14.01,2013-01-02 04:47:00,
2013-01-01 22:48:00,41.5,40.0,29.38,NW,315,0.0,0.0,94,0.00,,---,1.12,VWS V14.01,2013-01-02 04:48:00,
2013-01-01 22:49:00,41.5,40.0,29.38,NNW,338,0.0,0.0,94,0.00,,---,1.12,VWS V14.01,2013-01-02 04:49:00,
2013-01-01 22:50:00,41.5,40.0,29.38,North,0,0.0,0.0,94,0.00,,---,1.12,VWS V14.01,2013-01-02 04:50:00,
2013-01-01 22:51:00,41.5,40.0,29.38,WNW,292,0.0,0.0,94,0.00,,---,1.12,VWS V14.01,2013-01-02 04:51:00,
2013-01-01 22:52:00,39.2,37.3,29.44,ESE,112,0.0,0.0,93,0.00,,---,0.00,VWS V14.01,2013-01-02 04:52:00,
2013-01-01 22:53:00,41.4,39.8,29.38,NNW,338,0.0,0.0,94,0.00,,---,1.12,VWS V14.01,2013-01-02 04:53:00,
2013-01-01 22:54:00,41.4,39.8,29.38,NW,315,0.0,0.0,94,0.00,,---,1.12,VWS V14.01,2013-01-02 04:54:00,
2013-01-01 22:55:00,41.2,39.3,29.38,NNW,338,0.0,0.0,93,0.00,,---,1.12,VWS V14.01,2013-01-02 04:55:00,
2013-01-01 22:56:00,41.2,39.3,29.38,NNW,338,0.0,0.0,93,0.00,,---,1.12,VWS V14.01,2013-01-02 04:56:00,
2013-01-01 22:57:00,39.2,37.3,29.38,WNW,292,0.0,0.0,93,0.00,,---,0.00,VWS V14.01,2013-01-02 04:57:00,
2013-01-01 22:58:00,41.2,39.3,29.38,NNW,338,0.0,0.0,93,0.00,,---,1.12,VWS V14.01,2013-01-02 04:58:00,
2013-01-01 22:59:00,41.2,39.3,29.38,NNW,338,0.0,0.0,93,0.00,,---,1.12,VWS V14.01,2013-01-02 04:59:00,
2013-01-01 23:00:00,39.2,37.3,29.38,WNW,292,0.0,0.0,93,0.00,,---,0.00,VWS V14.01,2013-01-02 05:00:00,
2013-01-01 23:01:00,41.0,39.1,29.38,NNE,22,0.0,0.0,93,0.00,,---,1.12,VWS V14.01,2013-01-02 05:01:00,
2013-01-01 23:02:00,40.8,39.0,29.38,NNE,22,0.0,0.0,93,0.00,,---,1.12,VWS V14.01,2013-01-02 05:02:00,
2013-01-01 23:03:00,39.2,37.3,29.38,WNW,292,0.0,0.0,93,0.00,,---,0.00,VWS V14.01,2013-01-02 05:03:00,
2013-01-01 23:04:00,40.6,38.8,29.38,WNW,292,0.0,0.0,93,0.00,,---,1.12,VWS V14.01,2013-01-02 05:04:00,
2013-01-01 23:05:00,40.6,38.5,29.38,NW,315,0.0,0.0,92,0.00,,---,1.12,VWS V14.01,2013-01-02 05:05:00,
2013-01-01 23:06:00,40.6,38.5,29.38,NNE,22,0.0,0.0,92,0.00,,---,1.12,VWS V14.01,2013-01-02 05:06:00,
2013-01-01 23:07:00,40.6,38.5,29.38,NNW,338,0.0,0.0,92,0.00,,---,1.12,VWS V14.01,2013-01-02 05:07:00,
2013-01-01 23:08:00,39.2,37.3,29.44,NE,45,0.0,0.0,93,0.00,,---,0.00,VWS V14.01,2013-01-02 05:08:00,
2013-01-01 23:09:00,40.6,38.5,29.38,North,0,0.0,0.0,92,0.00,,---,1.12,VWS V14.01,2013-01-02 05:09:00,
2013-01-01 23:10:00,40.5,38.3,29.38,North,0,0.0,0.0,92,0.00,,---,1.12,VWS V14.01,2013-01-02 05:10:00,
2013-01-01 23:11:00,40.5,38.3,29.38,NNE,22,0.0,0.0,92,0.00,,---,1.12,VWS V14.01,2013-01-02 05:11:00,
2013-01-01 23:12:00,40.5,38.3,29.38,NNE,22,0.0,0.0,92,0.00,,---,1.12,VWS V14.01,2013-01-02 05:12:00,
2013-01-01 23:13:00,39.2,37.6,29.44,NNW,338,0.0,0.0,94,0.00,,---,0.00,VWS V14.01,2013-01-02 05:13:00,
2013-01-01 23:14:00,40.5,38.3,29.38,NNW,338,0.0,0.0,92,0.00,,---,1.12,VWS V14.01,2013-01-02 05:14:00,
2013-01-01 23:15:00,40.5,38.3,29.38,NE,45,0.0,0.0,92,0.00,,---,1.12,VWS V14.01,2013-01-02 05:15:00,
2013-01-01 23:16:00,40.5,38.3,29.38,NNE,22,0.0,0.0,92,0.00,,---,1.12,VWS V14.01,2013-01-02 05:16:00,
2013-01-01 23:17:00,40.3,38.2,29.38,NE,45,0.0,0.0,92,0.00,,---,1.12,VWS V14.01,2013-01-02 05:17:00,
2013-01-01 23:18:00,39.0,37.4,29.44,NE,45,0.0,0.0,94,0.00,,---,0.00,VWS V14.01,2013-01-02 05:18:00,
2013-01-01 23:19:00,40.3,38.2,29.38,ENE,68,0.0,0.0,92,0.00,,---,1.12,VWS V14.01,2013-01-02 05:19:00,
2013-01-01 23:20:00,40.3,38.2,29.38,NE,45,0.0,0.0,92,0.00,,---,1.12,VWS V14.01,2013-01-02 05:20:00,
2013-01-01 23:21:00,40.3,38.2,29.38,NE,45,0.0,0.0,92,0.00,,---,1.12,VWS V14.01,2013-01-02 05:21:00,
2013-01-01 23:22:00,40.3,38.2,29.38,NE,45,0.0,0.0,92,0.00,,---,1.12,VWS V14.01,2013-01-02 05:22:00,
2013-01-01 23:23:00,39.0,37.4,29.44,NW,315,0.0,0.0,94,0.00,,---,0.00,VWS V14.01,2013-01-02 05:23:00,
2013-01-01 23:24:00,40.3,38.2,29.38,NNE,22,0.0,0.0,92,0.00,,---,1.12,VWS V14.01,2013-01-02 05:24:00,
2013-01-01 23:25:00,40.3,38.2,29.38,NNE,22,0.0,0.0,92,0.00,,---,1.12,VWS V14.01,2013-01-02 05:25:00,
2013-01-01 23:26:00,40.3,38.2,29.38,ENE,68,0.0,0.0,92,0.00,,---,1.12,VWS V14.01,2013-01-02 05:26:00,
2013-01-01 23:27:00,40.1,38.0,29.38,NNE,22,0.0,0.0,92,0.00,,---,1.12,VWS V14.01,2013-01-02 05:27:00,
2013-01-01 23:28:00,39.0,37.4,29.44,NW,315,0.0,0.0,94,0.00,,---,0.00,VWS V14.01,2013-01-02 05:28:00,
2013-01-01 23:29:00,40.1,38.0,29.38,NE,45,0.0,0.0,92,0.00,,---,1.12,VWS V14.01,2013-01-02 05:29:00,
2013-01-01 23:30:00,40.1,38.0,29.38,NE,45,0.0,0.0,92,0.00,,---,1.12,VWS V14.01,2013-01-02 05:30:00,
2013-01-01 23:31:00,40.1,38.0,29.38,ENE,68,0.0,0.0,92,0.00,,---,1.12,VWS V14.01,2013-01-02 05:31:00,
2013-01-01 23:32:00,40.1,38.0,29.38,ESE,112,0.0,3.6,92,0.00,,---,1.12,VWS V14.01,2013-01-02 05:32:00,
2013-01-01 23:33:00,38.8,37.3,29.44,NNW,338,0.0,0.0,94,0.00,,---,0.00,VWS V14.01,2013-01-02 05:33:00,
2013-01-01 23:34:00,39.9,37.8,29.38,ENE,68,0.0,0.0,92,0.00,,---,1.12,VWS V14.01,2013-01-02 05:34:00,
2013-01-01 23:35:00,39.9,37.8,29.38,NNE,22,0.0,0.0,92,0.00,,---,1.12,VWS V14.01,2013-01-02 05:35:00,
2013-01-01 23:36:00,39.9,37.8,29.38,NNE,22,0.0,0.0,92,0.00,,---,1.12,VWS V14.01,2013-01-02 05:36:00,
2013-01-01 23:37:00,39.9,37.8,29.38,NNE,22,0.0,0.0,92,0.00,,---,1.12,VWS V14.01,2013-01-02 05:37:00,
2013-01-01 23:38:00,38.8,37.3,29.44,NNW,338,0.0,0.0,94,0.00,,---,0.00,VWS V14.01,2013-01-02 05:38:00,
2013-01-01 23:39:00,39.9,37.8,29.38,ENE,68,0.0,0.0,92,0.00,,---,1.12,VWS V14.01,2013-01-02 05:39:00,
2013-01-01 23:40:00,39.9,37.8,29.38,NE,45,0.0,0.0,92,0.00,,---,1.12,VWS V14.01,2013-01-02 05:40:00,
2013-01-01 23:41:00,39.9,37.8,29.38,ENE,68,0.0,0.0,92,0.00,,---,1.12,VWS V14.01,2013-01-02 05:41:00,
2013-01-01 23:42:00,39.9,37.8,29.38,NNE,22,0.0,0.0,92,0.00,,---,1.12,VWS V14.01,2013-01-02 05:42:00,
2013-01-01 23:43:00,38.8,37.3,29.44,NNW,338,0.0,0.0,94,0.00,,---,0.00,VWS V14.01,2013-01-02 05:43:00,
2013-01-01 23:44:00,39.9,37.8,29.38,NNE,22,0.0,0.0,92,0.00,,---,1.12,VWS V14.01,2013-01-02 05:44:00,
2013-01-01 23:45:00,39.9,37.8,29.38,NNE,22,0.0,0.0,92,0.00,,---,1.12,VWS V14.01,2013-01-02 05:45:00,
2013-01-01 23:46:00,39.9,37.8,29.38,ENE,68,0.0,0.0,92,0.00,,---,1.12,VWS V14.01,2013-01-02 05:46:00,
2013-01-01 23:47:00,39.9,37.8,29.38,NE,45,0.0,0.0,92,0.00,,---,1.12,VWS V14.01,2013-01-02 05:47:00,
2013-01-01 23:48:00,38.8,37.5,29.44,NNW,338,0.0,0.0,95,0.00,,---,0.00,VWS V14.01,2013-01-02 05:48:00,
2013-01-01 23:49:00,39.9,37.8,29.38,NE,45,0.0,0.0,92,0.00,,---,1.12,VWS V14.01,2013-01-02 05:49:00,
2013-01-01 23:50:00,39.9,37.8,29.38,ENE,68,0.0,0.0,92,0.00,,---,1.12,VWS V14.01,2013-01-02 05:50:00,
2013-01-01 23:51:00,39.9,37.8,29.38,NE,45,0.0,0.0,92,0.00,,---,1.12,VWS V14.01,2013-01-02 05:51:00,
2013-01-01 23:52:00,39.7,37.6,29.38,NE,45,0.0,0.0,92,0.00,,---,1.12,VWS V14.01,2013-01-02 05:52:00,
2013-01-01 23:53:00,38.8,37.5,29.41,NNW,338,0.0,0.0,95,0.00,,---,0.00,VWS V14.01,2013-01-02 05:53:00,
2013-01-01 23:54:00,39.7,37.6,29.38,ENE,68,0.0,0.0,92,0.00,,---,1.12,VWS V14.01,2013-01-02 05:54:00,
2013-01-01 23:55:00,39.7,37.6,29.38,NNE,22,0.0,0.0,92,0.00,,---,1.12,VWS V14.01,2013-01-02 05:55:00,
2013-01-01 23:56:00,39.7,37.6,29.38,NNE,22,0.0,0.0,92,0.00,,---,1.12,VWS V14.01,2013-01-02 05:56:00,
2013-01-01 23:57:00,39.7,37.9,29.38,NNE,22,0.0,0.0,93,0.00,,---,1.12,VWS V14.01,2013-01-02 05:57:00,
2013-01-01 23:58:00,38.8,37.5,29.41,NNW,338,0.0,0.0,95,0.00,,---,0.00,VWS V14.01,2013-01-02 05:58:00,
2013-01-01 23:59:00,39.7,37.9,29.38,NNE,22,0.0,0.0,93,0.00,,---,1.12,VWS V14.01,2013-01-02 05:59:00,